PWSweather.com
Personal Weather Stations
Station Observations

AlkmaarNL

Lat: 52.6303736, Lon: 4.737476499999957

Elevation: 20

Station Type: Fine Offset WH3080 (Alecto WS-5000 Eco)

http://www.alkmaarweer.nl

Latest ConditionsUpdated 9:47:00 PM GMT+01:01 Monday, Sep 23, 2019
Currently Today's Max Today's Min Today's Average
Temperature 55.9°F13.3°C 66.2°F19.0°C 55.9°F13.3°C 61.1°F16.2°C
Dew Point 52.4°F11.3°C 61.6°F16.4°C 52.4°F11.3°C 57.2°F14.0°C
Winds Calm Calm 8.1 mph -13.0 kmh - - 1.9 mph 3.1 kmh
Wind Gusts -- 13.0 mph20.9 kmh - -
Humidity 88% 99% 70% 87%
Pressure 29.96 in1014.6 mb 29.96 in1014.6 mb 29.80 in1009.1 mb -
Precipitation - 0.08 in2.0 mm - -
Hour Temp Dew Point Humidity Winds Wind Gusts Pressure Precip Precip Rate Daily Precip Total
09:47 PM 55.9°F13.3°C 52.4°F11.3°C 88% Calm Calm -- 29.96 in1014.6 mb 0.00 in0.0 mm 0.00 in0.0 mm 0.08 in2.0 mm
09:46 PM 55.9°F13.3°C 52.4°F11.3°C 88% Calm Calm -- 29.96 in1014.6 mb 0.00 in0.0 mm 0.00 in0.0 mm 0.08 in2.0 mm
09:45 PM 55.9°F13.3°C 52.4°F11.3°C 88% Calm Calm -- 29.96 in1014.6 mb 0.00 in0.0 mm 0.00 in0.0 mm 0.08 in2.0 mm
09:44 PM 56.1°F13.4°C 52.6°F11.4°C 88% Calm Calm 0.7 mph1.1 kmh 29.96 in1014.6 mb 0.00 in0.0 mm 0.00 in0.0 mm 0.08 in2.0 mm
09:43 PM 56.1°F13.4°C 52.6°F11.4°C 88% Calm Calm 0.7 mph1.1 kmh 29.95 in1014.2 mb 0.00 in0.0 mm 0.00 in0.0 mm 0.08 in2.0 mm
09:42 PM 56.1°F13.4°C 52.6°F11.4°C 88% Calm Calm 0.7 mph1.1 kmh 29.96 in1014.6 mb 0.00 in0.0 mm 0.00 in0.0 mm 0.08 in2.0 mm
09:41 PM 56.3°F13.5°C 52.8°F11.6°C 88% Calm Calm 0.7 mph1.1 kmh 29.95 in1014.2 mb 0.00 in0.0 mm 0.00 in0.0 mm 0.08 in2.0 mm
09:40 PM 56.3°F13.5°C 52.8°F11.6°C 88% Calm Calm 0.7 mph1.1 kmh 29.95 in1014.2 mb 0.00 in0.0 mm 0.00 in0.0 mm 0.08 in2.0 mm
09:39 PM 56.3°F13.5°C 52.8°F11.6°C 88% Calm Calm 0.7 mph1.1 kmh 29.96 in1014.6 mb 0.00 in0.0 mm 0.00 in0.0 mm 0.08 in2.0 mm
09:38 PM 56.3°F13.5°C 52.8°F11.6°C 88% Calm Calm 0.7 mph1.1 kmh 29.96 in1014.6 mb 0.00 in0.0 mm 0.00 in0.0 mm 0.08 in2.0 mm
09:37 PM 56.3°F13.5°C 52.8°F11.6°C 88% Calm Calm 0.7 mph1.1 kmh 29.96 in1014.6 mb 0.00 in0.0 mm 0.00 in0.0 mm 0.08 in2.0 mm
09:36 PM 56.3°F13.5°C 52.8°F11.6°C 88% Calm Calm 0.7 mph1.1 kmh 29.96 in1014.6 mb 0.00 in0.0 mm 0.00 in0.0 mm 0.08 in2.0 mm
09:35 PM 56.3°F13.5°C 52.8°F11.6°C 88% Calm Calm 0.7 mph1.1 kmh 29.96 in1014.6 mb 0.00 in0.0 mm 0.00 in0.0 mm 0.08 in2.0 mm
09:34 PM 56.3°F13.5°C 52.8°F11.6°C 88% Calm Calm -- 29.96 in1014.6 mb 0.00 in0.0 mm 0.00 in0.0 mm 0.08 in2.0 mm
09:33 PM 56.3°F13.5°C 52.8°F11.6°C 88% Calm Calm -- 29.96 in1014.6 mb 0.00 in0.0 mm 0.00 in0.0 mm 0.08 in2.0 mm
09:32 PM 56.3°F13.5°C 52.8°F11.6°C 88% Calm Calm -- 29.95 in1014.2 mb 0.00 in0.0 mm 0.00 in0.0 mm 0.08 in2.0 mm
09:31 PM 56.3°F13.5°C 52.8°F11.6°C 88% Calm Calm -- 29.96 in1014.6 mb 0.00 in0.0 mm 0.00 in0.0 mm 0.08 in2.0 mm
09:30 PM 56.3°F13.5°C 52.8°F11.6°C 88% Calm Calm -- 29.96 in1014.6 mb 0.00 in0.0 mm 0.00 in0.0 mm 0.08 in2.0 mm
09:29 PM 56.3°F13.5°C 52.8°F11.6°C 88% Calm Calm -- 29.96 in1014.6 mb 0.00 in0.0 mm 0.00 in0.0 mm 0.08 in2.0 mm
09:28 PM 56.3°F13.5°C 52.8°F11.6°C 88% Calm Calm -- 29.96 in1014.6 mb 0.00 in0.0 mm 0.00 in0.0 mm 0.08 in2.0 mm
09:27 PM 56.3°F13.5°C 52.8°F11.6°C 88% Calm Calm -- 29.96 in1014.6 mb 0.00 in0.0 mm 0.00 in0.0 mm 0.08 in2.0 mm
09:26 PM 56.3°F13.5°C 52.8°F11.6°C 88% Calm Calm -- 29.95 in1014.2 mb 0.00 in0.0 mm 0.00 in0.0 mm 0.08 in2.0 mm
09:25 PM 56.3°F13.5°C 52.8°F11.6°C 88% Calm Calm -- 29.96 in1014.6 mb 0.00 in0.0 mm 0.00 in0.0 mm 0.08 in2.0 mm
09:24 PM 56.3°F13.5°C 52.8°F11.6°C 88% Calm Calm -- 29.96 in1014.6 mb 0.00 in0.0 mm 0.00 in0.0 mm 0.08 in2.0 mm
09:23 PM 56.3°F13.5°C 52.8°F11.6°C 88% Calm Calm -- 29.96 in1014.6 mb 0.00 in0.0 mm 0.00 in0.0 mm 0.08 in2.0 mm
09:22 PM 56.7°F13.7°C 53.2°F11.8°C 88% Calm Calm -- 29.96 in1014.6 mb 0.00 in0.0 mm 0.00 in0.0 mm 0.08 in2.0 mm
09:21 PM 56.7°F13.7°C 53.2°F11.8°C 88% Calm Calm -- 29.95 in1014.2 mb 0.00 in0.0 mm 0.00 in0.0 mm 0.08 in2.0 mm
09:20 PM 56.7°F13.7°C 53.2°F11.8°C 88% Calm Calm -- 29.96 in1014.6 mb 0.00 in0.0 mm 0.00 in0.0 mm 0.08 in2.0 mm
09:19 PM 56.7°F13.7°C 53.2°F11.8°C 88% Calm Calm -- 29.96 in1014.6 mb 0.00 in0.0 mm 0.00 in0.0 mm 0.08 in2.0 mm
09:18 PM 56.7°F13.7°C 53.2°F11.8°C 88% Calm Calm -- 29.96 in1014.6 mb 0.00 in0.0 mm 0.00 in0.0 mm 0.08 in2.0 mm
09:17 PM 56.7°F13.7°C 53.2°F11.8°C 88% Calm Calm -- 29.96 in1014.6 mb 0.00 in0.0 mm 0.00 in0.0 mm 0.08 in2.0 mm
09:16 PM 56.8°F13.8°C 53.3°F11.8°C 88% Calm Calm -- 29.96 in1014.6 mb 0.00 in0.0 mm 0.00 in0.0 mm 0.08 in2.0 mm
09:15 PM 56.8°F13.8°C 53.3°F11.8°C 88% Calm Calm -- 29.96 in1014.6 mb 0.00 in0.0 mm 0.00 in0.0 mm 0.08 in2.0 mm
09:14 PM 56.8°F13.8°C 53.3°F11.8°C 88% Calm Calm -- 29.96 in1014.6 mb 0.00 in0.0 mm 0.00 in0.0 mm 0.08 in2.0 mm
09:13 PM 56.8°F13.8°C 53.3°F11.8°C 88% Calm Calm -- 29.96 in1014.6 mb 0.00 in0.0 mm 0.00 in0.0 mm 0.08 in2.0 mm
09:12 PM 56.8°F13.8°C 53.3°F11.8°C 88% Calm Calm -- 29.96 in1014.6 mb 0.00 in0.0 mm 0.00 in0.0 mm 0.08 in2.0 mm
09:11 PM 56.8°F13.8°C 53.3°F11.8°C 88% Calm Calm -- 29.96 in1014.6 mb 0.00 in0.0 mm 0.00 in0.0 mm 0.08 in2.0 mm
09:10 PM 56.8°F13.8°C 53.3°F11.8°C 88% Calm Calm -- 29.96 in1014.6 mb 0.00 in0.0 mm 0.00 in0.0 mm 0.08 in2.0 mm
09:09 PM 56.8°F13.8°C 53.3°F11.8°C 88% Calm Calm -- 29.96 in1014.6 mb 0.00 in0.0 mm 0.00 in0.0 mm 0.08 in2.0 mm
09:08 PM 56.8°F13.8°C 53.0°F11.7°C 87% Calm Calm -- 29.96 in1014.6 mb 0.00 in0.0 mm 0.00 in0.0 mm 0.08 in2.0 mm
09:07 PM 57.2°F14.0°C 53.1°F11.7°C 86% Calm Calm -- 29.96 in1014.6 mb 0.00 in0.0 mm 0.00 in0.0 mm 0.08 in2.0 mm
09:06 PM 57.2°F14.0°C 53.1°F11.7°C 86% Calm Calm -- 29.96 in1014.6 mb 0.00 in0.0 mm 0.00 in0.0 mm 0.08 in2.0 mm
09:05 PM 57.2°F14.0°C 53.1°F11.7°C 86% Calm Calm -- 29.96 in1014.6 mb 0.00 in0.0 mm 0.00 in0.0 mm 0.08 in2.0 mm
09:04 PM 57.2°F14.0°C 53.1°F11.7°C 86% Calm Calm -- 29.96 in1014.6 mb 0.00 in0.0 mm 0.00 in0.0 mm 0.08 in2.0 mm
09:03 PM 57.2°F14.0°C 53.1°F11.7°C 86% Calm Calm -- 29.96 in1014.6 mb 0.00 in0.0 mm 0.00 in0.0 mm 0.08 in2.0 mm
09:02 PM 57.2°F14.0°C 53.1°F11.7°C 86% Calm Calm -- 29.96 in1014.6 mb 0.00 in0.0 mm 0.00 in0.0 mm 0.08 in2.0 mm
09:01 PM 57.2°F14.0°C 53.1°F11.7°C 86% Calm Calm -- 29.96 in1014.6 mb 0.00 in0.0 mm 0.00 in0.0 mm 0.08 in2.0 mm
09:00 PM 57.2°F14.0°C 53.1°F11.7°C 86% Calm Calm -- 29.96 in1014.6 mb 0.00 in0.0 mm 0.00 in0.0 mm 0.08 in2.0 mm
08:59 PM 57.2°F14.0°C 53.1°F11.7°C 86% Calm Calm -- 29.96 in1014.6 mb 0.00 in0.0 mm 0.00 in0.0 mm 0.08 in2.0 mm
08:58 PM 57.2°F14.0°C 53.1°F11.7°C 86% Calm Calm -- 29.96 in1014.6 mb 0.00 in0.0 mm 0.00 in0.0 mm 0.08 in2.0 mm
08:57 PM 57.2°F14.0°C 53.1°F11.7°C 86% Calm Calm -- 29.96 in1014.6 mb 0.00 in0.0 mm 0.00 in0.0 mm 0.08 in2.0 mm
08:56 PM 57.2°F14.0°C 53.1°F11.7°C 86% Calm Calm -- 29.96 in1014.6 mb 0.00 in0.0 mm 0.00 in0.0 mm 0.08 in2.0 mm
08:55 PM 57.4°F14.1°C 53.2°F11.8°C 86% Calm Calm -- 29.96 in1014.6 mb 0.00 in0.0 mm 0.00 in0.0 mm 0.08 in2.0 mm
08:54 PM 57.4°F14.1°C 53.2°F11.8°C 86% Calm Calm -- 29.96 in1014.6 mb 0.00 in0.0 mm 0.00 in0.0 mm 0.08 in2.0 mm
08:53 PM 57.4°F14.1°C 53.2°F11.8°C 86% Calm Calm -- 29.96 in1014.6 mb 0.00 in0.0 mm 0.00 in0.0 mm 0.08 in2.0 mm
08:52 PM 57.4°F14.1°C 53.2°F11.8°C 86% Calm Calm -- 29.96 in1014.6 mb 0.00 in0.0 mm 0.00 in0.0 mm 0.08 in2.0 mm
08:51 PM 57.6°F14.2°C 53.4°F11.9°C 86% Calm Calm -- 29.96 in1014.6 mb 0.00 in0.0 mm 0.00 in0.0 mm 0.08 in2.0 mm
08:50 PM 57.6°F14.2°C 53.4°F11.9°C 86% Calm Calm -- 29.96 in1014.6 mb 0.00 in0.0 mm 0.00 in0.0 mm 0.08 in2.0 mm
08:49 PM 57.6°F14.2°C 53.4°F11.9°C 86% Calm Calm -- 29.96 in1014.6 mb 0.00 in0.0 mm 0.00 in0.0 mm 0.08 in2.0 mm
08:48 PM 57.7°F14.3°C 53.6°F12.0°C 86% Calm Calm -- 29.96 in1014.6 mb 0.00 in0.0 mm 0.00 in0.0 mm 0.08 in2.0 mm
08:47 PM 57.7°F14.3°C 53.6°F12.0°C 86% Calm Calm -- 29.96 in1014.6 mb 0.00 in0.0 mm 0.00 in0.0 mm 0.08 in2.0 mm
08:46 PM 57.7°F14.3°C 53.6°F12.0°C 86% Calm Calm -- 29.96 in1014.6 mb 0.00 in0.0 mm 0.00 in0.0 mm 0.08 in2.0 mm
08:45 PM 57.7°F14.3°C 53.6°F12.0°C 86% Calm Calm -- 29.96 in1014.6 mb 0.00 in0.0 mm 0.00 in0.0 mm 0.08 in2.0 mm
08:44 PM 57.7°F14.3°C 53.6°F12.0°C 86% Calm Calm -- 29.96 in1014.6 mb 0.00 in0.0 mm 0.00 in0.0 mm 0.08 in2.0 mm
08:43 PM 57.7°F14.3°C 53.6°F12.0°C 86% Calm Calm 0.7 mph1.1 kmh 29.96 in1014.6 mb 0.00 in0.0 mm 0.00 in0.0 mm 0.08 in2.0 mm
08:42 PM 57.7°F14.3°C 53.6°F12.0°C 86% 0.1 mph S0.2 kmh S 0.7 mph1.1 kmh 29.96 in1014.6 mb 0.00 in0.0 mm 0.00 in0.0 mm 0.08 in2.0 mm
08:41 PM 57.7°F14.3°C 53.6°F12.0°C 86% 0.2 mph SW0.3 kmh SW 1.6 mph2.6 kmh 29.96 in1014.6 mb 0.00 in0.0 mm 0.00 in0.0 mm 0.08 in2.0 mm
08:40 PM 57.7°F14.3°C 53.6°F12.0°C 86% 0.2 mph SW0.3 kmh SW 1.6 mph2.6 kmh 29.96 in1014.6 mb 0.00 in0.0 mm 0.00 in0.0 mm 0.08 in2.0 mm
08:39 PM 57.9°F14.4°C 53.8°F12.1°C 86% 0.2 mph SW0.3 kmh SW 1.6 mph2.6 kmh 29.96 in1014.6 mb 0.00 in0.0 mm 0.00 in0.0 mm 0.08 in2.0 mm
08:38 PM 57.7°F14.3°C 53.6°F12.0°C 86% 0.2 mph SW0.3 kmh SW 1.6 mph2.6 kmh 29.96 in1014.6 mb 0.00 in0.0 mm 0.00 in0.0 mm 0.08 in2.0 mm
08:37 PM 57.7°F14.3°C 53.6°F12.0°C 86% 0.2 mph SW0.3 kmh SW 1.6 mph2.6 kmh 29.96 in1014.6 mb 0.00 in0.0 mm 0.00 in0.0 mm 0.08 in2.0 mm
08:36 PM 57.7°F14.3°C 53.6°F12.0°C 86% 0.2 mph SW0.3 kmh SW 1.6 mph2.6 kmh 29.96 in1014.6 mb 0.00 in0.0 mm 0.00 in0.0 mm 0.08 in2.0 mm
08:35 PM 57.7°F14.3°C 53.6°F12.0°C 86% 0.2 mph SW0.3 kmh SW 1.6 mph2.6 kmh 29.96 in1014.6 mb 0.00 in0.0 mm 0.00 in0.0 mm 0.08 in2.0 mm
08:34 PM 57.7°F14.3°C 53.6°F12.0°C 86% 0.2 mph SW0.3 kmh SW 1.6 mph2.6 kmh 29.96 in1014.6 mb 0.00 in0.0 mm 0.00 in0.0 mm 0.08 in2.0 mm
08:33 PM 57.7°F14.3°C 53.6°F12.0°C 86% 0.1 mph SW0.2 kmh SW 1.6 mph2.6 kmh 29.96 in1014.6 mb 0.00 in0.0 mm 0.00 in0.0 mm 0.08 in2.0 mm
08:32 PM 57.7°F14.3°C 53.3°F11.8°C 85% 0.1 mph SW0.2 kmh SW 1.6 mph2.6 kmh 29.96 in1014.6 mb 0.00 in0.0 mm 0.00 in0.0 mm 0.08 in2.0 mm
08:31 PM 57.7°F14.3°C 53.3°F11.8°C 85% Calm Calm -- 29.96 in1014.6 mb 0.00 in0.0 mm 0.00 in0.0 mm 0.08 in2.0 mm
08:30 PM 57.7°F14.3°C 53.3°F11.8°C 85% Calm Calm -- 29.96 in1014.6 mb 0.00 in0.0 mm 0.00 in0.0 mm 0.08 in2.0 mm
08:29 PM 57.7°F14.3°C 53.3°F11.8°C 85% Calm Calm -- 29.96 in1014.6 mb 0.00 in0.0 mm 0.00 in0.0 mm 0.08 in2.0 mm
08:28 PM 57.7°F14.3°C 53.3°F11.8°C 85% Calm Calm -- 29.96 in1014.6 mb 0.00 in0.0 mm 0.00 in0.0 mm 0.08 in2.0 mm
08:27 PM 57.9°F14.4°C 53.4°F11.9°C 85% Calm Calm -- 29.96 in1014.6 mb 0.00 in0.0 mm 0.00 in0.0 mm 0.08 in2.0 mm
08:26 PM 57.9°F14.4°C 53.4°F11.9°C 85% Calm Calm -- 29.96 in1014.6 mb 0.00 in0.0 mm 0.00 in0.0 mm 0.08 in2.0 mm
08:25 PM 57.9°F14.4°C 53.4°F11.9°C 85% Calm Calm -- 29.96 in1014.6 mb 0.00 in0.0 mm 0.00 in0.0 mm 0.08 in2.0 mm
08:24 PM 57.9°F14.4°C 53.4°F11.9°C 85% Calm Calm -- 29.96 in1014.6 mb 0.00 in0.0 mm 0.00 in0.0 mm 0.08 in2.0 mm
08:23 PM 57.9°F14.4°C 53.4°F11.9°C 85% Calm Calm -- 29.96 in1014.6 mb 0.00 in0.0 mm 0.00 in0.0 mm 0.08 in2.0 mm
08:22 PM 57.9°F14.4°C 53.4°F11.9°C 85% Calm Calm -- 29.96 in1014.6 mb 0.00 in0.0 mm 0.00 in0.0 mm 0.08 in2.0 mm
08:21 PM 57.9°F14.4°C 53.4°F11.9°C 85% Calm Calm -- 29.96 in1014.6 mb 0.00 in0.0 mm 0.00 in0.0 mm 0.08 in2.0 mm
08:20 PM 57.9°F14.4°C 53.4°F11.9°C 85% Calm Calm -- 29.96 in1014.6 mb 0.00 in0.0 mm 0.00 in0.0 mm 0.08 in2.0 mm
08:19 PM 57.9°F14.4°C 53.4°F11.9°C 85% Calm Calm -- 29.96 in1014.6 mb 0.00 in0.0 mm 0.00 in0.0 mm 0.08 in2.0 mm
08:18 PM 58.1°F14.5°C 53.6°F12.0°C 85% Calm Calm -- 29.96 in1014.6 mb 0.00 in0.0 mm 0.00 in0.0 mm 0.08 in2.0 mm
08:17 PM 58.1°F14.5°C 53.6°F12.0°C 85% Calm Calm -- 29.96 in1014.6 mb 0.00 in0.0 mm 0.00 in0.0 mm 0.08 in2.0 mm
08:16 PM 58.1°F14.5°C 53.6°F12.0°C 85% Calm Calm -- 29.96 in1014.6 mb 0.00 in0.0 mm 0.00 in0.0 mm 0.08 in2.0 mm
08:15 PM 58.1°F14.5°C 53.6°F12.0°C 85% Calm Calm -- 29.96 in1014.6 mb 0.00 in0.0 mm 0.00 in0.0 mm 0.08 in2.0 mm
08:14 PM 58.1°F14.5°C 53.6°F12.0°C 85% Calm Calm -- 29.96 in1014.6 mb 0.00 in0.0 mm 0.00 in0.0 mm 0.08 in2.0 mm
08:13 PM 58.1°F14.5°C 53.6°F12.0°C 85% Calm Calm -- 29.96 in1014.6 mb 0.00 in0.0 mm 0.00 in0.0 mm 0.08 in2.0 mm
08:12 PM 58.1°F14.5°C 53.3°F11.8°C 84% Calm Calm -- 29.96 in1014.6 mb 0.00 in0.0 mm 0.00 in0.0 mm 0.08 in2.0 mm
08:11 PM 58.1°F14.5°C 53.3°F11.8°C 84% Calm Calm -- 29.96 in1014.6 mb 0.00 in0.0 mm 0.00 in0.0 mm 0.08 in2.0 mm
08:10 PM 58.1°F14.5°C 53.3°F11.8°C 84% Calm Calm -- 29.96 in1014.6 mb 0.00 in0.0 mm 0.00 in0.0 mm 0.08 in2.0 mm
08:09 PM 58.1°F14.5°C 53.3°F11.8°C 84% Calm Calm -- 29.96 in1014.6 mb 0.00 in0.0 mm 0.00 in0.0 mm 0.08 in2.0 mm
08:08 PM 58.3°F14.6°C 53.5°F11.9°C 84% Calm Calm -- 29.96 in1014.6 mb 0.00 in0.0 mm 0.00 in0.0 mm 0.08 in2.0 mm
08:07 PM 58.3°F14.6°C 53.5°F11.9°C 84% Calm Calm -- 29.96 in1014.6 mb 0.00 in0.0 mm 0.00 in0.0 mm 0.08 in2.0 mm
08:06 PM 58.3°F14.6°C 53.5°F11.9°C 84% Calm Calm -- 29.96 in1014.6 mb 0.00 in0.0 mm 0.00 in0.0 mm 0.08 in2.0 mm
08:05 PM 58.3°F14.6°C 53.5°F11.9°C 84% Calm Calm -- 29.96 in1014.6 mb 0.00 in0.0 mm 0.00 in0.0 mm 0.08 in2.0 mm
08:04 PM 58.3°F14.6°C 53.5°F11.9°C 84% Calm Calm -- 29.96 in1014.6 mb 0.00 in0.0 mm 0.00 in0.0 mm 0.08 in2.0 mm
08:03 PM 58.3°F14.6°C 53.5°F11.9°C 84% Calm Calm -- 29.96 in1014.6 mb 0.00 in0.0 mm 0.00 in0.0 mm 0.08 in2.0 mm
08:02 PM 58.3°F14.6°C 53.5°F11.9°C 84% Calm Calm -- 29.96 in1014.6 mb 0.00 in0.0 mm 0.00 in0.0 mm 0.08 in2.0 mm
08:01 PM 58.3°F14.6°C 53.5°F11.9°C 84% Calm Calm -- 29.96 in1014.6 mb 0.00 in0.0 mm 0.00 in0.0 mm 0.08 in2.0 mm
08:00 PM 58.3°F14.6°C 53.5°F11.9°C 84% Calm Calm -- 29.96 in1014.6 mb 0.00 in0.0 mm 0.00 in0.0 mm 0.08 in2.0 mm
07:59 PM 58.3°F14.6°C 53.5°F11.9°C 84% Calm Calm -- 29.96 in1014.6 mb 0.00 in0.0 mm 0.00 in0.0 mm 0.08 in2.0 mm
07:58 PM 58.3°F14.6°C 53.5°F11.9°C 84% Calm Calm -- 29.96 in1014.6 mb 0.00 in0.0 mm 0.00 in0.0 mm 0.08 in2.0 mm
07:57 PM 58.3°F14.6°C 53.5°F11.9°C 84% Calm Calm -- 29.96 in1014.6 mb 0.00 in0.0 mm 0.00 in0.0 mm 0.08 in2.0 mm
07:56 PM 58.3°F14.6°C 53.2°F11.8°C 83% Calm Calm -- 29.96 in1014.6 mb 0.00 in0.0 mm 0.00 in0.0 mm 0.08 in2.0 mm
07:55 PM 58.3°F14.6°C 53.2°F11.8°C 83% Calm Calm -- 29.96 in1014.6 mb 0.00 in0.0 mm 0.00 in0.0 mm 0.08 in2.0 mm
07:54 PM 58.3°F14.6°C 53.2°F11.8°C 83% Calm Calm -- 29.96 in1014.6 mb 0.00 in0.0 mm 0.00 in0.0 mm 0.08 in2.0 mm
07:53 PM 58.3°F14.6°C 53.2°F11.8°C 83% Calm Calm -- 29.96 in1014.6 mb 0.00 in0.0 mm 0.00 in0.0 mm 0.08 in2.0 mm
07:52 PM 58.3°F14.6°C 53.2°F11.8°C 83% Calm Calm -- 29.96 in1014.6 mb 0.00 in0.0 mm 0.00 in0.0 mm 0.08 in2.0 mm
07:51 PM 58.3°F14.6°C 53.2°F11.8°C 83% Calm Calm -- 29.96 in1014.6 mb 0.00 in0.0 mm 0.00 in0.0 mm 0.08 in2.0 mm
07:50 PM 58.3°F14.6°C 53.2°F11.8°C 83% Calm Calm -- 29.96 in1014.6 mb 0.00 in0.0 mm 0.00 in0.0 mm 0.08 in2.0 mm
07:49 PM 58.5°F14.7°C 53.3°F11.8°C 83% 0.1 mph S0.2 kmh S 0.7 mph1.1 kmh 29.96 in1014.6 mb 0.00 in0.0 mm 0.00 in0.0 mm 0.08 in2.0 mm
07:48 PM 58.5°F14.7°C 53.3°F11.8°C 83% 0.1 mph S0.2 kmh S 0.7 mph1.1 kmh 29.96 in1014.6 mb 0.00 in0.0 mm 0.00 in0.0 mm 0.08 in2.0 mm
07:47 PM 58.5°F14.7°C 53.3°F11.8°C 83% 0.1 mph S0.2 kmh S 0.7 mph1.1 kmh 29.96 in1014.6 mb 0.00 in0.0 mm 0.00 in0.0 mm 0.08 in2.0 mm
07:46 PM 58.5°F14.7°C 53.3°F11.8°C 83% 0.1 mph S0.2 kmh S 0.7 mph1.1 kmh 29.96 in1014.6 mb 0.00 in0.0 mm 0.00 in0.0 mm 0.08 in2.0 mm
07:45 PM 58.5°F14.7°C 53.3°F11.8°C 83% 0.1 mph S0.2 kmh S 0.7 mph1.1 kmh 29.96 in1014.6 mb 0.00 in0.0 mm 0.00 in0.0 mm 0.08 in2.0 mm
07:44 PM 58.5°F14.7°C 53.3°F11.8°C 83% 0.1 mph S0.2 kmh S 0.7 mph1.1 kmh 29.96 in1014.6 mb 0.00 in0.0 mm 0.00 in0.0 mm 0.08 in2.0 mm
07:43 PM 58.5°F14.7°C 53.3°F11.8°C 83% 0.1 mph S0.2 kmh S 0.7 mph1.1 kmh 29.96 in1014.6 mb 0.00 in0.0 mm 0.00 in0.0 mm 0.08 in2.0 mm
07:42 PM 58.5°F14.7°C 53.3°F11.8°C 83% 0.1 mph S0.2 kmh S 0.7 mph1.1 kmh 29.96 in1014.6 mb 0.00 in0.0 mm 0.00 in0.0 mm 0.08 in2.0 mm
07:41 PM 58.5°F14.7°C 53.3°F11.8°C 83% 0.1 mph S0.2 kmh S 0.7 mph1.1 kmh 29.96 in1014.6 mb 0.00 in0.0 mm 0.00 in0.0 mm 0.08 in2.0 mm
07:40 PM 58.5°F14.7°C 53.3°F11.8°C 83% 0.1 mph SSW0.2 kmh SSW 1.6 mph2.6 kmh 29.96 in1014.6 mb 0.00 in0.0 mm 0.00 in0.0 mm 0.08 in2.0 mm
07:39 PM 58.6°F14.8°C 53.5°F11.9°C 83% 0.2 mph SW0.3 kmh SW 1.6 mph2.6 kmh 29.96 in1014.6 mb 0.00 in0.0 mm 0.00 in0.0 mm 0.08 in2.0 mm
07:38 PM 58.6°F14.8°C 53.5°F11.9°C 83% 0.3 mph SSW0.5 kmh SSW 1.6 mph2.6 kmh 29.96 in1014.6 mb 0.00 in0.0 mm 0.00 in0.0 mm 0.08 in2.0 mm
07:37 PM 58.6°F14.8°C 53.5°F11.9°C 83% 0.4 mph S0.6 kmh S 1.6 mph2.6 kmh 29.96 in1014.6 mb 0.00 in0.0 mm 0.00 in0.0 mm 0.08 in2.0 mm
07:36 PM 58.6°F14.8°C 53.5°F11.9°C 83% 0.5 mph S0.8 kmh S 1.6 mph2.6 kmh 29.96 in1014.6 mb 0.00 in0.0 mm 0.00 in0.0 mm 0.08 in2.0 mm
07:35 PM 58.6°F14.8°C 53.2°F11.8°C 82% 0.6 mph S1.0 kmh S 1.6 mph2.6 kmh 29.96 in1014.6 mb 0.00 in0.0 mm 0.00 in0.0 mm 0.08 in2.0 mm
07:34 PM 58.6°F14.8°C 53.2°F11.8°C 82% 0.6 mph S1.0 kmh S 1.6 mph2.6 kmh 29.96 in1014.6 mb 0.00 in0.0 mm 0.00 in0.0 mm 0.08 in2.0 mm
07:33 PM 58.6°F14.8°C 53.2°F11.8°C 82% 0.6 mph S1.0 kmh S 1.6 mph2.6 kmh 29.96 in1014.6 mb 0.00 in0.0 mm 0.00 in0.0 mm 0.08 in2.0 mm
07:32 PM 58.6°F14.8°C 53.2°F11.8°C 82% 0.6 mph S1.0 kmh S 1.6 mph2.6 kmh 29.96 in1014.6 mb 0.00 in0.0 mm 0.00 in0.0 mm 0.08 in2.0 mm
07:31 PM 58.6°F14.8°C 53.2°F11.8°C 82% 0.6 mph S1.0 kmh S 1.6 mph2.6 kmh 29.95 in1014.2 mb 0.00 in0.0 mm 0.00 in0.0 mm 0.08 in2.0 mm
07:30 PM 58.6°F14.8°C 53.2°F11.8°C 82% 0.5 mph S0.8 kmh S 1.6 mph2.6 kmh 29.96 in1014.6 mb 0.00 in0.0 mm 0.00 in0.0 mm 0.08 in2.0 mm
07:29 PM 58.8°F14.9°C 53.3°F11.8°C 82% 0.4 mph S0.6 kmh S 1.6 mph2.6 kmh 29.96 in1014.6 mb 0.00 in0.0 mm 0.00 in0.0 mm 0.08 in2.0 mm
07:28 PM 58.8°F14.9°C 53.3°F11.8°C 82% 0.3 mph SSE0.5 kmh SSE 1.6 mph2.6 kmh 29.96 in1014.6 mb 0.00 in0.0 mm 0.00 in0.0 mm 0.08 in2.0 mm
07:27 PM 58.8°F14.9°C 53.3°F11.8°C 82% 0.1 mph SE0.2 kmh SE 1.6 mph2.6 kmh 29.96 in1014.6 mb 0.00 in0.0 mm 0.00 in0.0 mm 0.08 in2.0 mm
07:26 PM 58.8°F14.9°C 53.3°F11.8°C 82% 0.1 mph SE0.2 kmh SE 1.6 mph2.6 kmh 29.95 in1014.2 mb 0.00 in0.0 mm 0.00 in0.0 mm 0.08 in2.0 mm
07:25 PM 58.8°F14.9°C 53.3°F11.8°C 82% Calm Calm -- 29.95 in1014.2 mb 0.00 in0.0 mm 0.00 in0.0 mm 0.08 in2.0 mm
07:24 PM 58.8°F14.9°C 53.3°F11.8°C 82% Calm Calm -- 29.96 in1014.6 mb 0.00 in0.0 mm 0.00 in0.0 mm 0.08 in2.0 mm
07:23 PM 58.8°F14.9°C 53.3°F11.8°C 82% Calm Calm -- 29.96 in1014.6 mb 0.00 in0.0 mm 0.00 in0.0 mm 0.08 in2.0 mm
07:22 PM 58.8°F14.9°C 53.3°F11.8°C 82% Calm Calm -- 29.95 in1014.2 mb 0.00 in0.0 mm 0.00 in0.0 mm 0.08 in2.0 mm
07:21 PM 58.8°F14.9°C 53.3°F11.8°C 82% Calm Calm -- 29.95 in1014.2 mb 0.00 in0.0 mm 0.00 in0.0 mm 0.08 in2.0 mm
07:20 PM 58.8°F14.9°C 53.3°F11.8°C 82% Calm Calm -- 29.95 in1014.2 mb 0.00 in0.0 mm 0.00 in0.0 mm 0.08 in2.0 mm
07:19 PM 59.0°F15.0°C 53.2°F11.8°C 81% Calm Calm -- 29.95 in1014.2 mb 0.00 in0.0 mm 0.00 in0.0 mm 0.08 in2.0 mm
07:18 PM 59.0°F15.0°C 53.2°F11.8°C 81% Calm Calm -- 29.95 in1014.2 mb 0.00 in0.0 mm 0.00 in0.0 mm 0.08 in2.0 mm
07:17 PM 59.0°F15.0°C 53.2°F11.8°C 81% Calm Calm -- 29.95 in1014.2 mb 0.00 in0.0 mm 0.00 in0.0 mm 0.08 in2.0 mm
07:16 PM 59.0°F15.0°C 53.2°F11.8°C 81% Calm Calm -- 29.95 in1014.2 mb 0.00 in0.0 mm 0.00 in0.0 mm 0.08 in2.0 mm
07:15 PM 59.0°F15.0°C 53.2°F11.8°C 81% Calm Calm -- 29.96 in1014.6 mb 0.00 in0.0 mm 0.00 in0.0 mm 0.08 in2.0 mm
07:14 PM 59.0°F15.0°C 53.2°F11.8°C 81% Calm Calm -- 29.96 in1014.6 mb 0.00 in0.0 mm 0.00 in0.0 mm 0.08 in2.0 mm
07:13 PM 59.0°F15.0°C 53.2°F11.8°C 81% Calm Calm -- 29.95 in1014.2 mb 0.00 in0.0 mm 0.00 in0.0 mm 0.08 in2.0 mm
07:12 PM 59.0°F15.0°C 53.2°F11.8°C 81% Calm Calm -- 29.95 in1014.2 mb 0.00 in0.0 mm 0.00 in0.0 mm 0.08 in2.0 mm
07:11 PM 59.2°F15.1°C 53.4°F11.9°C 81% Calm Calm -- 29.95 in1014.2 mb 0.00 in0.0 mm 0.00 in0.0 mm 0.08 in2.0 mm
07:10 PM 59.2°F15.1°C 53.0°F11.7°C 80% Calm Calm -- 29.95 in1014.2 mb 0.00 in0.0 mm 0.00 in0.0 mm 0.08 in2.0 mm
07:09 PM 59.2°F15.1°C 53.0°F11.7°C 80% Calm Calm -- 29.95 in1014.2 mb 0.00 in0.0 mm 0.00 in0.0 mm 0.08 in2.0 mm
07:08 PM 59.2°F15.1°C 53.0°F11.7°C 80% Calm Calm -- 29.95 in1014.2 mb 0.00 in0.0 mm 0.00 in0.0 mm 0.08 in2.0 mm
07:07 PM 59.4°F15.2°C 53.2°F11.8°C 80% Calm Calm -- 29.95 in1014.2 mb 0.00 in0.0 mm 0.00 in0.0 mm 0.08 in2.0 mm
07:06 PM 59.4°F15.2°C 53.2°F11.8°C 80% Calm Calm -- 29.95 in1014.2 mb 0.00 in0.0 mm 0.00 in0.0 mm 0.08 in2.0 mm
07:05 PM 59.4°F15.2°C 53.2°F11.8°C 80% Calm Calm -- 29.95 in1014.2 mb 0.00 in0.0 mm 0.00 in0.0 mm 0.08 in2.0 mm
07:04 PM 59.4°F15.2°C 53.2°F11.8°C 80% Calm Calm -- 29.95 in1014.2 mb 0.00 in0.0 mm 0.00 in0.0 mm 0.08 in2.0 mm
07:03 PM 59.4°F15.2°C 53.2°F11.8°C 80% Calm Calm -- 29.95 in1014.2 mb 0.00 in0.0 mm 0.00 in0.0 mm 0.08 in2.0 mm
07:02 PM 59.4°F15.2°C 53.2°F11.8°C 80% Calm Calm -- 29.95 in1014.2 mb 0.00 in0.0 mm 0.00 in0.0 mm 0.08 in2.0 mm
07:01 PM 59.4°F15.2°C 53.2°F11.8°C 80% Calm Calm -- 29.95 in1014.2 mb 0.00 in0.0 mm 0.00 in0.0 mm 0.08 in2.0 mm
07:00 PM 59.4°F15.2°C 53.2°F11.8°C 80% Calm Calm -- 29.95 in1014.2 mb 0.00 in0.0 mm 0.00 in0.0 mm 0.08 in2.0 mm
06:59 PM 59.4°F15.2°C 53.2°F11.8°C 80% Calm Calm -- 29.95 in1014.2 mb 0.00 in0.0 mm 0.00 in0.0 mm 0.08 in2.0 mm
06:58 PM 59.4°F15.2°C 53.2°F11.8°C 80% Calm Calm -- 29.95 in1014.2 mb 0.00 in0.0 mm 0.00 in0.0 mm 0.08 in2.0 mm
06:57 PM 59.4°F15.2°C 53.2°F11.8°C 80% Calm Calm -- 29.95 in1014.2 mb 0.00 in0.0 mm 0.00 in0.0 mm 0.08 in2.0 mm
06:56 PM 59.4°F15.2°C 53.2°F11.8°C 80% Calm Calm -- 29.95 in1014.2 mb 0.00 in0.0 mm 0.00 in0.0 mm 0.08 in2.0 mm
06:55 PM 59.4°F15.2°C 53.2°F11.8°C 80% Calm Calm -- 29.95 in1014.2 mb 0.00 in0.0 mm 0.00 in0.0 mm 0.08 in2.0 mm
06:54 PM 59.5°F15.3°C 53.4°F11.9°C 80% Calm Calm -- 29.95 in1014.2 mb 0.00 in0.0 mm 0.00 in0.0 mm 0.08 in2.0 mm
06:53 PM 59.5°F15.3°C 53.4°F11.9°C 80% Calm Calm -- 29.95 in1014.2 mb 0.00 in0.0 mm 0.00 in0.0 mm 0.08 in2.0 mm
06:52 PM 59.5°F15.3°C 53.4°F11.9°C 80% Calm Calm -- 29.95 in1014.2 mb 0.00 in0.0 mm 0.00 in0.0 mm 0.08 in2.0 mm
06:51 PM 59.7°F15.4°C 53.6°F12.0°C 80% Calm Calm -- 29.95 in1014.2 mb 0.00 in0.0 mm 0.00 in0.0 mm 0.08 in2.0 mm
06:50 PM 59.7°F15.4°C 53.6°F12.0°C 80% Calm Calm -- 29.95 in1014.2 mb 0.00 in0.0 mm 0.00 in0.0 mm 0.08 in2.0 mm
06:49 PM 59.7°F15.4°C 53.6°F12.0°C 80% Calm Calm -- 29.95 in1014.2 mb 0.00 in0.0 mm 0.00 in0.0 mm 0.08 in2.0 mm
06:48 PM 59.7°F15.4°C 53.6°F12.0°C 80% Calm Calm -- 29.95 in1014.2 mb 0.00 in0.0 mm 0.00 in0.0 mm 0.08 in2.0 mm
06:47 PM 59.7°F15.4°C 53.6°F12.0°C 80% Calm Calm -- 29.95 in1014.2 mb 0.00 in0.0 mm 0.00 in0.0 mm 0.08 in2.0 mm
06:46 PM 59.7°F15.4°C 53.6°F12.0°C 80% Calm Calm -- 29.95 in1014.2 mb 0.00 in0.0 mm 0.00 in0.0 mm 0.08 in2.0 mm
06:45 PM 59.9°F15.5°C 53.7°F12.1°C 80% Calm Calm -- 29.95 in1014.2 mb 0.00 in0.0 mm 0.00 in0.0 mm 0.08 in2.0 mm
06:44 PM 59.9°F15.5°C 53.7°F12.1°C 80% Calm Calm -- 29.95 in1014.2 mb 0.00 in0.0 mm 0.00 in0.0 mm 0.08 in2.0 mm
06:43 PM 59.9°F15.5°C 53.7°F12.1°C 80% Calm Calm -- 29.95 in1014.2 mb 0.00 in0.0 mm 0.00 in0.0 mm 0.08 in2.0 mm
06:42 PM 59.9°F15.5°C 53.7°F12.1°C 80% Calm Calm -- 29.95 in1014.2 mb 0.00 in0.0 mm 0.00 in0.0 mm 0.08 in2.0 mm
06:41 PM 60.1°F15.6°C 53.9°F12.2°C 80% Calm Calm -- 29.95 in1014.2 mb 0.00 in0.0 mm 0.00 in0.0 mm 0.08 in2.0 mm
06:40 PM 60.1°F15.6°C 53.9°F12.2°C 80% Calm Calm -- 29.95 in1014.2 mb 0.00 in0.0 mm 0.00 in0.0 mm 0.08 in2.0 mm
06:39 PM 60.1°F15.6°C 53.9°F12.2°C 80% Calm Calm -- 29.95 in1014.2 mb 0.00 in0.0 mm 0.00 in0.0 mm 0.08 in2.0 mm
06:38 PM 60.1°F15.6°C 53.9°F12.2°C 80% Calm Calm -- 29.95 in1014.2 mb 0.00 in0.0 mm 0.00 in0.0 mm 0.08 in2.0 mm
06:37 PM 60.3°F15.7°C 54.1°F12.3°C 80% Calm Calm -- 29.95 in1014.2 mb 0.00 in0.0 mm 0.00 in0.0 mm 0.08 in2.0 mm
06:36 PM 60.3°F15.7°C 54.1°F12.3°C 80% Calm Calm -- 29.95 in1014.2 mb 0.00 in0.0 mm 0.00 in0.0 mm 0.08 in2.0 mm
06:35 PM 60.3°F15.7°C 54.1°F12.3°C 80% Calm Calm -- 29.95 in1014.2 mb 0.00 in0.0 mm 0.00 in0.0 mm 0.08 in2.0 mm
06:34 PM 60.4°F15.8°C 54.3°F12.4°C 80% Calm Calm -- 29.95 in1014.2 mb 0.00 in0.0 mm 0.00 in0.0 mm 0.08 in2.0 mm
06:33 PM 60.4°F15.8°C 54.3°F12.4°C 80% Calm Calm -- 29.94 in1013.9 mb 0.00 in0.0 mm 0.00 in0.0 mm 0.08 in2.0 mm
06:32 PM 60.6°F15.9°C 54.4°F12.4°C 80% Calm Calm -- 29.95 in1014.2 mb 0.00 in0.0 mm 0.00 in0.0 mm 0.08 in2.0 mm
06:31 PM 60.6°F15.9°C 54.4°F12.4°C 80% Calm Calm -- 29.95 in1014.2 mb 0.00 in0.0 mm 0.00 in0.0 mm 0.08 in2.0 mm
06:30 PM 60.6°F15.9°C 54.4°F12.4°C 80% Calm Calm -- 29.95 in1014.2 mb 0.00 in0.0 mm 0.00 in0.0 mm 0.08 in2.0 mm
06:29 PM 60.6°F15.9°C 54.4°F12.4°C 80% Calm Calm -- 29.95 in1014.2 mb 0.00 in0.0 mm 0.00 in0.0 mm 0.08 in2.0 mm
06:28 PM 60.8°F16.0°C 54.3°F12.4°C 79% Calm Calm -- 29.95 in1014.2 mb 0.00 in0.0 mm 0.00 in0.0 mm 0.08 in2.0 mm
06:27 PM 60.8°F16.0°C 54.3°F12.4°C 79% Calm Calm -- 29.95 in1014.2 mb 0.00 in0.0 mm 0.00 in0.0 mm 0.08 in2.0 mm
06:26 PM 60.8°F16.0°C 54.3°F12.4°C 79% Calm Calm -- 29.95 in1014.2 mb 0.00 in0.0 mm 0.00 in0.0 mm 0.08 in2.0 mm
06:25 PM 60.8°F16.0°C 54.3°F12.4°C 79% Calm Calm -- 29.95 in1014.2 mb 0.00 in0.0 mm 0.00 in0.0 mm 0.08 in2.0 mm
06:24 PM 61.0°F16.1°C 54.4°F12.4°C 79% Calm Calm -- 29.94 in1013.9 mb 0.00 in0.0 mm 0.00 in0.0 mm 0.08 in2.0 mm
06:23 PM 61.0°F16.1°C 54.4°F12.4°C 79% Calm Calm -- 29.95 in1014.2 mb 0.00 in0.0 mm 0.00 in0.0 mm 0.08 in2.0 mm
06:22 PM 61.0°F16.1°C 54.4°F12.4°C 79% Calm Calm -- 29.95 in1014.2 mb 0.00 in0.0 mm 0.00 in0.0 mm 0.08 in2.0 mm
06:21 PM 61.2°F16.2°C 54.6°F12.6°C 79% Calm Calm 0.7 mph1.1 kmh 29.95 in1014.2 mb 0.00 in0.0 mm 0.00 in0.0 mm 0.08 in2.0 mm
06:20 PM 61.2°F16.2°C 54.6°F12.6°C 79% Calm Calm 0.7 mph1.1 kmh 29.95 in1014.2 mb 0.00 in0.0 mm 0.00 in0.0 mm 0.08 in2.0 mm
06:19 PM 61.2°F16.2°C 54.6°F12.6°C 79% Calm Calm 0.7 mph1.1 kmh 29.95 in1014.2 mb 0.00 in0.0 mm 0.00 in0.0 mm 0.08 in2.0 mm
06:18 PM 61.3°F16.3°C 54.8°F12.7°C 79% Calm Calm 0.7 mph1.1 kmh 29.95 in1014.2 mb 0.00 in0.0 mm 0.00 in0.0 mm 0.08 in2.0 mm
06:17 PM 61.3°F16.3°C 54.8°F12.7°C 79% Calm Calm 0.7 mph1.1 kmh 29.95 in1014.2 mb 0.00 in0.0 mm 0.00 in0.0 mm 0.08 in2.0 mm
06:16 PM 61.3°F16.3°C 54.4°F12.4°C 78% 0.1 mph SW0.2 kmh SW 0.7 mph1.1 kmh 29.95 in1014.2 mb 0.00 in0.0 mm 0.00 in0.0 mm 0.08 in2.0 mm
06:15 PM 61.3°F16.3°C 54.4°F12.4°C 78% Calm Calm 0.7 mph1.1 kmh 29.95 in1014.2 mb 0.00 in0.0 mm 0.00 in0.0 mm 0.08 in2.0 mm
06:14 PM 61.3°F16.3°C 54.4°F12.4°C 78% Calm Calm 0.7 mph1.1 kmh 29.95 in1014.2 mb 0.00 in0.0 mm 0.00 in0.0 mm 0.08 in2.0 mm
06:13 PM 61.5°F16.4°C 54.6°F12.6°C 78% 0.1 mph SW0.2 kmh SW 0.7 mph1.1 kmh 29.95 in1014.2 mb 0.00 in0.0 mm 0.00 in0.0 mm 0.08 in2.0 mm
06:12 PM 61.5°F16.4°C 54.6°F12.6°C 78% 0.1 mph SW0.2 kmh SW 0.7 mph1.1 kmh 29.95 in1014.2 mb 0.00 in0.0 mm 0.00 in0.0 mm 0.08 in2.0 mm
06:11 PM 61.5°F16.4°C 54.6°F12.6°C 78% Calm Calm -- 29.95 in1014.2 mb 0.00 in0.0 mm 0.00 in0.0 mm 0.08 in2.0 mm
06:10 PM 61.5°F16.4°C 54.6°F12.6°C 78% Calm Calm -- 29.95 in1014.2 mb 0.00 in0.0 mm 0.00 in0.0 mm 0.08 in2.0 mm
06:09 PM 61.5°F16.4°C 54.6°F12.6°C 78% Calm Calm -- 29.95 in1014.2 mb 0.00 in0.0 mm 0.00 in0.0 mm 0.08 in2.0 mm
06:08 PM 61.7°F16.5°C 54.4°F12.4°C 77% Calm Calm -- 29.95 in1014.2 mb 0.00 in0.0 mm 0.00 in0.0 mm 0.08 in2.0 mm
06:07 PM 61.7°F16.5°C 54.4°F12.4°C 77% Calm Calm -- 29.95 in1014.2 mb 0.00 in0.0 mm 0.00 in0.0 mm 0.08 in2.0 mm
06:06 PM 61.7°F16.5°C 54.4°F12.4°C 77% Calm Calm -- 29.95 in1014.2 mb 0.00 in0.0 mm 0.00 in0.0 mm 0.08 in2.0 mm
06:05 PM 61.7°F16.5°C 54.4°F12.4°C 77% Calm Calm -- 29.95 in1014.2 mb 0.00 in0.0 mm 0.00 in0.0 mm 0.08 in2.0 mm
06:04 PM 61.9°F16.6°C 54.6°F12.6°C 77% Calm Calm -- 29.95 in1014.2 mb 0.00 in0.0 mm 0.00 in0.0 mm 0.08 in2.0 mm
06:03 PM 61.9°F16.6°C 54.6°F12.6°C 77% Calm Calm -- 29.95 in1014.2 mb 0.00 in0.0 mm 0.00 in0.0 mm 0.08 in2.0 mm
06:02 PM 61.9°F16.6°C 54.2°F12.3°C 76% Calm Calm -- 29.95 in1014.2 mb 0.00 in0.0 mm 0.00 in0.0 mm 0.08 in2.0 mm
06:01 PM 61.9°F16.6°C 54.2°F12.3°C 76% Calm Calm -- 29.95 in1014.2 mb 0.00 in0.0 mm 0.00 in0.0 mm 0.08 in2.0 mm
06:00 PM 62.1°F16.7°C 54.4°F12.4°C 76% 0.1 mph S0.2 kmh S 2.2 mph3.5 kmh 29.95 in1014.2 mb 0.00 in0.0 mm 0.00 in0.0 mm 0.08 in2.0 mm
05:59 PM 62.1°F16.7°C 54.4°F12.4°C 76% 0.4 mph SSW0.6 kmh SSW 3.8 mph6.1 kmh 29.95 in1014.2 mb 0.00 in0.0 mm 0.00 in0.0 mm 0.08 in2.0 mm
05:58 PM 62.2°F16.8°C 54.6°F12.6°C 76% 0.8 mph SW1.3 kmh SW 3.8 mph6.1 kmh 29.95 in1014.2 mb 0.00 in0.0 mm 0.00 in0.0 mm 0.08 in2.0 mm
05:57 PM 62.2°F16.8°C 54.2°F12.3°C 75% 0.9 mph SW1.4 kmh SW 3.8 mph6.1 kmh 29.95 in1014.2 mb 0.00 in0.0 mm 0.00 in0.0 mm 0.08 in2.0 mm
05:56 PM 62.4°F16.9°C 54.4°F12.4°C 75% 0.9 mph SW1.4 kmh SW 3.8 mph6.1 kmh 29.95 in1014.2 mb 0.00 in0.0 mm 0.00 in0.0 mm 0.08 in2.0 mm
05:55 PM 62.6°F17.0°C 54.2°F12.3°C 74% 0.9 mph SW1.4 kmh SW 3.8 mph6.1 kmh 29.95 in1014.2 mb 0.00 in0.0 mm 0.00 in0.0 mm 0.08 in2.0 mm
05:54 PM 62.6°F17.0°C 54.2°F12.3°C 74% 0.8 mph SW1.3 kmh SW 3.8 mph6.1 kmh 29.95 in1014.2 mb 0.00 in0.0 mm 0.00 in0.0 mm 0.08 in2.0 mm
05:53 PM 62.6°F17.0°C 54.2°F12.3°C 74% 1.1 mph SW1.8 kmh SW 3.8 mph6.1 kmh 29.95 in1014.2 mb 0.00 in0.0 mm 0.00 in0.0 mm 0.08 in2.0 mm
05:52 PM 62.6°F17.0°C 54.2°F12.3°C 74% 1.5 mph SW2.4 kmh SW 3.8 mph6.1 kmh 29.95 in1014.2 mb 0.00 in0.0 mm 0.00 in0.0 mm 0.08 in2.0 mm
05:51 PM 62.6°F17.0°C 54.2°F12.3°C 74% 1.8 mph SW2.9 kmh SW 4.5 mph7.2 kmh 29.95 in1014.2 mb 0.00 in0.0 mm 0.00 in0.0 mm 0.08 in2.0 mm
05:50 PM 62.6°F17.0°C 54.2°F12.3°C 74% 2.2 mph SW3.5 kmh SW 4.5 mph7.2 kmh 29.94 in1013.9 mb 0.00 in0.0 mm 0.00 in0.0 mm 0.08 in2.0 mm
05:49 PM 62.6°F17.0°C 54.6°F12.6°C 75% 2.5 mph SW4.0 kmh SW 6.0 mph9.7 kmh 29.95 in1014.2 mb 0.00 in0.0 mm 0.00 in0.0 mm 0.08 in2.0 mm
05:48 PM 62.6°F17.0°C 54.6°F12.6°C 75% 2.3 mph SW3.7 kmh SW 6.0 mph9.7 kmh 29.94 in1013.9 mb 0.00 in0.0 mm 0.00 in0.0 mm 0.08 in2.0 mm
05:47 PM 62.6°F17.0°C 54.2°F12.3°C 74% 2.6 mph SW4.2 kmh SW 6.0 mph9.7 kmh 29.95 in1014.2 mb 0.00 in0.0 mm 0.00 in0.0 mm 0.08 in2.0 mm
05:46 PM 62.4°F16.9°C 54.4°F12.4°C 75% 2.8 mph SW4.5 kmh SW 6.0 mph9.7 kmh 29.95 in1014.2 mb 0.00 in0.0 mm 0.00 in0.0 mm 0.08 in2.0 mm
05:45 PM 62.4°F16.9°C 54.4°F12.4°C 75% 3.1 mph SW5.0 kmh SW 6.0 mph9.7 kmh 29.95 in1014.2 mb 0.00 in0.0 mm 0.00 in0.0 mm 0.08 in2.0 mm
05:44 PM 62.4°F16.9°C 54.4°F12.4°C 75% 3.5 mph SW5.6 kmh SW 6.0 mph9.7 kmh 29.95 in1014.2 mb 0.00 in0.0 mm 0.00 in0.0 mm 0.08 in2.0 mm
05:43 PM 62.6°F17.0°C 53.8°F12.1°C 73% 3.6 mph SW5.8 kmh SW 6.0 mph9.7 kmh 29.95 in1014.2 mb 0.00 in0.0 mm 0.00 in0.0 mm 0.08 in2.0 mm
05:42 PM 62.6°F17.0°C 53.8°F12.1°C 73% 3.6 mph SW5.8 kmh SW 6.0 mph9.7 kmh 29.95 in1014.2 mb 0.00 in0.0 mm 0.00 in0.0 mm 0.08 in2.0 mm
05:41 PM 62.6°F17.0°C 53.8°F12.1°C 73% 3.5 mph SW5.6 kmh SW 6.0 mph9.7 kmh 29.94 in1013.9 mb 0.00 in0.0 mm 0.00 in0.0 mm 0.08 in2.0 mm
05:40 PM 62.6°F17.0°C 53.8°F12.1°C 73% 3.4 mph SW5.5 kmh SW 6.0 mph9.7 kmh 29.95 in1014.2 mb 0.00 in0.0 mm 0.00 in0.0 mm 0.08 in2.0 mm
05:39 PM 63.0°F17.2°C 54.6°F12.6°C 74% 3.3 mph SW5.3 kmh SW 5.4 mph8.7 kmh 29.94 in1013.9 mb 0.00 in0.0 mm 0.00 in0.0 mm 0.08 in2.0 mm
05:38 PM 63.0°F17.2°C 54.6°F12.6°C 74% 3.4 mph SW5.5 kmh SW 5.4 mph8.7 kmh 29.95 in1014.2 mb 0.00 in0.0 mm 0.00 in0.0 mm 0.08 in2.0 mm
05:37 PM 63.0°F17.2°C 54.6°F12.6°C 74% 3.5 mph SW5.6 kmh SW 5.4 mph8.7 kmh 29.95 in1014.2 mb 0.00 in0.0 mm 0.00 in0.0 mm 0.08 in2.0 mm
05:36 PM 63.0°F17.2°C 54.6°F12.6°C 74% 3.4 mph SW5.5 kmh SW 5.4 mph8.7 kmh 29.94 in1013.9 mb 0.00 in0.0 mm 0.00 in0.0 mm 0.08 in2.0 mm
05:35 PM 62.6°F17.0°C 54.2°F12.3°C 74% 3.5 mph SW5.6 kmh SW 5.4 mph8.7 kmh 29.94 in1013.9 mb 0.00 in0.0 mm 0.00 in0.0 mm 0.08 in2.0 mm
05:34 PM 62.6°F17.0°C 54.2°F12.3°C 74% 3.4 mph SW5.5 kmh SW 5.4 mph8.7 kmh 29.95 in1014.2 mb 0.00 in0.0 mm 0.00 in0.0 mm 0.08 in2.0 mm
05:33 PM 62.6°F17.0°C 54.2°F12.3°C 74% 3.2 mph SW5.1 kmh SW 5.4 mph8.7 kmh 29.94 in1013.9 mb 0.00 in0.0 mm 0.00 in0.0 mm 0.08 in2.0 mm
05:32 PM 62.4°F16.9°C 54.4°F12.4°C 75% 3.0 mph SW4.8 kmh SW 5.4 mph8.7 kmh 29.95 in1014.2 mb 0.00 in0.0 mm 0.00 in0.0 mm 0.08 in2.0 mm
05:31 PM 62.4°F16.9°C 54.4°F12.4°C 75% 2.8 mph SW4.5 kmh SW 5.4 mph8.7 kmh 29.95 in1014.2 mb 0.00 in0.0 mm 0.00 in0.0 mm 0.08 in2.0 mm
05:30 PM 62.4°F16.9°C 54.4°F12.4°C 75% 2.7 mph SW4.3 kmh SW 5.4 mph8.7 kmh 29.94 in1013.9 mb 0.00 in0.0 mm 0.00 in0.0 mm 0.08 in2.0 mm
05:29 PM 63.0°F17.2°C 54.6°F12.6°C 74% 2.5 mph SW4.0 kmh SW 4.5 mph7.2 kmh 29.94 in1013.9 mb 0.00 in0.0 mm 0.00 in0.0 mm 0.08 in2.0 mm
05:28 PM 63.0°F17.2°C 54.9°F12.7°C 75% 2.4 mph SW3.9 kmh SW 4.5 mph7.2 kmh 29.95 in1014.2 mb 0.00 in0.0 mm 0.00 in0.0 mm 0.08 in2.0 mm
05:27 PM 63.0°F17.2°C 54.9°F12.7°C 75% 2.3 mph SW3.7 kmh SW 3.8 mph6.1 kmh 29.95 in1014.2 mb 0.00 in0.0 mm 0.00 in0.0 mm 0.08 in2.0 mm
05:26 PM 63.0°F17.2°C 54.9°F12.7°C 75% 2.3 mph SW3.7 kmh SW 3.8 mph6.1 kmh 29.94 in1013.9 mb 0.00 in0.0 mm 0.00 in0.0 mm 0.08 in2.0 mm
05:25 PM 63.0°F17.2°C 54.9°F12.7°C 75% 2.5 mph SW4.0 kmh SW 4.5 mph7.2 kmh 29.94 in1013.9 mb 0.00 in0.0 mm 0.00 in0.0 mm 0.08 in2.0 mm
05:24 PM 62.4°F16.9°C 54.8°F12.7°C 76% 2.4 mph SW3.9 kmh SW 4.5 mph7.2 kmh 29.95 in1014.2 mb 0.00 in0.0 mm 0.00 in0.0 mm 0.08 in2.0 mm
05:23 PM 62.4°F16.9°C 54.4°F12.4°C 75% 2.6 mph WSW4.2 kmh WSW 4.5 mph7.2 kmh 29.94 in1013.9 mb 0.00 in0.0 mm 0.00 in0.0 mm 0.08 in2.0 mm
05:22 PM 62.4°F16.9°C 54.4°F12.4°C 75% 2.8 mph SW4.5 kmh SW 4.5 mph7.2 kmh 29.94 in1013.9 mb 0.00 in0.0 mm 0.00 in0.0 mm 0.08 in2.0 mm
05:21 PM 62.4°F16.9°C 54.4°F12.4°C 75% 3.2 mph SW5.1 kmh SW 6.0 mph9.7 kmh 29.94 in1013.9 mb 0.00 in0.0 mm 0.00 in0.0 mm 0.08 in2.0 mm
05:20 PM 62.4°F16.9°C 54.4°F12.4°C 75% 3.0 mph SW4.8 kmh SW 6.0 mph9.7 kmh 29.94 in1013.9 mb 0.00 in0.0 mm 0.00 in0.0 mm 0.08 in2.0 mm
05:19 PM 62.4°F16.9°C 54.4°F12.4°C 75% 2.8 mph SW4.5 kmh SW 6.0 mph9.7 kmh 29.94 in1013.9 mb 0.00 in0.0 mm 0.00 in0.0 mm 0.08 in2.0 mm
05:18 PM 63.0°F17.2°C 54.6°F12.6°C 74% 3.0 mph SW4.8 kmh SW 6.0 mph9.7 kmh 29.94 in1013.9 mb 0.00 in0.0 mm 0.00 in0.0 mm 0.08 in2.0 mm
05:17 PM 63.0°F17.2°C 54.6°F12.6°C 74% 3.1 mph WSW5.0 kmh WSW 6.0 mph9.7 kmh 29.95 in1014.2 mb 0.00 in0.0 mm 0.00 in0.0 mm 0.08 in2.0 mm
05:16 PM 63.0°F17.2°C 54.6°F12.6°C 74% 3.3 mph SW5.3 kmh SW 6.0 mph9.7 kmh 29.94 in1013.9 mb 0.00 in0.0 mm 0.00 in0.0 mm 0.08 in2.0 mm
05:15 PM 63.0°F17.2°C 54.6°F12.6°C 74% 3.5 mph SSW5.6 kmh SSW 6.0 mph9.7 kmh 29.94 in1013.9 mb 0.00 in0.0 mm 0.00 in0.0 mm 0.08 in2.0 mm
05:14 PM 63.0°F17.2°C 54.6°F12.6°C 74% 3.7 mph S6.0 kmh S 6.0 mph9.7 kmh 29.94 in1013.9 mb 0.00 in0.0 mm 0.00 in0.0 mm 0.08 in2.0 mm
05:13 PM 63.0°F17.2°C 54.6°F12.6°C 74% 4.0 mph SE6.4 kmh SE 6.0 mph9.7 kmh 29.94 in1013.9 mb 0.00 in0.0 mm 0.00 in0.0 mm 0.08 in2.0 mm
05:12 PM 63.0°F17.2°C 54.6°F12.6°C 74% 4.2 mph ESE6.8 kmh ESE 6.0 mph9.7 kmh 29.94 in1013.9 mb 0.00 in0.0 mm 0.00 in0.0 mm 0.08 in2.0 mm
05:11 PM 63.0°F17.2°C 54.6°F12.6°C 74% 4.2 mph E6.8 kmh E 5.4 mph8.7 kmh 29.95 in1014.2 mb 0.00 in0.0 mm 0.00 in0.0 mm 0.08 in2.0 mm
05:10 PM 63.0°F17.2°C 54.6°F12.6°C 74% 4.7 mph E7.6 kmh E 5.4 mph8.7 kmh 29.94 in1013.9 mb 0.00 in0.0 mm 0.00 in0.0 mm 0.08 in2.0 mm
05:09 PM 63.0°F17.2°C 54.2°F12.3°C 73% 5.0 mph E8.0 kmh E 5.4 mph8.7 kmh 29.94 in1013.9 mb 0.00 in0.0 mm 0.00 in0.0 mm 0.08 in2.0 mm
05:08 PM 63.0°F17.2°C 54.2°F12.3°C 73% 4.7 mph E7.6 kmh E 5.4 mph8.7 kmh 29.94 in1013.9 mb 0.00 in0.0 mm 0.00 in0.0 mm 0.08 in2.0 mm
05:07 PM 63.0°F17.2°C 54.2°F12.3°C 73% 4.7 mph E7.6 kmh E 5.4 mph8.7 kmh 29.94 in1013.9 mb 0.00 in0.0 mm 0.00 in0.0 mm 0.08 in2.0 mm
05:06 PM 63.0°F17.2°C 54.2°F12.3°C 73% 4.7 mph E7.6 kmh E 5.4 mph8.7 kmh 29.94 in1013.9 mb 0.00 in0.0 mm 0.00 in0.0 mm 0.08 in2.0 mm
05:05 PM 63.0°F17.2°C 54.2°F12.3°C 73% 4.7 mph SE7.6 kmh SE 5.4 mph8.7 kmh 29.94 in1013.9 mb 0.00 in0.0 mm 0.00 in0.0 mm 0.08 in2.0 mm
05:04 PM 63.0°F17.2°C 54.2°F12.3°C 73% 4.6 mph SSE7.4 kmh SSE 5.4 mph8.7 kmh 29.94 in1013.9 mb 0.00 in0.0 mm 0.00 in0.0 mm 0.08 in2.0 mm
05:03 PM 63.0°F17.2°C 54.2°F12.3°C 73% 4.6 mph S7.4 kmh S 5.4 mph8.7 kmh 29.94 in1013.9 mb 0.00 in0.0 mm 0.00 in0.0 mm 0.08 in2.0 mm
05:02 PM 63.0°F17.2°C 54.2°F12.3°C 73% 4.5 mph SW7.2 kmh SW 5.4 mph8.7 kmh 29.94 in1013.9 mb 0.00 in0.0 mm 0.00 in0.0 mm 0.08 in2.0 mm
05:01 PM 63.0°F17.2°C 54.2°F12.3°C 73% 4.4 mph SW7.1 kmh SW 5.4 mph8.7 kmh 29.94 in1013.9 mb 0.00 in0.0 mm 0.00 in0.0 mm 0.08 in2.0 mm
05:00 PM 63.0°F17.2°C 54.2°F12.3°C 73% 4.2 mph SW6.8 kmh SW 5.4 mph8.7 kmh 29.94 in1013.9 mb 0.00 in0.0 mm 0.00 in0.0 mm 0.08 in2.0 mm
04:59 PM 63.1°F17.3°C 54.4°F12.4°C 73% 4.2 mph SW6.8 kmh SW 5.4 mph8.7 kmh 29.94 in1013.9 mb 0.00 in0.0 mm 0.00 in0.0 mm 0.08 in2.0 mm
04:58 PM 63.1°F17.3°C 54.4°F12.4°C 73% 4.6 mph SW7.4 kmh SW 5.4 mph8.7 kmh 29.94 in1013.9 mb 0.00 in0.0 mm 0.00 in0.0 mm 0.08 in2.0 mm
04:57 PM 63.3°F17.4°C 54.5°F12.5°C 73% 4.6 mph SW7.4 kmh SW 5.4 mph8.7 kmh 29.94 in1013.9 mb 0.00 in0.0 mm 0.00 in0.0 mm 0.08 in2.0 mm
04:56 PM 63.5°F17.5°C 54.7°F12.6°C 73% 4.4 mph SW7.1 kmh SW 5.4 mph8.7 kmh 29.94 in1013.9 mb 0.00 in0.0 mm 0.00 in0.0 mm 0.08 in2.0 mm
04:55 PM 63.5°F17.5°C 54.7°F12.6°C 73% 4.1 mph SW6.6 kmh SW 5.4 mph8.7 kmh 29.94 in1013.9 mb 0.00 in0.0 mm 0.00 in0.0 mm 0.08 in2.0 mm
04:54 PM 63.5°F17.5°C 54.7°F12.6°C 73% 3.9 mph SW6.3 kmh SW 5.4 mph8.7 kmh 29.94 in1013.9 mb 0.00 in0.0 mm 0.00 in0.0 mm 0.08 in2.0 mm
04:53 PM 63.5°F17.5°C 54.7°F12.6°C 73% 3.7 mph SSW6.0 kmh SSW 5.4 mph8.7 kmh 29.94 in1013.9 mb 0.00 in0.0 mm 0.00 in0.0 mm 0.08 in2.0 mm
04:52 PM 63.5°F17.5°C 54.7°F12.6°C 73% 3.7 mph SSW6.0 kmh SSW 5.4 mph8.7 kmh 29.94 in1013.9 mb 0.00 in0.0 mm 0.00 in0.0 mm 0.08 in2.0 mm
04:51 PM 63.5°F17.5°C 54.7°F12.6°C 73% 3.8 mph SSW6.1 kmh SSW 6.0 mph9.7 kmh 29.94 in1013.9 mb 0.00 in0.0 mm 0.00 in0.0 mm 0.08 in2.0 mm
04:50 PM 63.5°F17.5°C 54.7°F12.6°C 73% 4.0 mph SSW6.4 kmh SSW 6.0 mph9.7 kmh 29.94 in1013.9 mb 0.00 in0.0 mm 0.00 in0.0 mm 0.08 in2.0 mm
04:49 PM 63.5°F17.5°C 54.7°F12.6°C 73% 3.9 mph SW6.3 kmh SW 6.0 mph9.7 kmh 29.94 in1013.9 mb 0.00 in0.0 mm 0.00 in0.0 mm 0.08 in2.0 mm
04:48 PM 63.5°F17.5°C 54.7°F12.6°C 73% 3.5 mph SW5.6 kmh SW 6.0 mph9.7 kmh 29.94 in1013.9 mb 0.00 in0.0 mm 0.00 in0.0 mm 0.08 in2.0 mm
04:47 PM 63.5°F17.5°C 54.7°F12.6°C 73% 3.3 mph SW5.3 kmh SW 6.0 mph9.7 kmh 29.94 in1013.9 mb 0.00 in0.0 mm 0.00 in0.0 mm 0.08 in2.0 mm
04:46 PM 63.5°F17.5°C 54.7°F12.6°C 73% 3.3 mph SW5.3 kmh SW 6.0 mph9.7 kmh 29.94 in1013.9 mb 0.00 in0.0 mm 0.00 in0.0 mm 0.08 in2.0 mm
04:45 PM 63.5°F17.5°C 54.7°F12.6°C 73% 3.5 mph SW5.6 kmh SW 6.0 mph9.7 kmh 29.94 in1013.9 mb 0.00 in0.0 mm 0.00 in0.0 mm 0.08 in2.0 mm
04:44 PM 63.5°F17.5°C 54.7°F12.6°C 73% 3.7 mph SW6.0 kmh SW 6.0 mph9.7 kmh 29.94 in1013.9 mb 0.00 in0.0 mm 0.00 in0.0 mm 0.08 in2.0 mm
04:43 PM 63.7°F17.6°C 54.9°F12.7°C 73% 4.0 mph SSW6.4 kmh SSW 6.0 mph9.7 kmh 29.94 in1013.9 mb 0.00 in0.0 mm 0.00 in0.0 mm 0.08 in2.0 mm
04:42 PM 63.7°F17.6°C 55.3°F12.9°C 74% 3.9 mph SSW6.3 kmh SSW 6.0 mph9.7 kmh 29.94 in1013.9 mb 0.00 in0.0 mm 0.00 in0.0 mm 0.08 in2.0 mm
04:41 PM 63.7°F17.6°C 55.3°F12.9°C 74% 3.9 mph SSW6.3 kmh SSW 6.0 mph9.7 kmh 29.94 in1013.9 mb 0.00 in0.0 mm 0.00 in0.0 mm 0.08 in2.0 mm
04:40 PM 63.5°F17.5°C 55.1°F12.8°C 74% 4.0 mph SSW6.4 kmh SSW 6.0 mph9.7 kmh 29.94 in1013.9 mb 0.00 in0.0 mm 0.00 in0.0 mm 0.08 in2.0 mm
04:39 PM 63.5°F17.5°C 54.7°F12.6°C 73% 4.1 mph SSW6.6 kmh SSW 6.0 mph9.7 kmh 29.94 in1013.9 mb 0.00 in0.0 mm 0.00 in0.0 mm 0.08 in2.0 mm
04:38 PM 63.5°F17.5°C 54.7°F12.6°C 73% 4.7 mph SSW7.6 kmh SSW 8.3 mph13.4 kmh 29.94 in1013.9 mb 0.00 in0.0 mm 0.00 in0.0 mm 0.08 in2.0 mm
04:37 PM 63.5°F17.5°C 54.7°F12.6°C 73% 5.4 mph SW8.7 kmh SW 8.3 mph13.4 kmh 29.94 in1013.9 mb 0.00 in0.0 mm 0.00 in0.0 mm 0.08 in2.0 mm
04:36 PM 63.5°F17.5°C 54.7°F12.6°C 73% 5.9 mph SSW9.5 kmh SSW 9.8 mph15.8 kmh 29.94 in1013.9 mb 0.00 in0.0 mm 0.00 in0.0 mm 0.08 in2.0 mm
04:35 PM 63.5°F17.5°C 54.7°F12.6°C 73% 5.8 mph SSW9.3 kmh SSW 9.8 mph15.8 kmh 29.94 in1013.9 mb 0.00 in0.0 mm 0.00 in0.0 mm 0.08 in2.0 mm
04:34 PM 63.5°F17.5°C 54.7°F12.6°C 73% 5.7 mph SSW9.2 kmh SSW 9.8 mph15.8 kmh 29.94 in1013.9 mb 0.00 in0.0 mm 0.00 in0.0 mm 0.08 in2.0 mm
04:33 PM 63.5°F17.5°C 54.7°F12.6°C 73% 5.4 mph SW8.7 kmh SW 9.8 mph15.8 kmh 29.94 in1013.9 mb 0.00 in0.0 mm 0.00 in0.0 mm 0.08 in2.0 mm
04:32 PM 63.5°F17.5°C 54.7°F12.6°C 73% 5.3 mph SW8.5 kmh SW 9.8 mph15.8 kmh 29.94 in1013.9 mb 0.00 in0.0 mm 0.00 in0.0 mm 0.08 in2.0 mm
04:31 PM 63.5°F17.5°C 54.7°F12.6°C 73% 5.2 mph SW8.4 kmh SW 9.8 mph15.8 kmh 29.94 in1013.9 mb 0.00 in0.0 mm 0.00 in0.0 mm 0.08 in2.0 mm
04:30 PM 63.5°F17.5°C 54.7°F12.6°C 73% 5.2 mph SW8.4 kmh SW 9.8 mph15.8 kmh 29.94 in1013.9 mb 0.00 in0.0 mm 0.00 in0.0 mm 0.08 in2.0 mm
04:29 PM 63.5°F17.5°C 54.7°F12.6°C 73% 5.2 mph WSW8.4 kmh WSW 9.8 mph15.8 kmh 29.94 in1013.9 mb 0.00 in0.0 mm 0.00 in0.0 mm 0.08 in2.0 mm
04:28 PM 63.7°F17.6°C 54.9°F12.7°C 73% 5.1 mph SW8.2 kmh SW 9.8 mph15.8 kmh 29.94 in1013.9 mb 0.00 in0.0 mm 0.00 in0.0 mm 0.08 in2.0 mm
04:27 PM 63.7°F17.6°C 54.9°F12.7°C 73% 4.9 mph SW7.9 kmh SW 9.8 mph15.8 kmh 29.94 in1013.9 mb 0.00 in0.0 mm 0.00 in0.0 mm 0.08 in2.0 mm
04:26 PM 63.7°F17.6°C 54.9°F12.7°C 73% 4.5 mph SW7.2 kmh SW 6.9 mph11.1 kmh 29.94 in1013.9 mb 0.00 in0.0 mm 0.00 in0.0 mm 0.08 in2.0 mm
04:25 PM 63.7°F17.6°C 54.9°F12.7°C 73% 4.5 mph SW7.2 kmh SW 6.9 mph11.1 kmh 29.94 in1013.9 mb 0.00 in0.0 mm 0.00 in0.0 mm 0.08 in2.0 mm
04:24 PM 63.7°F17.6°C 54.9°F12.7°C 73% 4.5 mph SW7.2 kmh SW 6.9 mph11.1 kmh 29.94 in1013.9 mb 0.00 in0.0 mm 0.00 in0.0 mm 0.08 in2.0 mm
04:23 PM 63.7°F17.6°C 54.9°F12.7°C 73% 4.5 mph SW7.2 kmh SW 6.9 mph11.1 kmh 29.94 in1013.9 mb 0.00 in0.0 mm 0.00 in0.0 mm 0.08 in2.0 mm
04:22 PM 63.7°F17.6°C 54.9°F12.7°C 73% 4.6 mph WSW7.4 kmh WSW 6.9 mph11.1 kmh 29.94 in1013.9 mb 0.00 in0.0 mm 0.00 in0.0 mm 0.08 in2.0 mm
04:21 PM 63.5°F17.5°C 54.7°F12.6°C 73% 4.6 mph WSW7.4 kmh WSW 6.9 mph11.1 kmh 29.94 in1013.9 mb 0.00 in0.0 mm 0.00 in0.0 mm 0.08 in2.0 mm
04:20 PM 63.5°F17.5°C 54.7°F12.6°C 73% 4.5 mph WSW7.2 kmh WSW 6.9 mph11.1 kmh 29.94 in1013.9 mb 0.00 in0.0 mm 0.00 in0.0 mm 0.08 in2.0 mm
04:19 PM 63.5°F17.5°C 54.7°F12.6°C 73% 4.4 mph SW7.1 kmh SW 6.9 mph11.1 kmh 29.94 in1013.9 mb 0.00 in0.0 mm 0.00 in0.0 mm 0.08 in2.0 mm
04:18 PM 63.7°F17.6°C 54.9°F12.7°C 73% 4.1 mph WSW6.6 kmh WSW 6.9 mph11.1 kmh 29.94 in1013.9 mb 0.00 in0.0 mm 0.00 in0.0 mm 0.08 in2.0 mm
04:17 PM 63.7°F17.6°C 54.9°F12.7°C 73% 3.9 mph W6.3 kmh W 6.9 mph11.1 kmh 29.94 in1013.9 mb 0.00 in0.0 mm 0.00 in0.0 mm 0.08 in2.0 mm
04:16 PM 63.7°F17.6°C 54.5°F12.5°C 72% 3.7 mph W6.0 kmh W 6.0 mph9.7 kmh 29.94 in1013.9 mb 0.00 in0.0 mm 0.00 in0.0 mm 0.08 in2.0 mm
04:15 PM 63.7°F17.6°C 54.5°F12.5°C 72% 4.0 mph WSW6.4 kmh WSW 6.0 mph9.7 kmh 29.94 in1013.9 mb 0.00 in0.0 mm 0.00 in0.0 mm 0.08 in2.0 mm
04:14 PM 63.7°F17.6°C 54.5°F12.5°C 72% 4.2 mph WSW6.8 kmh WSW 6.0 mph9.7 kmh 29.94 in1013.9 mb 0.00 in0.0 mm 0.00 in0.0 mm 0.08 in2.0 mm
04:13 PM 63.9°F17.7°C 55.1°F12.8°C 73% 4.2 mph SW6.8 kmh SW 6.0 mph9.7 kmh 29.94 in1013.9 mb 0.00 in0.0 mm 0.00 in0.0 mm 0.08 in2.0 mm
04:12 PM 63.9°F17.7°C 55.1°F12.8°C 73% 4.1 mph SW6.6 kmh SW 6.0 mph9.7 kmh 29.94 in1013.9 mb 0.00 in0.0 mm 0.00 in0.0 mm 0.08 in2.0 mm
04:11 PM 63.9°F17.7°C 55.1°F12.8°C 73% 4.3 mph SW6.9 kmh SW 6.9 mph11.1 kmh 29.94 in1013.9 mb 0.00 in0.0 mm 0.00 in0.0 mm 0.08 in2.0 mm
04:10 PM 63.9°F17.7°C 55.1°F12.8°C 73% 4.5 mph SW7.2 kmh SW 6.9 mph11.1 kmh 29.94 in1013.9 mb 0.00 in0.0 mm 0.00 in0.0 mm 0.08 in2.0 mm
04:09 PM 63.9°F17.7°C 55.1°F12.8°C 73% 4.7 mph SW7.6 kmh SW 6.9 mph11.1 kmh 29.94 in1013.9 mb 0.00 in0.0 mm 0.00 in0.0 mm 0.08 in2.0 mm
04:08 PM 63.7°F17.6°C 54.9°F12.7°C 73% 4.9 mph SW7.9 kmh SW 6.9 mph11.1 kmh 29.94 in1013.9 mb 0.00 in0.0 mm 0.00 in0.0 mm 0.08 in2.0 mm
04:07 PM 63.7°F17.6°C 54.9°F12.7°C 73% 5.2 mph SW8.4 kmh SW 6.9 mph11.1 kmh 29.94 in1013.9 mb 0.00 in0.0 mm 0.00 in0.0 mm 0.08 in2.0 mm
04:06 PM 63.7°F17.6°C 54.9°F12.7°C 73% 5.4 mph SW8.7 kmh SW 6.9 mph11.1 kmh 29.94 in1013.9 mb 0.00 in0.0 mm 0.00 in0.0 mm 0.08 in2.0 mm
04:05 PM 63.7°F17.6°C 54.9°F12.7°C 73% 5.4 mph WSW8.7 kmh WSW 6.9 mph11.1 kmh 29.93 in1013.5 mb 0.00 in0.0 mm 0.00 in0.0 mm 0.08 in2.0 mm
04:04 PM 63.5°F17.5°C 54.7°F12.6°C 73% 5.5 mph SW8.9 kmh SW 6.9 mph11.1 kmh 29.94 in1013.9 mb 0.00 in0.0 mm 0.00 in0.0 mm 0.08 in2.0 mm
04:03 PM 63.5°F17.5°C 54.7°F12.6°C 73% 5.7 mph SW9.2 kmh SW 6.9 mph11.1 kmh 29.94 in1013.9 mb 0.00 in0.0 mm 0.00 in0.0 mm 0.08 in2.0 mm
04:02 PM 63.5°F17.5°C 54.7°F12.6°C 73% 5.8 mph SW9.3 kmh SW 6.9 mph11.1 kmh 29.94 in1013.9 mb 0.00 in0.0 mm 0.00 in0.0 mm 0.08 in2.0 mm
04:01 PM 63.5°F17.5°C 54.7°F12.6°C 73% 5.8 mph SW9.3 kmh SW 6.9 mph11.1 kmh 29.94 in1013.9 mb 0.00 in0.0 mm 0.00 in0.0 mm 0.08 in2.0 mm
04:00 PM 63.5°F17.5°C 54.7°F12.6°C 73% 5.7 mph SW9.2 kmh SW 6.9 mph11.1 kmh 29.94 in1013.9 mb 0.00 in0.0 mm 0.00 in0.0 mm 0.08 in2.0 mm
03:59 PM 63.5°F17.5°C 54.3°F12.4°C 72% 5.5 mph SW8.9 kmh SW 6.9 mph11.1 kmh 29.94 in1013.9 mb 0.00 in0.0 mm 0.00 in0.0 mm 0.08 in2.0 mm
03:58 PM 63.5°F17.5°C 54.3°F12.4°C 72% 5.3 mph SW8.5 kmh SW 6.9 mph11.1 kmh 29.94 in1013.9 mb 0.00 in0.0 mm 0.00 in0.0 mm 0.08 in2.0 mm
03:57 PM 63.7°F17.6°C 54.5°F12.5°C 72% 5.0 mph SW8.0 kmh SW 6.9 mph11.1 kmh 29.94 in1013.9 mb 0.00 in0.0 mm 0.00 in0.0 mm 0.08 in2.0 mm
03:56 PM 63.7°F17.6°C 54.5°F12.5°C 72% 4.8 mph SW7.7 kmh SW 6.9 mph11.1 kmh 29.94 in1013.9 mb 0.00 in0.0 mm 0.00 in0.0 mm 0.08 in2.0 mm
03:55 PM 63.7°F17.6°C 54.5°F12.5°C 72% 4.6 mph SW7.4 kmh SW 6.9 mph11.1 kmh 29.94 in1013.9 mb 0.00 in0.0 mm 0.00 in0.0 mm 0.08 in2.0 mm
03:54 PM 63.7°F17.6°C 54.5°F12.5°C 72% 4.5 mph SW7.2 kmh SW 5.4 mph8.7 kmh 29.94 in1013.9 mb 0.00 in0.0 mm 0.00 in0.0 mm 0.08 in2.0 mm
03:53 PM 63.9°F17.7°C 54.7°F12.6°C 72% 4.5 mph SW7.2 kmh SW 5.4 mph8.7 kmh 29.94 in1013.9 mb 0.00 in0.0 mm 0.00 in0.0 mm 0.08 in2.0 mm
03:52 PM 63.9°F17.7°C 54.7°F12.6°C 72% 4.6 mph SW7.4 kmh SW 7.6 mph12.2 kmh 29.94 in1013.9 mb 0.00 in0.0 mm 0.00 in0.0 mm 0.08 in2.0 mm
03:51 PM 63.9°F17.7°C 54.7°F12.6°C 72% 4.6 mph SW7.4 kmh SW 7.6 mph12.2 kmh 29.93 in1013.5 mb 0.00 in0.0 mm 0.00 in0.0 mm 0.08 in2.0 mm
03:50 PM 63.9°F17.7°C 54.7°F12.6°C 72% 4.8 mph SW7.7 kmh SW 7.6 mph12.2 kmh 29.93 in1013.5 mb 0.00 in0.0 mm 0.00 in0.0 mm 0.08 in2.0 mm
03:49 PM 63.9°F17.7°C 54.7°F12.6°C 72% 5.1 mph SW8.2 kmh SW 7.6 mph12.2 kmh 29.93 in1013.5 mb 0.00 in0.0 mm 0.00 in0.0 mm 0.08 in2.0 mm
03:48 PM 64.0°F17.8°C 54.8°F12.7°C 72% 5.4 mph SW8.7 kmh SW 7.6 mph12.2 kmh 29.94 in1013.9 mb 0.00 in0.0 mm 0.00 in0.0 mm 0.08 in2.0 mm
03:47 PM 64.0°F17.8°C 54.8°F12.7°C 72% 5.6 mph SW9.0 kmh SW 7.6 mph12.2 kmh 29.94 in1013.9 mb 0.00 in0.0 mm 0.00 in0.0 mm 0.08 in2.0 mm
03:46 PM 64.0°F17.8°C 54.5°F12.5°C 71% 5.7 mph SW9.2 kmh SW 7.6 mph12.2 kmh 29.94 in1013.9 mb 0.00 in0.0 mm 0.00 in0.0 mm 0.08 in2.0 mm
03:45 PM 64.0°F17.8°C 54.5°F12.5°C 71% 5.9 mph SW9.5 kmh SW 7.6 mph12.2 kmh 29.94 in1013.9 mb 0.00 in0.0 mm 0.00 in0.0 mm 0.08 in2.0 mm
03:44 PM 64.2°F17.9°C 54.6°F12.6°C 71% 5.5 mph SSW8.9 kmh SSW 7.6 mph12.2 kmh 29.94 in1013.9 mb 0.00 in0.0 mm 0.00 in0.0 mm 0.08 in2.0 mm
03:43 PM 64.4°F18.0°C 55.2°F12.9°C 72% 5.2 mph SSW8.4 kmh SSW 7.6 mph12.2 kmh 29.94 in1013.9 mb 0.00 in0.0 mm 0.00 in0.0 mm 0.08 in2.0 mm
03:42 PM 64.4°F18.0°C 55.2°F12.9°C 72% 5.0 mph SSW8.0 kmh SSW 6.9 mph11.1 kmh 29.94 in1013.9 mb 0.00 in0.0 mm 0.00 in0.0 mm 0.08 in2.0 mm
03:41 PM 64.4°F18.0°C 55.2°F12.9°C 72% 4.7 mph SSW7.6 kmh SSW 6.9 mph11.1 kmh 29.94 in1013.9 mb 0.00 in0.0 mm 0.00 in0.0 mm 0.08 in2.0 mm
03:40 PM 64.4°F18.0°C 55.2°F12.9°C 72% 4.4 mph SW7.1 kmh SW 6.9 mph11.1 kmh 29.94 in1013.9 mb 0.00 in0.0 mm 0.00 in0.0 mm 0.08 in2.0 mm
03:39 PM 64.4°F18.0°C 55.2°F12.9°C 72% 4.0 mph SSW6.4 kmh SSW 6.0 mph9.7 kmh 29.94 in1013.9 mb 0.00 in0.0 mm 0.00 in0.0 mm 0.08 in2.0 mm
03:38 PM 64.4°F18.0°C 55.2°F12.9°C 72% 3.9 mph SW6.3 kmh SW 6.9 mph11.1 kmh 29.94 in1013.9 mb 0.00 in0.0 mm 0.00 in0.0 mm 0.08 in2.0 mm
03:37 PM 64.4°F18.0°C 55.6°F13.1°C 73% 4.0 mph SW6.4 kmh SW 6.9 mph11.1 kmh 29.94 in1013.9 mb 0.00 in0.0 mm 0.00 in0.0 mm 0.08 in2.0 mm
03:36 PM 64.4°F18.0°C 55.6°F13.1°C 73% 3.9 mph SW6.3 kmh SW 6.9 mph11.1 kmh 29.94 in1013.9 mb 0.00 in0.0 mm 0.00 in0.0 mm 0.08 in2.0 mm
03:35 PM 64.4°F18.0°C 55.6°F13.1°C 73% 3.8 mph SW6.1 kmh SW 6.9 mph11.1 kmh 29.94 in1013.9 mb 0.00 in0.0 mm 0.00 in0.0 mm 0.08 in2.0 mm
03:34 PM 64.4°F18.0°C 55.6°F13.1°C 73% 4.2 mph SW6.8 kmh SW 6.9 mph11.1 kmh 29.94 in1013.9 mb 0.00 in0.0 mm 0.00 in0.0 mm 0.08 in2.0 mm
03:33 PM 64.4°F18.0°C 55.6°F13.1°C 73% 4.4 mph SW7.1 kmh SW 6.9 mph11.1 kmh 29.94 in1013.9 mb 0.00 in0.0 mm 0.00 in0.0 mm 0.08 in2.0 mm
03:32 PM 64.0°F17.8°C 55.2°F12.9°C 73% 4.5 mph SW7.2 kmh SW 6.9 mph11.1 kmh 29.94 in1013.9 mb 0.00 in0.0 mm 0.00 in0.0 mm 0.08 in2.0 mm
03:31 PM 64.0°F17.8°C 55.2°F12.9°C 73% 4.7 mph SSW7.6 kmh SSW 6.9 mph11.1 kmh 29.94 in1013.9 mb 0.00 in0.0 mm 0.00 in0.0 mm 0.08 in2.0 mm
03:30 PM 64.0°F17.8°C 55.2°F12.9°C 73% 5.0 mph SSW8.0 kmh SSW 6.9 mph11.1 kmh 29.94 in1013.9 mb 0.00 in0.0 mm 0.00 in0.0 mm 0.08 in2.0 mm
03:29 PM 63.9°F17.7°C 55.1°F12.8°C 73% 5.3 mph SSW8.5 kmh SSW 6.9 mph11.1 kmh 29.94 in1013.9 mb 0.00 in0.0 mm 0.00 in0.0 mm 0.08 in2.0 mm
03:28 PM 63.9°F17.7°C 54.7°F12.6°C 72% 5.2 mph SSW8.4 kmh SSW 6.9 mph11.1 kmh 29.94 in1013.9 mb 0.00 in0.0 mm 0.00 in0.0 mm 0.08 in2.0 mm
03:27 PM 63.9°F17.7°C 54.7°F12.6°C 72% 5.1 mph SSW8.2 kmh SSW 6.0 mph9.7 kmh 29.94 in1013.9 mb 0.00 in0.0 mm 0.00 in0.0 mm 0.08 in2.0 mm
03:26 PM 63.9°F17.7°C 54.7°F12.6°C 72% 5.0 mph SSW8.0 kmh SSW 6.0 mph9.7 kmh 29.94 in1013.9 mb 0.00 in0.0 mm 0.00 in0.0 mm 0.08 in2.0 mm
03:25 PM 64.0°F17.8°C 54.8°F12.7°C 72% 4.9 mph SSW7.9 kmh SSW 6.0 mph9.7 kmh 29.93 in1013.5 mb 0.00 in0.0 mm 0.00 in0.0 mm 0.08 in2.0 mm
03:24 PM 64.0°F17.8°C 54.8°F12.7°C 72% 4.7 mph SSW7.6 kmh SSW 6.0 mph9.7 kmh 29.94 in1013.9 mb 0.00 in0.0 mm 0.00 in0.0 mm 0.08 in2.0 mm
03:23 PM 64.0°F17.8°C 55.2°F12.9°C 73% 4.6 mph SW7.4 kmh SW 6.0 mph9.7 kmh 29.94 in1013.9 mb 0.00 in0.0 mm 0.00 in0.0 mm 0.08 in2.0 mm
03:22 PM 63.9°F17.7°C 55.1°F12.8°C 73% 4.6 mph SW7.4 kmh SW 6.0 mph9.7 kmh 29.94 in1013.9 mb 0.00 in0.0 mm 0.00 in0.0 mm 0.08 in2.0 mm
03:21 PM 63.9°F17.7°C 55.1°F12.8°C 73% 4.7 mph SSW7.6 kmh SSW 6.0 mph9.7 kmh 29.94 in1013.9 mb 0.02 in0.5 mm 0.00 in0.0 mm 0.08 in2.0 mm
03:20 PM 63.9°F17.7°C 55.4°F13.0°C 74% 4.6 mph SW7.4 kmh SW 6.0 mph9.7 kmh 29.94 in1013.9 mb 0.02 in0.5 mm 0.00 in0.0 mm 0.08 in2.0 mm
03:19 PM 63.7°F17.6°C 55.3°F12.9°C 74% 4.5 mph SW7.2 kmh SW 6.0 mph9.7 kmh 29.94 in1013.9 mb 0.02 in0.5 mm 0.00 in0.0 mm 0.08 in2.0 mm
03:18 PM 63.7°F17.6°C 55.3°F12.9°C 74% 4.9 mph SW7.9 kmh SW 8.3 mph13.4 kmh 29.93 in1013.5 mb 0.02 in0.5 mm 0.00 in0.0 mm 0.08 in2.0 mm
03:17 PM 63.7°F17.6°C 55.3°F12.9°C 74% 5.2 mph SW8.4 kmh SW 8.3 mph13.4 kmh 29.93 in1013.5 mb 0.02 in0.5 mm 0.00 in0.0 mm 0.08 in2.0 mm
03:16 PM 63.5°F17.5°C 55.1°F12.8°C 74% 5.6 mph WSW9.0 kmh WSW 8.3 mph13.4 kmh 29.93 in1013.5 mb 0.02 in0.5 mm 0.00 in0.0 mm 0.08 in2.0 mm
03:15 PM 63.5°F17.5°C 54.7°F12.6°C 73% 6.0 mph WSW9.7 kmh WSW 8.3 mph13.4 kmh 29.94 in1013.9 mb 0.02 in0.5 mm 0.00 in0.0 mm 0.08 in2.0 mm
03:14 PM 63.7°F17.6°C 54.9°F12.7°C 73% 6.5 mph WSW10.5 kmh WSW 8.3 mph13.4 kmh 29.94 in1013.9 mb 0.02 in0.5 mm 0.00 in0.0 mm 0.08 in2.0 mm
03:13 PM 63.7°F17.6°C 54.9°F12.7°C 73% 6.9 mph W11.1 kmh W 8.3 mph13.4 kmh 29.94 in1013.9 mb 0.02 in0.5 mm 0.00 in0.0 mm 0.08 in2.0 mm
03:12 PM 63.7°F17.6°C 54.9°F12.7°C 73% 7.2 mph W11.6 kmh W 8.3 mph13.4 kmh 29.93 in1013.5 mb 0.02 in0.5 mm 0.00 in0.0 mm 0.08 in2.0 mm
03:11 PM 63.7°F17.6°C 54.9°F12.7°C 73% 7.4 mph W11.9 kmh W 8.3 mph13.4 kmh 29.94 in1013.9 mb 0.02 in0.5 mm 0.00 in0.0 mm 0.08 in2.0 mm
03:10 PM 63.7°F17.6°C 54.9°F12.7°C 73% 7.8 mph WNW12.6 kmh WNW 8.3 mph13.4 kmh 29.93 in1013.5 mb 0.02 in0.5 mm 0.00 in0.0 mm 0.08 in2.0 mm
03:09 PM 63.9°F17.7°C 54.7°F12.6°C 72% 8.0 mph WNW12.9 kmh WNW 8.3 mph13.4 kmh 29.94 in1013.9 mb 0.02 in0.5 mm 0.00 in0.0 mm 0.08 in2.0 mm
03:08 PM 63.9°F17.7°C 55.1°F12.8°C 73% 8.1 mph W13.0 kmh W 8.3 mph13.4 kmh 29.93 in1013.5 mb 0.02 in0.5 mm 0.00 in0.0 mm 0.08 in2.0 mm
03:07 PM 64.2°F17.9°C 55.8°F13.2°C 74% 7.9 mph W12.7 kmh W 8.3 mph13.4 kmh 29.94 in1013.9 mb 0.02 in0.5 mm 0.00 in0.0 mm 0.08 in2.0 mm
03:06 PM 64.2°F17.9°C 55.8°F13.2°C 74% 7.6 mph W12.2 kmh W 8.3 mph13.4 kmh 29.93 in1013.5 mb 0.02 in0.5 mm 0.00 in0.0 mm 0.08 in2.0 mm
03:05 PM 64.2°F17.9°C 55.8°F13.2°C 74% 7.1 mph W11.4 kmh W 8.3 mph13.4 kmh 29.93 in1013.5 mb 0.02 in0.5 mm 0.00 in0.0 mm 0.08 in2.0 mm
03:04 PM 64.2°F17.9°C 55.8°F13.2°C 74% 6.7 mph WSW10.8 kmh WSW 8.3 mph13.4 kmh 29.93 in1013.5 mb 0.02 in0.5 mm 0.00 in0.0 mm 0.08 in2.0 mm
03:03 PM 64.2°F17.9°C 55.8°F13.2°C 74% 6.3 mph WSW10.1 kmh WSW 8.3 mph13.4 kmh 29.94 in1013.9 mb 0.02 in0.5 mm 0.00 in0.0 mm 0.08 in2.0 mm
03:02 PM 64.2°F17.9°C 55.8°F13.2°C 74% 5.9 mph WSW9.5 kmh WSW 8.3 mph13.4 kmh 29.94 in1013.9 mb 0.02 in0.5 mm 0.00 in0.0 mm 0.08 in2.0 mm
03:01 PM 64.2°F17.9°C 55.8°F13.2°C 74% 5.6 mph SW9.0 kmh SW 8.3 mph13.4 kmh 29.94 in1013.9 mb 0.02 in0.5 mm 0.00 in0.0 mm 0.08 in2.0 mm
03:00 PM 64.2°F17.9°C 55.8°F13.2°C 74% 5.2 mph SW8.4 kmh SW 8.3 mph13.4 kmh 29.94 in1013.9 mb 0.02 in0.5 mm 0.00 in0.0 mm 0.08 in2.0 mm
02:59 PM 64.4°F18.0°C 56.3°F13.5°C 75% 5.0 mph SW8.0 kmh SW 7.6 mph12.2 kmh 29.93 in1013.5 mb 0.02 in0.5 mm 0.00 in0.0 mm 0.08 in2.0 mm
02:58 PM 64.4°F18.0°C 56.3°F13.5°C 75% 4.8 mph SW7.7 kmh SW 7.6 mph12.2 kmh 29.94 in1013.9 mb 0.02 in0.5 mm 0.00 in0.0 mm 0.08 in2.0 mm
02:57 PM 64.4°F18.0°C 56.3°F13.5°C 75% 4.7 mph SW7.6 kmh SW 7.6 mph12.2 kmh 29.94 in1013.9 mb 0.02 in0.5 mm 0.00 in0.0 mm 0.08 in2.0 mm
02:56 PM 64.2°F17.9°C 56.5°F13.6°C 76% 4.8 mph SSW7.7 kmh SSW 7.6 mph12.2 kmh 29.93 in1013.5 mb 0.02 in0.5 mm 0.00 in0.0 mm 0.08 in2.0 mm
02:55 PM 64.2°F17.9°C 56.5°F13.6°C 76% 5.2 mph SSW8.4 kmh SSW 7.6 mph12.2 kmh 29.93 in1013.5 mb 0.02 in0.5 mm 0.00 in0.0 mm 0.08 in2.0 mm
02:54 PM 64.2°F17.9°C 56.5°F13.6°C 76% 5.3 mph SSW8.5 kmh SSW 7.6 mph12.2 kmh 29.93 in1013.5 mb 0.02 in0.5 mm 0.00 in0.0 mm 0.08 in2.0 mm
02:53 PM 64.0°F17.8°C 56.0°F13.3°C 75% 5.4 mph SSW8.7 kmh SSW 7.6 mph12.2 kmh 29.93 in1013.5 mb 0.02 in0.5 mm 0.00 in0.0 mm 0.08 in2.0 mm
02:52 PM 64.0°F17.8°C 56.0°F13.3°C 75% 5.6 mph SW9.0 kmh SW 8.3 mph13.4 kmh 29.93 in1013.5 mb 0.02 in0.5 mm 0.00 in0.0 mm 0.08 in2.0 mm
02:51 PM 64.0°F17.8°C 56.0°F13.3°C 75% 5.7 mph SW9.2 kmh SW 8.3 mph13.4 kmh 29.93 in1013.5 mb 0.02 in0.5 mm 0.00 in0.0 mm 0.08 in2.0 mm
02:50 PM 64.0°F17.8°C 56.0°F13.3°C 75% 5.8 mph SW9.3 kmh SW 8.3 mph13.4 kmh 29.93 in1013.5 mb 0.02 in0.5 mm 0.00 in0.0 mm 0.08 in2.0 mm
02:49 PM 64.0°F17.8°C 56.0°F13.3°C 75% 6.1 mph SW9.8 kmh SW 8.3 mph13.4 kmh 29.93 in1013.5 mb 0.02 in0.5 mm 0.00 in0.0 mm 0.08 in2.0 mm
02:48 PM 63.9°F17.7°C 55.8°F13.2°C 75% 6.0 mph SW9.7 kmh SW 8.3 mph13.4 kmh 29.93 in1013.5 mb 0.02 in0.5 mm 0.00 in0.0 mm 0.08 in2.0 mm
02:47 PM 63.9°F17.7°C 55.8°F13.2°C 75% 6.2 mph SW10.0 kmh SW 8.3 mph13.4 kmh 29.93 in1013.5 mb 0.02 in0.5 mm 0.00 in0.0 mm 0.08 in2.0 mm
02:46 PM 63.9°F17.7°C 55.8°F13.2°C 75% 6.1 mph WSW9.8 kmh WSW 8.3 mph13.4 kmh 29.93 in1013.5 mb 0.02 in0.5 mm 0.00 in0.0 mm 0.08 in2.0 mm
02:45 PM 63.9°F17.7°C 55.8°F13.2°C 75% 6.1 mph WSW9.8 kmh WSW 8.3 mph13.4 kmh 29.93 in1013.5 mb 0.02 in0.5 mm 0.00 in0.0 mm 0.08 in2.0 mm
02:44 PM 63.9°F17.7°C 55.8°F13.2°C 75% 6.3 mph W10.1 kmh W 8.3 mph13.4 kmh 29.93 in1013.5 mb 0.02 in0.5 mm 0.00 in0.0 mm 0.08 in2.0 mm
02:43 PM 63.9°F17.7°C 55.8°F13.2°C 75% 6.5 mph W10.5 kmh W 8.3 mph13.4 kmh 29.93 in1013.5 mb 0.02 in0.5 mm 0.00 in0.0 mm 0.08 in2.0 mm
02:42 PM 63.9°F17.7°C 55.8°F13.2°C 75% 6.5 mph W10.5 kmh W 8.3 mph13.4 kmh 29.93 in1013.5 mb 0.02 in0.5 mm 0.00 in0.0 mm 0.08 in2.0 mm
02:41 PM 63.9°F17.7°C 55.8°F13.2°C 75% 6.2 mph W10.0 kmh W 8.3 mph13.4 kmh 29.93 in1013.5 mb 0.02 in0.5 mm 0.00 in0.0 mm 0.08 in2.0 mm
02:40 PM 63.9°F17.7°C 55.4°F13.0°C 74% 6.1 mph WSW9.8 kmh WSW 8.3 mph13.4 kmh 29.93 in1013.5 mb 0.02 in0.5 mm 0.00 in0.0 mm 0.08 in2.0 mm
02:39 PM 64.0°F17.8°C 55.6°F13.1°C 74% 6.1 mph WSW9.8 kmh WSW 8.3 mph13.4 kmh 29.93 in1013.5 mb 0.02 in0.5 mm 0.00 in0.0 mm 0.08 in2.0 mm
02:38 PM 64.0°F17.8°C 56.0°F13.3°C 75% 6.4 mph WSW10.3 kmh WSW 8.3 mph13.4 kmh 29.93 in1013.5 mb 0.02 in0.5 mm 0.00 in0.0 mm 0.08 in2.0 mm
02:37 PM 64.0°F17.8°C 56.0°F13.3°C 75% 6.3 mph WSW10.1 kmh WSW 8.3 mph13.4 kmh 29.93 in1013.5 mb 0.02 in0.5 mm 0.00 in0.0 mm 0.08 in2.0 mm
02:36 PM 64.0°F17.8°C 56.0°F13.3°C 75% 6.1 mph WSW9.8 kmh WSW 8.3 mph13.4 kmh 29.93 in1013.5 mb 0.02 in0.5 mm 0.00 in0.0 mm 0.08 in2.0 mm
02:35 PM 64.0°F17.8°C 56.3°F13.5°C 76% 6.1 mph WSW9.8 kmh WSW 8.3 mph13.4 kmh 29.93 in1013.5 mb 0.02 in0.5 mm 0.00 in0.0 mm 0.08 in2.0 mm
02:34 PM 64.0°F17.8°C 56.3°F13.5°C 76% 5.9 mph SW9.5 kmh SW 8.3 mph13.4 kmh 29.93 in1013.5 mb 0.02 in0.5 mm 0.00 in0.0 mm 0.08 in2.0 mm
02:33 PM 64.0°F17.8°C 56.3°F13.5°C 76% 5.7 mph SW9.2 kmh SW 8.3 mph13.4 kmh 29.93 in1013.5 mb 0.02 in0.5 mm 0.00 in0.0 mm 0.08 in2.0 mm
02:32 PM 63.9°F17.7°C 56.2°F13.4°C 76% 6.2 mph SW10.0 kmh SW 13.0 mph20.9 kmh 29.93 in1013.5 mb 0.02 in0.5 mm 0.00 in0.0 mm 0.08 in2.0 mm
02:31 PM 63.7°F17.6°C 56.0°F13.3°C 76% 5.7 mph SW9.2 kmh SW 13.0 mph20.9 kmh 29.93 in1013.5 mb 0.02 in0.5 mm 0.00 in0.0 mm 0.08 in2.0 mm
02:30 PM 63.7°F17.6°C 56.4°F13.6°C 77% 5.4 mph SW8.7 kmh SW 13.0 mph20.9 kmh 29.93 in1013.5 mb 0.02 in0.5 mm 0.00 in0.0 mm 0.08 in2.0 mm
02:29 PM 63.7°F17.6°C 56.7°F13.7°C 78% 5.2 mph SW8.4 kmh SW 13.0 mph20.9 kmh 29.93 in1013.5 mb 0.02 in0.5 mm 0.00 in0.0 mm 0.08 in2.0 mm
02:28 PM 63.7°F17.6°C 56.7°F13.7°C 78% 4.9 mph SW7.9 kmh SW 13.0 mph20.9 kmh 29.93 in1013.5 mb 0.02 in0.5 mm 0.00 in0.0 mm 0.08 in2.0 mm
02:27 PM 63.5°F17.5°C 56.5°F13.6°C 78% 4.7 mph SW7.6 kmh SW 13.0 mph20.9 kmh 29.93 in1013.5 mb 0.02 in0.5 mm 0.00 in0.0 mm 0.08 in2.0 mm
02:26 PM 63.3°F17.4°C 56.4°F13.6°C 78% 4.6 mph SW7.4 kmh SW 13.0 mph20.9 kmh 29.93 in1013.5 mb 0.02 in0.5 mm 0.00 in0.0 mm 0.08 in2.0 mm
02:25 PM 63.3°F17.4°C 56.4°F13.6°C 78% 4.4 mph SW7.1 kmh SW 13.0 mph20.9 kmh 29.93 in1013.5 mb 0.02 in0.5 mm 0.00 in0.0 mm 0.08 in2.0 mm
02:24 PM 63.3°F17.4°C 56.4°F13.6°C 78% 4.2 mph SW6.8 kmh SW 13.0 mph20.9 kmh 29.93 in1013.5 mb 0.02 in0.5 mm 0.00 in0.0 mm 0.08 in2.0 mm
02:23 PM 63.1°F17.3°C 56.5°F13.6°C 79% 4.0 mph SW6.4 kmh SW 13.0 mph20.9 kmh 29.93 in1013.5 mb 0.02 in0.5 mm 1.20 in30.5 mm 0.08 in2.0 mm
02:22 PM 63.0°F17.2°C 56.4°F13.6°C 79% 3.5 mph SSW5.6 kmh SSW 6.0 mph9.7 kmh 29.93 in1013.5 mb 0.00 in0.0 mm 0.00 in0.0 mm 0.06 in1.5 mm
02:21 PM 62.8°F17.1°C 56.2°F13.4°C 79% 3.9 mph SW6.3 kmh SW 6.0 mph9.7 kmh 29.93 in1013.5 mb 0.00 in0.0 mm 0.00 in0.0 mm 0.06 in1.5 mm
02:20 PM 62.8°F17.1°C 56.2°F13.4°C 79% 4.3 mph SSW6.9 kmh SSW 6.0 mph9.7 kmh 29.93 in1013.5 mb 0.00 in0.0 mm 0.00 in0.0 mm 0.06 in1.5 mm
02:19 PM 62.6°F17.0°C 56.0°F13.3°C 79% 4.3 mph SW6.9 kmh SW 6.0 mph9.7 kmh 29.93 in1013.5 mb 0.00 in0.0 mm 0.00 in0.0 mm 0.06 in1.5 mm
02:18 PM 62.6°F17.0°C 56.0°F13.3°C 79% 4.3 mph SW6.9 kmh SW 6.0 mph9.7 kmh 29.93 in1013.5 mb 0.00 in0.0 mm 0.00 in0.0 mm 0.06 in1.5 mm
02:17 PM 62.6°F17.0°C 56.0°F13.3°C 79% 4.3 mph SW6.9 kmh SW 6.0 mph9.7 kmh 29.93 in1013.5 mb 0.00 in0.0 mm 0.00 in0.0 mm 0.06 in1.5 mm
02:16 PM 62.6°F17.0°C 56.0°F13.3°C 79% 4.6 mph SW7.4 kmh SW 6.0 mph9.7 kmh 29.93 in1013.5 mb 0.00 in0.0 mm 0.00 in0.0 mm 0.06 in1.5 mm
02:15 PM 62.6°F17.0°C 56.0°F13.3°C 79% 4.9 mph SW7.9 kmh SW 6.0 mph9.7 kmh 29.93 in1013.5 mb 0.00 in0.0 mm 0.00 in0.0 mm 0.06 in1.5 mm
02:14 PM 62.2°F16.8°C 56.0°F13.3°C 80% 5.1 mph SW8.2 kmh SW 6.0 mph9.7 kmh 29.93 in1013.5 mb 0.00 in0.0 mm 0.00 in0.0 mm 0.06 in1.5 mm
02:13 PM 62.2°F16.8°C 56.0°F13.3°C 80% 5.2 mph SW8.4 kmh SW 6.0 mph9.7 kmh 29.93 in1013.5 mb 0.00 in0.0 mm 0.00 in0.0 mm 0.06 in1.5 mm
02:12 PM 62.2°F16.8°C 56.0°F13.3°C 80% 5.0 mph SW8.0 kmh SW 6.0 mph9.7 kmh 29.93 in1013.5 mb 0.00 in0.0 mm 0.00 in0.0 mm 0.06 in1.5 mm
02:11 PM 62.2°F16.8°C 56.4°F13.6°C 81% 5.0 mph SW8.0 kmh SW 6.0 mph9.7 kmh 29.93 in1013.5 mb 0.00 in0.0 mm 0.00 in0.0 mm 0.06 in1.5 mm
02:10 PM 62.2°F16.8°C 56.4°F13.6°C 81% 4.8 mph SW7.7 kmh SW 6.0 mph9.7 kmh 29.93 in1013.5 mb 0.00 in0.0 mm 0.00 in0.0 mm 0.06 in1.5 mm
02:09 PM 62.2°F16.8°C 56.4°F13.6°C 81% 4.6 mph SW7.4 kmh SW 6.0 mph9.7 kmh 29.93 in1013.5 mb 0.00 in0.0 mm 0.00 in0.0 mm 0.06 in1.5 mm
02:08 PM 62.2°F16.8°C 56.4°F13.6°C 81% 4.6 mph SW7.4 kmh SW 6.0 mph9.7 kmh 29.93 in1013.5 mb 0.00 in0.0 mm 0.00 in0.0 mm 0.06 in1.5 mm
02:07 PM 62.2°F16.8°C 56.7°F13.7°C 82% 4.5 mph SW7.2 kmh SW 6.0 mph9.7 kmh 29.93 in1013.5 mb 0.00 in0.0 mm 0.00 in0.0 mm 0.06 in1.5 mm
02:06 PM 62.2°F16.8°C 56.7°F13.7°C 82% 4.3 mph SW6.9 kmh SW 6.0 mph9.7 kmh 29.93 in1013.5 mb 0.00 in0.0 mm 0.00 in0.0 mm 0.06 in1.5 mm
02:05 PM 62.2°F16.8°C 56.7°F13.7°C 82% 4.0 mph SW6.4 kmh SW 6.0 mph9.7 kmh 29.93 in1013.5 mb 0.00 in0.0 mm 0.00 in0.0 mm 0.06 in1.5 mm
02:04 PM 62.2°F16.8°C 56.7°F13.7°C 82% 3.8 mph SW6.1 kmh SW 6.0 mph9.7 kmh 29.93 in1013.5 mb 0.00 in0.0 mm 0.00 in0.0 mm 0.06 in1.5 mm
02:03 PM 62.2°F16.8°C 57.0°F13.9°C 83% 3.7 mph SW6.0 kmh SW 5.4 mph8.7 kmh 29.93 in1013.5 mb 0.00 in0.0 mm 0.00 in0.0 mm 0.06 in1.5 mm
02:02 PM 62.1°F16.7°C 56.9°F13.8°C 83% 3.7 mph SW6.0 kmh SW 5.4 mph8.7 kmh 29.93 in1013.5 mb 0.00 in0.0 mm 0.00 in0.0 mm 0.06 in1.5 mm
02:01 PM 62.1°F16.7°C 56.9°F13.8°C 83% 3.8 mph SW6.1 kmh SW 6.0 mph9.7 kmh 29.93 in1013.5 mb 0.00 in0.0 mm 0.00 in0.0 mm 0.06 in1.5 mm
02:00 PM 61.9°F16.6°C 56.7°F13.7°C 83% 4.1 mph SW6.6 kmh SW 6.0 mph9.7 kmh 29.93 in1013.5 mb 0.00 in0.0 mm 0.00 in0.0 mm 0.06 in1.5 mm
01:59 PM 61.9°F16.6°C 56.3°F13.5°C 82% 4.1 mph SW6.6 kmh SW 6.0 mph9.7 kmh 29.93 in1013.5 mb 0.00 in0.0 mm 0.00 in0.0 mm 0.06 in1.5 mm
01:58 PM 61.9°F16.6°C 56.3°F13.5°C 82% 4.0 mph SW6.4 kmh SW 6.0 mph9.7 kmh 29.93 in1013.5 mb 0.00 in0.0 mm 0.00 in0.0 mm 0.06 in1.5 mm
01:57 PM 61.9°F16.6°C 56.3°F13.5°C 82% 4.2 mph SW6.8 kmh SW 6.9 mph11.1 kmh 29.93 in1013.5 mb 0.00 in0.0 mm 0.00 in0.0 mm 0.06 in1.5 mm
01:56 PM 61.9°F16.6°C 56.3°F13.5°C 82% 4.1 mph SW6.6 kmh SW 6.9 mph11.1 kmh 29.93 in1013.5 mb 0.00 in0.0 mm 0.00 in0.0 mm 0.06 in1.5 mm
01:55 PM 61.9°F16.6°C 56.3°F13.5°C 82% 4.1 mph SW6.6 kmh SW 6.9 mph11.1 kmh 29.93 in1013.5 mb 0.00 in0.0 mm 0.00 in0.0 mm 0.06 in1.5 mm
01:54 PM 61.9°F16.6°C 56.3°F13.5°C 82% 4.2 mph SW6.8 kmh SW 6.9 mph11.1 kmh 29.93 in1013.5 mb 0.00 in0.0 mm 0.00 in0.0 mm 0.06 in1.5 mm
01:53 PM 61.9°F16.6°C 56.3°F13.5°C 82% 4.4 mph WSW7.1 kmh WSW 6.9 mph11.1 kmh 29.93 in1013.5 mb 0.00 in0.0 mm 0.00 in0.0 mm 0.06 in1.5 mm
01:52 PM 61.9°F16.6°C 56.3°F13.5°C 82% 4.5 mph WSW7.2 kmh WSW 6.9 mph11.1 kmh 29.93 in1013.5 mb 0.00 in0.0 mm 0.00 in0.0 mm 0.06 in1.5 mm
01:51 PM 62.1°F16.7°C 56.2°F13.4°C 81% 4.4 mph WSW7.1 kmh WSW 6.9 mph11.1 kmh 29.93 in1013.5 mb 0.00 in0.0 mm 0.00 in0.0 mm 0.06 in1.5 mm
01:50 PM 62.2°F16.8°C 56.4°F13.6°C 81% 4.2 mph WSW6.8 kmh WSW 6.9 mph11.1 kmh 29.93 in1013.5 mb 0.00 in0.0 mm 0.00 in0.0 mm 0.06 in1.5 mm
01:49 PM 62.2°F16.8°C 56.4°F13.6°C 81% 4.4 mph WSW7.1 kmh WSW 6.9 mph11.1 kmh 29.93 in1013.5 mb 0.00 in0.0 mm 0.00 in0.0 mm 0.06 in1.5 mm
01:48 PM 62.2°F16.8°C 56.4°F13.6°C 81% 4.9 mph WSW7.9 kmh WSW 7.6 mph12.2 kmh 29.93 in1013.5 mb 0.00 in0.0 mm 0.00 in0.0 mm 0.06 in1.5 mm
01:47 PM 62.6°F17.0°C 56.4°F13.6°C 80% 4.9 mph WSW7.9 kmh WSW 7.6 mph12.2 kmh 29.93 in1013.5 mb 0.00 in0.0 mm 0.00 in0.0 mm 0.06 in1.5 mm
01:46 PM 62.6°F17.0°C 56.0°F13.3°C 79% 5.1 mph WSW8.2 kmh WSW 7.6 mph12.2 kmh 29.93 in1013.5 mb 0.00 in0.0 mm 0.00 in0.0 mm 0.06 in1.5 mm
01:45 PM 62.8°F17.1°C 56.2°F13.4°C 79% 5.4 mph WSW8.7 kmh WSW 7.6 mph12.2 kmh 29.93 in1013.5 mb 0.00 in0.0 mm 0.00 in0.0 mm 0.06 in1.5 mm
01:44 PM 62.8°F17.1°C 56.2°F13.4°C 79% 5.5 mph WSW8.9 kmh WSW 7.6 mph12.2 kmh 29.93 in1013.5 mb 0.00 in0.0 mm 0.00 in0.0 mm 0.06 in1.5 mm
01:43 PM 63.1°F17.3°C 56.2°F13.4°C 78% 5.6 mph SW9.0 kmh SW 7.6 mph12.2 kmh 29.93 in1013.5 mb 0.00 in0.0 mm 0.00 in0.0 mm 0.06 in1.5 mm
01:42 PM 63.3°F17.4°C 56.4°F13.6°C 78% 5.6 mph SW9.0 kmh SW 7.6 mph12.2 kmh 29.93 in1013.5 mb 0.00 in0.0 mm 0.00 in0.0 mm 0.06 in1.5 mm
01:41 PM 63.3°F17.4°C 56.4°F13.6°C 78% 5.6 mph SW9.0 kmh SW 7.6 mph12.2 kmh 29.93 in1013.5 mb 0.00 in0.0 mm 0.00 in0.0 mm 0.06 in1.5 mm
01:40 PM 63.5°F17.5°C 56.5°F13.6°C 78% 5.8 mph SW9.3 kmh SW 7.6 mph12.2 kmh 29.93 in1013.5 mb 0.00 in0.0 mm 0.00 in0.0 mm 0.06 in1.5 mm
01:39 PM 63.9°F17.7°C 56.9°F13.8°C 78% 5.9 mph SW9.5 kmh SW 7.6 mph12.2 kmh 29.93 in1013.5 mb 0.00 in0.0 mm 0.00 in0.0 mm 0.06 in1.5 mm
01:38 PM 63.9°F17.7°C 56.5°F13.6°C 77% 5.7 mph SW9.2 kmh SW 7.6 mph12.2 kmh 29.93 in1013.5 mb 0.00 in0.0 mm 0.00 in0.0 mm 0.06 in1.5 mm
01:37 PM 63.9°F17.7°C 56.5°F13.6°C 77% 5.4 mph SW8.7 kmh SW 7.6 mph12.2 kmh 29.93 in1013.5 mb 0.00 in0.0 mm 0.00 in0.0 mm 0.06 in1.5 mm
01:36 PM 64.0°F17.8°C 56.7°F13.7°C 77% 5.8 mph SW9.3 kmh SW 9.8 mph15.8 kmh 29.93 in1013.5 mb 0.00 in0.0 mm 0.00 in0.0 mm 0.06 in1.5 mm
01:35 PM 64.2°F17.9°C 56.5°F13.6°C 76% 5.7 mph SW9.2 kmh SW 9.8 mph15.8 kmh 29.93 in1013.5 mb 0.00 in0.0 mm 0.00 in0.0 mm 0.06 in1.5 mm
01:34 PM 64.2°F17.9°C 56.5°F13.6°C 76% 5.8 mph SW9.3 kmh SW 9.8 mph15.8 kmh 29.93 in1013.5 mb 0.00 in0.0 mm 0.00 in0.0 mm 0.06 in1.5 mm
01:33 PM 64.2°F17.9°C 56.5°F13.6°C 76% 6.0 mph SW9.7 kmh SW 9.8 mph15.8 kmh 29.93 in1013.5 mb 0.00 in0.0 mm 0.00 in0.0 mm 0.06 in1.5 mm
01:32 PM 64.2°F17.9°C 56.5°F13.6°C 76% 6.1 mph SW9.8 kmh SW 9.8 mph15.8 kmh 29.93 in1013.5 mb 0.00 in0.0 mm 0.00 in0.0 mm 0.06 in1.5 mm
01:31 PM 64.2°F17.9°C 56.5°F13.6°C 76% 6.4 mph SW10.3 kmh SW 9.8 mph15.8 kmh 29.93 in1013.5 mb 0.00 in0.0 mm 0.00 in0.0 mm 0.06 in1.5 mm
01:30 PM 64.2°F17.9°C 56.5°F13.6°C 76% 6.4 mph SW10.3 kmh SW 9.8 mph15.8 kmh 29.93 in1013.5 mb 0.00 in0.0 mm 0.00 in0.0 mm 0.06 in1.5 mm
01:29 PM 64.2°F17.9°C 56.5°F13.6°C 76% 6.5 mph SW10.5 kmh SW 9.8 mph15.8 kmh 29.93 in1013.5 mb 0.00 in0.0 mm 0.00 in0.0 mm 0.06 in1.5 mm
01:28 PM 64.0°F17.8°C 56.0°F13.3°C 75% 6.4 mph SW10.3 kmh SW 9.8 mph15.8 kmh 29.93 in1013.5 mb 0.00 in0.0 mm 0.00 in0.0 mm 0.06 in1.5 mm
01:27 PM 64.0°F17.8°C 56.0°F13.3°C 75% 6.6 mph SW10.6 kmh SW 9.8 mph15.8 kmh 29.93 in1013.5 mb 0.00 in0.0 mm 0.00 in0.0 mm 0.06 in1.5 mm
01:26 PM 64.0°F17.8°C 56.0°F13.3°C 75% 6.3 mph SW10.1 kmh SW 8.3 mph13.4 kmh 29.93 in1013.5 mb 0.00 in0.0 mm 0.00 in0.0 mm 0.06 in1.5 mm
01:25 PM 64.0°F17.8°C 56.0°F13.3°C 75% 6.3 mph SW10.1 kmh SW 8.3 mph13.4 kmh 29.93 in1013.5 mb 0.00 in0.0 mm 0.00 in0.0 mm 0.06 in1.5 mm
01:24 PM 64.0°F17.8°C 56.0°F13.3°C 75% 5.8 mph SW9.3 kmh SW 8.3 mph13.4 kmh 29.93 in1013.5 mb 0.00 in0.0 mm 0.00 in0.0 mm 0.06 in1.5 mm
01:23 PM 64.0°F17.8°C 56.0°F13.3°C 75% 5.6 mph SW9.0 kmh SW 8.3 mph13.4 kmh 29.93 in1013.5 mb 0.00 in0.0 mm 0.00 in0.0 mm 0.06 in1.5 mm
01:22 PM 64.0°F17.8°C 56.0°F13.3°C 75% 5.7 mph SW9.2 kmh SW 8.3 mph13.4 kmh 29.93 in1013.5 mb 0.00 in0.0 mm 0.00 in0.0 mm 0.06 in1.5 mm
01:21 PM 64.0°F17.8°C 56.0°F13.3°C 75% 5.3 mph SW8.5 kmh SW 6.9 mph11.1 kmh 29.93 in1013.5 mb 0.00 in0.0 mm 0.00 in0.0 mm 0.06 in1.5 mm
01:20 PM 64.0°F17.8°C 56.0°F13.3°C 75% 5.1 mph SW8.2 kmh SW 6.9 mph11.1 kmh 29.92 in1013.2 mb 0.00 in0.0 mm 0.00 in0.0 mm 0.06 in1.5 mm
01:19 PM 64.2°F17.9°C 55.8°F13.2°C 74% 4.9 mph SW7.9 kmh SW 6.9 mph11.1 kmh 29.93 in1013.5 mb 0.00 in0.0 mm 0.00 in0.0 mm 0.06 in1.5 mm
01:18 PM 64.2°F17.9°C 56.1°F13.4°C 75% 5.0 mph SW8.0 kmh SW 6.9 mph11.1 kmh 29.93 in1013.5 mb 0.00 in0.0 mm 0.00 in0.0 mm 0.06 in1.5 mm
01:17 PM 64.2°F17.9°C 56.1°F13.4°C 75% 4.9 mph SW7.9 kmh SW 6.9 mph11.1 kmh 29.93 in1013.5 mb 0.00 in0.0 mm 0.00 in0.0 mm 0.06 in1.5 mm
01:16 PM 64.2°F17.9°C 56.1°F13.4°C 75% 4.6 mph SW7.4 kmh SW 6.9 mph11.1 kmh 29.93 in1013.5 mb 0.00 in0.0 mm 0.00 in0.0 mm 0.06 in1.5 mm
01:15 PM 64.0°F17.8°C 55.6°F13.1°C 74% 4.4 mph SW7.1 kmh SW 6.9 mph11.1 kmh 29.93 in1013.5 mb 0.00 in0.0 mm 0.00 in0.0 mm 0.06 in1.5 mm
01:14 PM 64.0°F17.8°C 55.6°F13.1°C 74% 4.5 mph SW7.2 kmh SW 6.9 mph11.1 kmh 29.93 in1013.5 mb 0.00 in0.0 mm 0.00 in0.0 mm 0.06 in1.5 mm
01:13 PM 64.0°F17.8°C 55.6°F13.1°C 74% 4.4 mph SW7.1 kmh SW 6.9 mph11.1 kmh 29.93 in1013.5 mb 0.00 in0.0 mm 0.00 in0.0 mm 0.06 in1.5 mm
01:12 PM 64.0°F17.8°C 55.6°F13.1°C 74% 4.2 mph SW6.8 kmh SW 6.9 mph11.1 kmh 29.93 in1013.5 mb 0.00 in0.0 mm 0.00 in0.0 mm 0.06 in1.5 mm
01:11 PM 64.0°F17.8°C 55.2°F12.9°C 73% 4.1 mph SW6.6 kmh SW 5.4 mph8.7 kmh 29.93 in1013.5 mb 0.00 in0.0 mm 0.00 in0.0 mm 0.06 in1.5 mm
01:10 PM 64.0°F17.8°C 55.2°F12.9°C 73% 4.1 mph SW6.6 kmh SW 5.4 mph8.7 kmh 29.92 in1013.2 mb 0.00 in0.0 mm 0.00 in0.0 mm 0.06 in1.5 mm
01:09 PM 64.2°F17.9°C 55.4°F13.0°C 73% 4.1 mph SW6.6 kmh SW 5.4 mph8.7 kmh 29.93 in1013.5 mb 0.00 in0.0 mm 0.00 in0.0 mm 0.06 in1.5 mm
01:08 PM 64.2°F17.9°C 55.0°F12.8°C 72% 4.1 mph SW6.6 kmh SW 5.4 mph8.7 kmh 29.93 in1013.5 mb 0.00 in0.0 mm 0.00 in0.0 mm 0.06 in1.5 mm
01:07 PM 65.3°F18.5°C 55.7°F13.2°C 71% 4.1 mph SW6.6 kmh SW 6.0 mph9.7 kmh 29.93 in1013.5 mb 0.00 in0.0 mm 0.00 in0.0 mm 0.06 in1.5 mm
01:06 PM 65.3°F18.5°C 55.7°F13.2°C 71% 4.2 mph SW6.8 kmh SW 6.0 mph9.7 kmh 29.93 in1013.5 mb 0.00 in0.0 mm 0.00 in0.0 mm 0.06 in1.5 mm
01:05 PM 65.3°F18.5°C 55.7°F13.2°C 71% 4.3 mph SW6.9 kmh SW 6.0 mph9.7 kmh 29.93 in1013.5 mb 0.00 in0.0 mm 0.00 in0.0 mm 0.06 in1.5 mm
01:04 PM 65.3°F18.5°C 55.7°F13.2°C 71% 4.4 mph SW7.1 kmh SW 6.0 mph9.7 kmh 29.93 in1013.5 mb 0.00 in0.0 mm 0.00 in0.0 mm 0.06 in1.5 mm
01:03 PM 65.3°F18.5°C 55.7°F13.2°C 71% 4.0 mph SW6.4 kmh SW 6.0 mph9.7 kmh 29.93 in1013.5 mb 0.00 in0.0 mm 0.00 in0.0 mm 0.06 in1.5 mm
01:02 PM 65.3°F18.5°C 55.7°F13.2°C 71% 3.9 mph SW6.3 kmh SW 6.0 mph9.7 kmh 29.93 in1013.5 mb 0.00 in0.0 mm 0.00 in0.0 mm 0.06 in1.5 mm
01:01 PM 65.3°F18.5°C 55.7°F13.2°C 71% 3.8 mph SW6.1 kmh SW 6.0 mph9.7 kmh 29.92 in1013.2 mb 0.00 in0.0 mm 0.00 in0.0 mm 0.06 in1.5 mm
01:00 PM 65.3°F18.5°C 55.7°F13.2°C 71% 3.9 mph SW6.3 kmh SW 6.0 mph9.7 kmh 29.92 in1013.2 mb 0.00 in0.0 mm 0.00 in0.0 mm 0.06 in1.5 mm
12:59 PM 65.5°F18.6°C 55.8°F13.2°C 71% 3.8 mph SW6.1 kmh SW 6.0 mph9.7 kmh 29.92 in1013.2 mb 0.00 in0.0 mm 0.00 in0.0 mm 0.06 in1.5 mm
12:58 PM 65.7°F18.7°C 55.6°F13.1°C 70% 3.7 mph SW6.0 kmh SW 6.9 mph11.1 kmh 29.93 in1013.5 mb 0.00 in0.0 mm 0.00 in0.0 mm 0.06 in1.5 mm
12:57 PM 65.7°F18.7°C 55.6°F13.1°C 70% 4.0 mph SW6.4 kmh SW 6.9 mph11.1 kmh 29.93 in1013.5 mb 0.00 in0.0 mm 0.00 in0.0 mm 0.06 in1.5 mm
12:56 PM 65.8°F18.8°C 55.8°F13.2°C 70% 3.9 mph SW6.3 kmh SW 6.9 mph11.1 kmh 29.93 in1013.5 mb 0.00 in0.0 mm 0.00 in0.0 mm 0.06 in1.5 mm
12:55 PM 66.2°F19.0°C 56.1°F13.4°C 70% 3.9 mph SW6.3 kmh SW 6.9 mph11.1 kmh 29.92 in1013.2 mb 0.00 in0.0 mm 0.00 in0.0 mm 0.06 in1.5 mm
12:54 PM 66.2°F19.0°C 56.1°F13.4°C 70% 3.8 mph SW6.1 kmh SW 6.9 mph11.1 kmh 29.92 in1013.2 mb 0.00 in0.0 mm 0.00 in0.0 mm 0.06 in1.5 mm
12:53 PM 66.0°F18.9°C 56.4°F13.6°C 71% 4.2 mph SW6.8 kmh SW 6.9 mph11.1 kmh 29.92 in1013.2 mb 0.00 in0.0 mm 0.00 in0.0 mm 0.06 in1.5 mm
12:52 PM 66.0°F18.9°C 56.4°F13.6°C 71% 4.5 mph SW7.2 kmh SW 6.9 mph11.1 kmh 29.92 in1013.2 mb 0.00 in0.0 mm 0.00 in0.0 mm 0.06 in1.5 mm
12:51 PM 65.8°F18.8°C 56.6°F13.7°C 72% 4.7 mph SW7.6 kmh SW 6.9 mph11.1 kmh 29.92 in1013.2 mb 0.00 in0.0 mm 0.00 in0.0 mm 0.06 in1.5 mm
12:50 PM 65.7°F18.7°C 56.4°F13.6°C 72% 4.7 mph SW7.6 kmh SW 6.9 mph11.1 kmh 29.92 in1013.2 mb 0.00 in0.0 mm 0.00 in0.0 mm 0.06 in1.5 mm
12:49 PM 65.7°F18.7°C 56.4°F13.6°C 72% 4.8 mph SW7.7 kmh SW 6.9 mph11.1 kmh 29.92 in1013.2 mb 0.00 in0.0 mm 0.00 in0.0 mm 0.06 in1.5 mm
12:48 PM 65.3°F18.5°C 56.1°F13.4°C 72% 5.0 mph SW8.0 kmh SW 7.6 mph12.2 kmh 29.92 in1013.2 mb 0.00 in0.0 mm 0.00 in0.0 mm 0.06 in1.5 mm
12:47 PM 65.3°F18.5°C 56.4°F13.6°C 73% 5.0 mph SSW8.0 kmh SSW 7.6 mph12.2 kmh 29.92 in1013.2 mb 0.00 in0.0 mm 0.00 in0.0 mm 0.06 in1.5 mm
12:46 PM 65.1°F18.4°C 56.3°F13.5°C 73% 5.0 mph SW8.0 kmh SW 7.6 mph12.2 kmh 29.92 in1013.2 mb 0.00 in0.0 mm 0.00 in0.0 mm 0.06 in1.5 mm
12:45 PM 64.9°F18.3°C 56.1°F13.4°C 73% 5.2 mph SW8.4 kmh SW 7.6 mph12.2 kmh 29.92 in1013.2 mb 0.00 in0.0 mm 0.00 in0.0 mm 0.06 in1.5 mm
12:44 PM 64.9°F18.3°C 56.1°F13.4°C 73% 5.3 mph SW8.5 kmh SW 7.6 mph12.2 kmh 29.92 in1013.2 mb 0.00 in0.0 mm 0.00 in0.0 mm 0.06 in1.5 mm
12:43 PM 64.8°F18.2°C 55.9°F13.3°C 73% 5.4 mph SSW8.7 kmh SSW 7.6 mph12.2 kmh 29.92 in1013.2 mb 0.00 in0.0 mm 0.00 in0.0 mm 0.06 in1.5 mm
12:42 PM 64.8°F18.2°C 55.9°F13.3°C 73% 5.6 mph SSW9.0 kmh SSW 7.6 mph12.2 kmh 29.92 in1013.2 mb 0.00 in0.0 mm 0.00 in0.0 mm 0.06 in1.5 mm
12:41 PM 64.6°F18.1°C 55.7°F13.2°C 73% 5.8 mph SSW9.3 kmh SSW 7.6 mph12.2 kmh 29.92 in1013.2 mb 0.00 in0.0 mm 0.00 in0.0 mm 0.06 in1.5 mm
12:40 PM 64.4°F18.0°C 55.6°F13.1°C 73% 5.8 mph SSW9.3 kmh SSW 7.6 mph12.2 kmh 29.92 in1013.2 mb 0.00 in0.0 mm 0.00 in0.0 mm 0.06 in1.5 mm
12:39 PM 64.4°F18.0°C 56.0°F13.3°C 74% 5.8 mph SW9.3 kmh SW 7.6 mph12.2 kmh 29.92 in1013.2 mb 0.00 in0.0 mm 0.00 in0.0 mm 0.06 in1.5 mm
12:38 PM 64.4°F18.0°C 56.0°F13.3°C 74% 5.6 mph SSW9.0 kmh SSW 7.6 mph12.2 kmh 29.92 in1013.2 mb 0.00 in0.0 mm 0.00 in0.0 mm 0.06 in1.5 mm
12:37 PM 64.2°F17.9°C 55.8°F13.2°C 74% 5.6 mph SW9.0 kmh SW 6.9 mph11.1 kmh 29.92 in1013.2 mb 0.00 in0.0 mm 0.00 in0.0 mm 0.06 in1.5 mm
12:36 PM 64.2°F17.9°C 55.8°F13.2°C 74% 5.7 mph SW9.2 kmh SW 6.9 mph11.1 kmh 29.92 in1013.2 mb 0.00 in0.0 mm 0.00 in0.0 mm 0.06 in1.5 mm
12:35 PM 64.2°F17.9°C 55.8°F13.2°C 74% 5.5 mph SW8.9 kmh SW 6.9 mph11.1 kmh 29.92 in1013.2 mb 0.00 in0.0 mm 0.00 in0.0 mm 0.06 in1.5 mm
12:34 PM 64.2°F17.9°C 55.8°F13.2°C 74% 5.5 mph SW8.9 kmh SW 6.9 mph11.1 kmh 29.92 in1013.2 mb 0.00 in0.0 mm 0.00 in0.0 mm 0.06 in1.5 mm
12:33 PM 64.4°F18.0°C 56.0°F13.3°C 74% 5.4 mph SW8.7 kmh SW 6.9 mph11.1 kmh 29.92 in1013.2 mb 0.00 in0.0 mm 0.00 in0.0 mm 0.06 in1.5 mm
12:32 PM 64.6°F18.1°C 56.1°F13.4°C 74% 5.1 mph SW8.2 kmh SW 6.9 mph11.1 kmh 29.92 in1013.2 mb 0.00 in0.0 mm 0.00 in0.0 mm 0.06 in1.5 mm
12:31 PM 64.8°F18.2°C 56.3°F13.5°C 74% 4.9 mph SW7.9 kmh SW 6.9 mph11.1 kmh 29.92 in1013.2 mb 0.00 in0.0 mm 0.00 in0.0 mm 0.06 in1.5 mm
12:30 PM 64.8°F18.2°C 56.3°F13.5°C 74% 5.0 mph SW8.0 kmh SW 6.9 mph11.1 kmh 29.92 in1013.2 mb 0.00 in0.0 mm 0.00 in0.0 mm 0.06 in1.5 mm
12:29 PM 64.9°F18.3°C 56.5°F13.6°C 74% 5.2 mph SW8.4 kmh SW 6.9 mph11.1 kmh 29.92 in1013.2 mb 0.00 in0.0 mm 0.00 in0.0 mm 0.06 in1.5 mm
12:28 PM 64.9°F18.3°C 56.5°F13.6°C 74% 5.5 mph SW8.9 kmh SW 6.9 mph11.1 kmh 29.92 in1013.2 mb 0.00 in0.0 mm 0.00 in0.0 mm 0.06 in1.5 mm
12:27 PM 65.1°F18.4°C 56.6°F13.7°C 74% 5.4 mph SW8.7 kmh SW 6.9 mph11.1 kmh 29.92 in1013.2 mb 0.00 in0.0 mm 0.00 in0.0 mm 0.06 in1.5 mm
12:26 PM 64.9°F18.3°C 56.5°F13.6°C 74% 5.3 mph SW8.5 kmh SW 6.9 mph11.1 kmh 29.92 in1013.2 mb 0.00 in0.0 mm 0.00 in0.0 mm 0.06 in1.5 mm
12:25 PM 64.9°F18.3°C 56.5°F13.6°C 74% 5.2 mph SW8.4 kmh SW 6.9 mph11.1 kmh 29.92 in1013.2 mb 0.00 in0.0 mm 0.00 in0.0 mm 0.06 in1.5 mm
12:24 PM 64.8°F18.2°C 56.3°F13.5°C 74% 5.1 mph SW8.2 kmh SW 6.9 mph11.1 kmh 29.92 in1013.2 mb 0.00 in0.0 mm 0.00 in0.0 mm 0.06 in1.5 mm
12:23 PM 64.6°F18.1°C 56.1°F13.4°C 74% 5.0 mph SW8.0 kmh SW 6.9 mph11.1 kmh 29.92 in1013.2 mb 0.00 in0.0 mm 0.00 in0.0 mm 0.06 in1.5 mm
12:22 PM 64.6°F18.1°C 56.1°F13.4°C 74% 4.9 mph SW7.9 kmh SW 6.9 mph11.1 kmh 29.92 in1013.2 mb 0.00 in0.0 mm 0.00 in0.0 mm 0.06 in1.5 mm
12:21 PM 64.4°F18.0°C 56.0°F13.3°C 74% 4.8 mph SW7.7 kmh SW 6.9 mph11.1 kmh 29.92 in1013.2 mb 0.00 in0.0 mm 0.00 in0.0 mm 0.06 in1.5 mm
12:20 PM 64.4°F18.0°C 56.3°F13.5°C 75% 4.7 mph SW7.6 kmh SW 6.9 mph11.1 kmh 29.92 in1013.2 mb 0.00 in0.0 mm 0.00 in0.0 mm 0.06 in1.5 mm
12:19 PM 64.2°F17.9°C 56.1°F13.4°C 75% 4.3 mph SW6.9 kmh SW 6.9 mph11.1 kmh 29.92 in1013.2 mb 0.00 in0.0 mm 0.00 in0.0 mm 0.06 in1.5 mm
12:18 PM 64.2°F17.9°C 56.1°F13.4°C 75% 3.9 mph WSW6.3 kmh WSW 6.0 mph9.7 kmh 29.92 in1013.2 mb 0.00 in0.0 mm 0.00 in0.0 mm 0.06 in1.5 mm
12:17 PM 64.2°F17.9°C 55.8°F13.2°C 74% 3.3 mph WSW5.3 kmh WSW 6.0 mph9.7 kmh 29.92 in1013.2 mb 0.00 in0.0 mm 0.00 in0.0 mm 0.06 in1.5 mm
12:16 PM 64.2°F17.9°C 55.8°F13.2°C 74% 3.2 mph WSW5.1 kmh WSW 5.4 mph8.7 kmh 29.92 in1013.2 mb 0.00 in0.0 mm 0.00 in0.0 mm 0.06 in1.5 mm
12:15 PM 64.2°F17.9°C 55.8°F13.2°C 74% 3.4 mph WSW5.5 kmh WSW 5.4 mph8.7 kmh 29.92 in1013.2 mb 0.00 in0.0 mm 0.00 in0.0 mm 0.06 in1.5 mm
12:14 PM 64.4°F18.0°C 56.0°F13.3°C 74% 3.7 mph WSW6.0 kmh WSW 6.0 mph9.7 kmh 29.92 in1013.2 mb 0.00 in0.0 mm 0.00 in0.0 mm 0.06 in1.5 mm
12:13 PM 64.4°F18.0°C 56.0°F13.3°C 74% 3.7 mph SW6.0 kmh SW 6.0 mph9.7 kmh 29.92 in1013.2 mb 0.00 in0.0 mm 0.00 in0.0 mm 0.06 in1.5 mm
12:12 PM 64.4°F18.0°C 55.6°F13.1°C 73% 3.7 mph SW6.0 kmh SW 6.0 mph9.7 kmh 29.92 in1013.2 mb 0.00 in0.0 mm 0.00 in0.0 mm 0.06 in1.5 mm
12:11 PM 64.8°F18.2°C 55.9°F13.3°C 73% 3.8 mph SW6.1 kmh SW 6.0 mph9.7 kmh 29.91 in1012.9 mb 0.00 in0.0 mm 0.00 in0.0 mm 0.06 in1.5 mm
12:10 PM 64.8°F18.2°C 55.9°F13.3°C 73% 3.7 mph SW6.0 kmh SW 6.0 mph9.7 kmh 29.92 in1013.2 mb 0.00 in0.0 mm 0.00 in0.0 mm 0.06 in1.5 mm
12:09 PM 64.9°F18.3°C 56.1°F13.4°C 73% 3.8 mph SW6.1 kmh SW 6.0 mph9.7 kmh 29.92 in1013.2 mb 0.00 in0.0 mm 0.00 in0.0 mm 0.06 in1.5 mm
12:08 PM 65.1°F18.4°C 56.3°F13.5°C 73% 4.3 mph SW6.9 kmh SW 6.0 mph9.7 kmh 29.91 in1012.9 mb 0.00 in0.0 mm 0.00 in0.0 mm 0.06 in1.5 mm
12:07 PM 65.3°F18.5°C 56.4°F13.6°C 73% 4.8 mph SSW7.7 kmh SSW 6.0 mph9.7 kmh 29.92 in1013.2 mb 0.00 in0.0 mm 0.00 in0.0 mm 0.06 in1.5 mm
12:06 PM 65.5°F18.6°C 56.6°F13.7°C 73% 4.8 mph SW7.7 kmh SW 6.0 mph9.7 kmh 29.92 in1013.2 mb 0.00 in0.0 mm 0.00 in0.0 mm 0.06 in1.5 mm
12:05 PM 65.5°F18.6°C 56.6°F13.7°C 73% 4.7 mph SSW7.6 kmh SSW 6.0 mph9.7 kmh 29.92 in1013.2 mb 0.00 in0.0 mm 0.00 in0.0 mm 0.06 in1.5 mm
12:04 PM 65.5°F18.6°C 56.6°F13.7°C 73% 4.5 mph SSW7.2 kmh SSW 6.0 mph9.7 kmh 29.91 in1012.9 mb 0.00 in0.0 mm 0.00 in0.0 mm 0.06 in1.5 mm
12:03 PM 65.5°F18.6°C 56.6°F13.7°C 73% 4.5 mph SSW7.2 kmh SSW 6.0 mph9.7 kmh 29.91 in1012.9 mb 0.00 in0.0 mm 0.00 in0.0 mm 0.06 in1.5 mm
12:02 PM 65.3°F18.5°C 56.4°F13.6°C 73% 4.5 mph SSW7.2 kmh SSW 6.0 mph9.7 kmh 29.91 in1012.9 mb 0.00 in0.0 mm 0.00 in0.0 mm 0.06 in1.5 mm
12:01 PM 65.3°F18.5°C 56.4°F13.6°C 73% 4.5 mph SSW7.2 kmh SSW 6.0 mph9.7 kmh 29.92 in1013.2 mb 0.00 in0.0 mm 0.00 in0.0 mm 0.06 in1.5 mm
12:00 PM 65.3°F18.5°C 56.8°F13.8°C 74% 4.5 mph SSW7.2 kmh SSW 6.0 mph9.7 kmh 29.91 in1012.9 mb 0.00 in0.0 mm 0.00 in0.0 mm 0.06 in1.5 mm
11:59 AM 65.1°F18.4°C 56.6°F13.7°C 74% 4.5 mph SSW7.2 kmh SSW 6.0 mph9.7 kmh 29.91 in1012.9 mb 0.00 in0.0 mm 0.00 in0.0 mm 0.06 in1.5 mm
11:58 AM 65.1°F18.4°C 56.6°F13.7°C 74% 4.4 mph SSW7.1 kmh SSW 6.0 mph9.7 kmh 29.91 in1012.9 mb 0.00 in0.0 mm 0.00 in0.0 mm 0.06 in1.5 mm
11:57 AM 64.9°F18.3°C 56.5°F13.6°C 74% 4.5 mph SW7.2 kmh SW 6.0 mph9.7 kmh 29.91 in1012.9 mb 0.00 in0.0 mm 0.00 in0.0 mm 0.06 in1.5 mm
11:56 AM 64.9°F18.3°C 56.5°F13.6°C 74% 4.6 mph SW7.4 kmh SW 6.0 mph9.7 kmh 29.91 in1012.9 mb 0.00 in0.0 mm 0.00 in0.0 mm 0.06 in1.5 mm
11:55 AM 64.8°F18.2°C 56.3°F13.5°C 74% 4.5 mph SW7.2 kmh SW 6.0 mph9.7 kmh 29.92 in1013.2 mb 0.00 in0.0 mm 0.00 in0.0 mm 0.06 in1.5 mm
11:54 AM 64.8°F18.2°C 56.3°F13.5°C 74% 4.6 mph SW7.4 kmh SW 6.0 mph9.7 kmh 29.91 in1012.9 mb 0.00 in0.0 mm 0.00 in0.0 mm 0.06 in1.5 mm
11:53 AM 64.6°F18.1°C 56.1°F13.4°C 74% 4.6 mph SSW7.4 kmh SSW 6.0 mph9.7 kmh 29.91 in1012.9 mb 0.00 in0.0 mm 0.00 in0.0 mm 0.06 in1.5 mm
11:52 AM 64.6°F18.1°C 56.1°F13.4°C 74% 4.3 mph SW6.9 kmh SW 6.0 mph9.7 kmh 29.91 in1012.9 mb 0.00 in0.0 mm 0.00 in0.0 mm 0.06 in1.5 mm
11:51 AM 64.6°F18.1°C 56.1°F13.4°C 74% 4.2 mph SW6.8 kmh SW 6.0 mph9.7 kmh 29.91 in1012.9 mb 0.00 in0.0 mm 0.00 in0.0 mm 0.06 in1.5 mm
11:50 AM 64.6°F18.1°C 56.1°F13.4°C 74% 4.3 mph SW6.9 kmh SW 6.0 mph9.7 kmh 29.91 in1012.9 mb 0.00 in0.0 mm 0.00 in0.0 mm 0.06 in1.5 mm
11:49 AM 64.8°F18.2°C 56.3°F13.5°C 74% 4.3 mph SW6.9 kmh SW 6.0 mph9.7 kmh 29.91 in1012.9 mb 0.00 in0.0 mm 0.00 in0.0 mm 0.06 in1.5 mm
11:48 AM 64.8°F18.2°C 56.3°F13.5°C 74% 4.3 mph SW6.9 kmh SW 6.0 mph9.7 kmh 29.91 in1012.9 mb 0.00 in0.0 mm 0.00 in0.0 mm 0.06 in1.5 mm
11:47 AM 64.9°F18.3°C 56.5°F13.6°C 74% 4.3 mph SW6.9 kmh SW 6.0 mph9.7 kmh 29.91 in1012.9 mb 0.00 in0.0 mm 0.00 in0.0 mm 0.06 in1.5 mm
11:46 AM 64.9°F18.3°C 56.5°F13.6°C 74% 4.1 mph SW6.6 kmh SW 5.4 mph8.7 kmh 29.91 in1012.9 mb 0.00 in0.0 mm 0.00 in0.0 mm 0.06 in1.5 mm
11:45 AM 64.9°F18.3°C 56.5°F13.6°C 74% 4.1 mph SSW6.6 kmh SSW 5.4 mph8.7 kmh 29.91 in1012.9 mb 0.00 in0.0 mm 0.00 in0.0 mm 0.06 in1.5 mm
11:44 AM 65.1°F18.4°C 56.6°F13.7°C 74% 4.0 mph SW6.4 kmh SW 5.4 mph8.7 kmh 29.91 in1012.9 mb 0.00 in0.0 mm 0.00 in0.0 mm 0.06 in1.5 mm
11:43 AM 65.1°F18.4°C 56.3°F13.5°C 73% 3.9 mph SW6.3 kmh SW 5.4 mph8.7 kmh 29.91 in1012.9 mb 0.00 in0.0 mm 0.00 in0.0 mm 0.06 in1.5 mm
11:42 AM 65.3°F18.5°C 56.4°F13.6°C 73% 4.1 mph SW6.6 kmh SW 5.4 mph8.7 kmh 29.91 in1012.9 mb 0.00 in0.0 mm 0.00 in0.0 mm 0.06 in1.5 mm
11:41 AM 65.3°F18.5°C 56.4°F13.6°C 73% 4.2 mph SW6.8 kmh SW 5.4 mph8.7 kmh 29.91 in1012.9 mb 0.00 in0.0 mm 0.00 in0.0 mm 0.06 in1.5 mm
11:40 AM 65.5°F18.6°C 56.6°F13.7°C 73% 4.2 mph SSW6.8 kmh SSW 5.4 mph8.7 kmh 29.91 in1012.9 mb 0.00 in0.0 mm 0.00 in0.0 mm 0.06 in1.5 mm
11:39 AM 65.7°F18.7°C 57.2°F14.0°C 74% 3.7 mph SSW6.0 kmh SSW 5.4 mph8.7 kmh 29.91 in1012.9 mb 0.00 in0.0 mm 0.00 in0.0 mm 0.06 in1.5 mm
11:38 AM 65.7°F18.7°C 57.5°F14.2°C 75% 3.4 mph SSW5.5 kmh SSW 5.4 mph8.7 kmh 29.91 in1012.9 mb 0.00 in0.0 mm 0.00 in0.0 mm 0.06 in1.5 mm
11:37 AM 65.7°F18.7°C 57.9°F14.4°C 76% 3.2 mph SSW5.1 kmh SSW 5.4 mph8.7 kmh 29.91 in1012.9 mb 0.00 in0.0 mm 0.00 in0.0 mm 0.06 in1.5 mm
11:36 AM 65.5°F18.6°C 57.7°F14.3°C 76% 3.1 mph SSW5.0 kmh SSW 5.4 mph8.7 kmh 29.91 in1012.9 mb 0.00 in0.0 mm 0.00 in0.0 mm 0.06 in1.5 mm
11:35 AM 65.3°F18.5°C 57.9°F14.4°C 77% 3.1 mph SSW5.0 kmh SSW 5.4 mph8.7 kmh 29.91 in1012.9 mb 0.00 in0.0 mm 0.00 in0.0 mm 0.06 in1.5 mm
11:34 AM 65.3°F18.5°C 57.9°F14.4°C 77% 3.1 mph SSW5.0 kmh SSW 5.4 mph8.7 kmh 29.91 in1012.9 mb 0.00 in0.0 mm 0.00 in0.0 mm 0.06 in1.5 mm
11:33 AM 65.1°F18.4°C 57.8°F14.3°C 77% 3.2 mph SW5.1 kmh SW 5.4 mph8.7 kmh 29.91 in1012.9 mb 0.00 in0.0 mm 0.00 in0.0 mm 0.06 in1.5 mm
11:32 AM 64.8°F18.2°C 57.8°F14.3°C 78% 3.5 mph SW5.6 kmh SW 6.0 mph9.7 kmh 29.91 in1012.9 mb 0.00 in0.0 mm 0.00 in0.0 mm 0.06 in1.5 mm
11:31 AM 64.8°F18.2°C 58.1°F14.5°C 79% 3.5 mph SW5.6 kmh SW 6.0 mph9.7 kmh 29.91 in1012.9 mb 0.00 in0.0 mm 0.00 in0.0 mm 0.06 in1.5 mm
11:30 AM 64.4°F18.0°C 57.8°F14.3°C 79% 3.7 mph SW6.0 kmh SW 6.0 mph9.7 kmh 29.91 in1012.9 mb 0.00 in0.0 mm 0.00 in0.0 mm 0.06 in1.5 mm
11:29 AM 64.0°F17.8°C 57.4°F14.1°C 79% 4.2 mph SW6.8 kmh SW 6.0 mph9.7 kmh 29.91 in1012.9 mb 0.00 in0.0 mm 0.00 in0.0 mm 0.06 in1.5 mm
11:28 AM 63.7°F17.6°C 56.7°F13.7°C 78% 4.5 mph SW7.2 kmh SW 6.0 mph9.7 kmh 29.91 in1012.9 mb 0.00 in0.0 mm 0.00 in0.0 mm 0.06 in1.5 mm
11:27 AM 63.5°F17.5°C 56.9°F13.8°C 79% 4.6 mph SW7.4 kmh SW 6.0 mph9.7 kmh 29.91 in1012.9 mb 0.00 in0.0 mm 0.00 in0.0 mm 0.06 in1.5 mm
11:26 AM 63.3°F17.4°C 56.7°F13.7°C 79% 4.4 mph SW7.1 kmh SW 6.0 mph9.7 kmh 29.91 in1012.9 mb 0.00 in0.0 mm 0.00 in0.0 mm 0.06 in1.5 mm
11:25 AM 63.3°F17.4°C 56.7°F13.7°C 79% 4.6 mph SW7.4 kmh SW 6.0 mph9.7 kmh 29.91 in1012.9 mb 0.00 in0.0 mm 0.00 in0.0 mm 0.06 in1.5 mm
11:24 AM 63.1°F17.3°C 56.5°F13.6°C 79% 4.6 mph SW7.4 kmh SW 6.0 mph9.7 kmh 29.91 in1012.9 mb 0.00 in0.0 mm 0.00 in0.0 mm 0.06 in1.5 mm
11:23 AM 63.1°F17.3°C 56.5°F13.6°C 79% 4.5 mph SW7.2 kmh SW 6.0 mph9.7 kmh 29.91 in1012.9 mb 0.00 in0.0 mm 0.00 in0.0 mm 0.06 in1.5 mm
11:22 AM 63.1°F17.3°C 56.5°F13.6°C 79% 4.3 mph SW6.9 kmh SW 5.4 mph8.7 kmh 29.91 in1012.9 mb 0.00 in0.0 mm 0.00 in0.0 mm 0.06 in1.5 mm
11:21 AM 63.1°F17.3°C 56.5°F13.6°C 79% 4.1 mph SW6.6 kmh SW 5.4 mph8.7 kmh 29.91 in1012.9 mb 0.00 in0.0 mm 0.00 in0.0 mm 0.06 in1.5 mm
11:20 AM 63.0°F17.2°C 56.4°F13.6°C 79% 4.1 mph SW6.6 kmh SW 5.4 mph8.7 kmh 29.91 in1012.9 mb 0.00 in0.0 mm 0.00 in0.0 mm 0.06 in1.5 mm
11:19 AM 63.0°F17.2°C 56.4°F13.6°C 79% 4.1 mph SW6.6 kmh SW 5.4 mph8.7 kmh 29.91 in1012.9 mb 0.00 in0.0 mm 0.00 in0.0 mm 0.06 in1.5 mm
11:18 AM 63.0°F17.2°C 56.4°F13.6°C 79% 4.1 mph SW6.6 kmh SW 5.4 mph8.7 kmh 29.91 in1012.9 mb 0.00 in0.0 mm 0.00 in0.0 mm 0.06 in1.5 mm
11:17 AM 63.0°F17.2°C 56.4°F13.6°C 79% 4.1 mph SW6.6 kmh SW 5.4 mph8.7 kmh 29.91 in1012.9 mb 0.00 in0.0 mm 0.00 in0.0 mm 0.06 in1.5 mm
11:16 AM 63.0°F17.2°C 56.4°F13.6°C 79% 4.3 mph SW6.9 kmh SW 5.4 mph8.7 kmh 29.91 in1012.9 mb 0.00 in0.0 mm 0.00 in0.0 mm 0.06 in1.5 mm
11:15 AM 63.0°F17.2°C 56.4°F13.6°C 79% 4.3 mph SW6.9 kmh SW 5.4 mph8.7 kmh 29.91 in1012.9 mb 0.00 in0.0 mm 0.00 in0.0 mm 0.06 in1.5 mm
11:14 AM 63.0°F17.2°C 56.4°F13.6°C 79% 4.3 mph SW6.9 kmh SW 5.4 mph8.7 kmh 29.91 in1012.9 mb 0.00 in0.0 mm 0.00 in0.0 mm 0.06 in1.5 mm
11:13 AM 63.0°F17.2°C 56.4°F13.6°C 79% 4.3 mph SSW6.9 kmh SSW 5.4 mph8.7 kmh 29.91 in1012.9 mb 0.00 in0.0 mm 0.00 in0.0 mm 0.06 in1.5 mm
11:12 AM 63.0°F17.2°C 56.4°F13.6°C 79% 4.3 mph SSW6.9 kmh SSW 5.4 mph8.7 kmh 29.91 in1012.9 mb 0.00 in0.0 mm 0.00 in0.0 mm 0.06 in1.5 mm
11:11 AM 63.0°F17.2°C 56.4°F13.6°C 79% 4.4 mph S7.1 kmh S 5.4 mph8.7 kmh 29.91 in1012.9 mb 0.00 in0.0 mm 0.00 in0.0 mm 0.06 in1.5 mm
11:10 AM 63.1°F17.3°C 56.5°F13.6°C 79% 4.2 mph S6.8 kmh S 5.4 mph8.7 kmh 29.91 in1012.9 mb 0.00 in0.0 mm 0.00 in0.0 mm 0.06 in1.5 mm
11:09 AM 63.1°F17.3°C 56.5°F13.6°C 79% 4.0 mph S6.4 kmh S 5.4 mph8.7 kmh 29.91 in1012.9 mb 0.00 in0.0 mm 0.00 in0.0 mm 0.06 in1.5 mm
11:08 AM 63.1°F17.3°C 56.5°F13.6°C 79% 3.9 mph S6.3 kmh S 5.4 mph8.7 kmh 29.91 in1012.9 mb 0.00 in0.0 mm 0.00 in0.0 mm 0.06 in1.5 mm
11:07 AM 63.7°F17.6°C 57.4°F14.1°C 80% 3.7 mph S6.0 kmh S 3.8 mph6.1 kmh 29.91 in1012.9 mb 0.00 in0.0 mm 0.00 in0.0 mm 0.06 in1.5 mm
11:06 AM 63.7°F17.6°C 57.4°F14.1°C 80% 3.6 mph S5.8 kmh S 3.8 mph6.1 kmh 29.91 in1012.9 mb 0.00 in0.0 mm 0.00 in0.0 mm 0.06 in1.5 mm
11:05 AM 63.7°F17.6°C 57.4°F14.1°C 80% 3.2 mph S5.1 kmh S 3.8 mph6.1 kmh 29.91 in1012.9 mb 0.00 in0.0 mm 0.00 in0.0 mm 0.06 in1.5 mm
11:04 AM 63.7°F17.6°C 57.4°F14.1°C 80% 2.9 mph S4.7 kmh S 3.8 mph6.1 kmh 29.91 in1012.9 mb 0.00 in0.0 mm 0.00 in0.0 mm 0.06 in1.5 mm
11:03 AM 63.7°F17.6°C 57.4°F14.1°C 80% 2.4 mph S3.9 kmh S 3.8 mph6.1 kmh 29.91 in1012.9 mb 0.00 in0.0 mm 0.00 in0.0 mm 0.06 in1.5 mm
11:02 AM 63.7°F17.6°C 57.4°F14.1°C 80% 2.2 mph S3.5 kmh S 3.8 mph6.1 kmh 29.91 in1012.9 mb 0.00 in0.0 mm 0.00 in0.0 mm 0.06 in1.5 mm
11:01 AM 63.7°F17.6°C 57.4°F14.1°C 80% 2.2 mph S3.5 kmh S 3.8 mph6.1 kmh 29.91 in1012.9 mb 0.00 in0.0 mm 0.00 in0.0 mm 0.06 in1.5 mm
11:00 AM 63.7°F17.6°C 57.4°F14.1°C 80% 2.2 mph S3.5 kmh S 3.8 mph6.1 kmh 29.91 in1012.9 mb 0.00 in0.0 mm 0.00 in0.0 mm 0.06 in1.5 mm
10:59 AM 63.7°F17.6°C 57.8°F14.3°C 81% 2.3 mph S3.7 kmh S 3.8 mph6.1 kmh 29.91 in1012.9 mb 0.00 in0.0 mm 0.00 in0.0 mm 0.06 in1.5 mm
10:58 AM 63.7°F17.6°C 57.8°F14.3°C 81% 2.2 mph S3.5 kmh S 3.8 mph6.1 kmh 29.91 in1012.9 mb 0.00 in0.0 mm 0.00 in0.0 mm 0.06 in1.5 mm
10:57 AM 63.7°F17.6°C 57.8°F14.3°C 81% 2.2 mph S3.5 kmh S 3.8 mph6.1 kmh 29.91 in1012.9 mb 0.00 in0.0 mm 0.00 in0.0 mm 0.06 in1.5 mm
10:56 AM 63.7°F17.6°C 57.8°F14.3°C 81% 2.5 mph S4.0 kmh S 5.4 mph8.7 kmh 29.91 in1012.9 mb 0.00 in0.0 mm 0.00 in0.0 mm 0.06 in1.5 mm
10:55 AM 63.5°F17.5°C 57.6°F14.2°C 81% 2.9 mph S4.7 kmh S 5.4 mph8.7 kmh 29.91 in1012.9 mb 0.00 in0.0 mm 0.00 in0.0 mm 0.06 in1.5 mm
10:54 AM 63.5°F17.5°C 57.6°F14.2°C 81% 3.2 mph S5.1 kmh S 5.4 mph8.7 kmh 29.91 in1012.9 mb 0.00 in0.0 mm 0.00 in0.0 mm 0.06 in1.5 mm
10:53 AM 63.3°F17.4°C 57.4°F14.1°C 81% 3.7 mph SSW6.0 kmh SSW 5.4 mph8.7 kmh 29.91 in1012.9 mb 0.00 in0.0 mm 0.00 in0.0 mm 0.06 in1.5 mm
10:52 AM 63.3°F17.4°C 57.4°F14.1°C 81% 3.9 mph SSW6.3 kmh SSW 5.4 mph8.7 kmh 29.91 in1012.9 mb 0.00 in0.0 mm 0.00 in0.0 mm 0.06 in1.5 mm
10:51 AM 63.3°F17.4°C 57.4°F14.1°C 81% 4.1 mph SSW6.6 kmh SSW 5.4 mph8.7 kmh 29.91 in1012.9 mb 0.00 in0.0 mm 0.00 in0.0 mm 0.06 in1.5 mm
10:50 AM 63.3°F17.4°C 57.4°F14.1°C 81% 4.0 mph SSW6.4 kmh SSW 5.4 mph8.7 kmh 29.91 in1012.9 mb 0.00 in0.0 mm 0.00 in0.0 mm 0.06 in1.5 mm
10:49 AM 63.3°F17.4°C 57.4°F14.1°C 81% 4.1 mph SSW6.6 kmh SSW 5.4 mph8.7 kmh 29.91 in1012.9 mb 0.00 in0.0 mm 0.00 in0.0 mm 0.06 in1.5 mm
10:48 AM 63.3°F17.4°C 57.7°F14.3°C 82% 3.6 mph SSW5.8 kmh SSW 5.4 mph8.7 kmh 29.91 in1012.9 mb 0.00 in0.0 mm 0.00 in0.0 mm 0.06 in1.5 mm
10:47 AM 63.5°F17.5°C 57.9°F14.4°C 82% 3.3 mph SSW5.3 kmh SSW 5.4 mph8.7 kmh 29.91 in1012.9 mb 0.00 in0.0 mm 0.00 in0.0 mm 0.06 in1.5 mm
10:46 AM 63.5°F17.5°C 57.9°F14.4°C 82% 3.1 mph SW5.0 kmh SW 5.4 mph8.7 kmh 29.91 in1012.9 mb 0.00 in0.0 mm 0.00 in0.0 mm 0.06 in1.5 mm
10:45 AM 63.3°F17.4°C 57.7°F14.3°C 82% 2.9 mph SW4.7 kmh SW 5.4 mph8.7 kmh 29.91 in1012.9 mb 0.00 in0.0 mm 0.00 in0.0 mm 0.06 in1.5 mm
10:44 AM 63.3°F17.4°C 57.7°F14.3°C 82% 2.9 mph SSW4.7 kmh SSW 5.4 mph8.7 kmh 29.91 in1012.9 mb 0.00 in0.0 mm 0.00 in0.0 mm 0.06 in1.5 mm
10:43 AM 63.3°F17.4°C 57.7°F14.3°C 82% 2.9 mph SSW4.7 kmh SSW 5.4 mph8.7 kmh 29.91 in1012.9 mb 0.00 in0.0 mm 0.00 in0.0 mm 0.06 in1.5 mm
10:42 AM 63.3°F17.4°C 57.7°F14.3°C 82% 3.0 mph SW4.8 kmh SW 5.4 mph8.7 kmh 29.91 in1012.9 mb 0.00 in0.0 mm 0.00 in0.0 mm 0.06 in1.5 mm
10:41 AM 63.1°F17.3°C 57.9°F14.4°C 83% 2.9 mph SW4.7 kmh SW 5.4 mph8.7 kmh 29.91 in1012.9 mb 0.00 in0.0 mm 0.00 in0.0 mm 0.06 in1.5 mm
10:40 AM 63.1°F17.3°C 57.9°F14.4°C 83% 2.8 mph SW4.5 kmh SW 5.4 mph8.7 kmh 29.91 in1012.9 mb 0.00 in0.0 mm 0.00 in0.0 mm 0.06 in1.5 mm
10:39 AM 63.0°F17.2°C 57.7°F14.3°C 83% 2.6 mph SW4.2 kmh SW 5.4 mph8.7 kmh 29.91 in1012.9 mb 0.00 in0.0 mm 0.00 in0.0 mm 0.06 in1.5 mm
10:38 AM 63.0°F17.2°C 57.7°F14.3°C 83% 3.0 mph SW4.8 kmh SW 5.4 mph8.7 kmh 29.91 in1012.9 mb 0.00 in0.0 mm 0.00 in0.0 mm 0.06 in1.5 mm
10:37 AM 63.0°F17.2°C 57.7°F14.3°C 83% 3.2 mph SW5.1 kmh SW 5.4 mph8.7 kmh 29.91 in1012.9 mb 0.00 in0.0 mm 0.00 in0.0 mm 0.06 in1.5 mm
10:36 AM 63.0°F17.2°C 57.7°F14.3°C 83% 3.3 mph SW5.3 kmh SW 5.4 mph8.7 kmh 29.91 in1012.9 mb 0.00 in0.0 mm 0.00 in0.0 mm 0.06 in1.5 mm
10:35 AM 62.8°F17.1°C 57.6°F14.2°C 83% 3.3 mph SW5.3 kmh SW 5.4 mph8.7 kmh 29.91 in1012.9 mb 0.00 in0.0 mm 0.00 in0.0 mm 0.06 in1.5 mm
10:34 AM 62.8°F17.1°C 57.6°F14.2°C 83% 3.4 mph SW5.5 kmh SW 5.4 mph8.7 kmh 29.91 in1012.9 mb 0.00 in0.0 mm 0.00 in0.0 mm 0.06 in1.5 mm
10:33 AM 62.8°F17.1°C 57.6°F14.2°C 83% 3.4 mph SW5.5 kmh SW 5.4 mph8.7 kmh 29.91 in1012.9 mb 0.00 in0.0 mm 0.00 in0.0 mm 0.06 in1.5 mm
10:32 AM 63.0°F17.2°C 58.1°F14.5°C 84% 3.3 mph SW5.3 kmh SW 5.4 mph8.7 kmh 29.91 in1012.9 mb 0.00 in0.0 mm 0.00 in0.0 mm 0.06 in1.5 mm
10:31 AM 62.8°F17.1°C 57.9°F14.4°C 84% 3.3 mph SW5.3 kmh SW 4.5 mph7.2 kmh 29.91 in1012.9 mb 0.00 in0.0 mm 0.00 in0.0 mm 0.06 in1.5 mm
10:30 AM 62.8°F17.1°C 57.9°F14.4°C 84% 3.2 mph SW5.1 kmh SW 4.5 mph7.2 kmh 29.91 in1012.9 mb 0.00 in0.0 mm 0.00 in0.0 mm 0.06 in1.5 mm
10:29 AM 62.8°F17.1°C 57.9°F14.4°C 84% 3.2 mph SW5.1 kmh SW 4.5 mph7.2 kmh 29.91 in1012.9 mb 0.00 in0.0 mm 0.00 in0.0 mm 0.06 in1.5 mm
10:28 AM 62.8°F17.1°C 57.9°F14.4°C 84% 3.3 mph SW5.3 kmh SW 4.5 mph7.2 kmh 29.91 in1012.9 mb 0.00 in0.0 mm 0.00 in0.0 mm 0.06 in1.5 mm
10:27 AM 62.8°F17.1°C 57.9°F14.4°C 84% 3.3 mph SW5.3 kmh SW 4.5 mph7.2 kmh 29.91 in1012.9 mb 0.00 in0.0 mm 0.00 in0.0 mm 0.06 in1.5 mm
10:26 AM 62.8°F17.1°C 57.9°F14.4°C 84% 3.3 mph SW5.3 kmh SW 4.5 mph7.2 kmh 29.91 in1012.9 mb 0.00 in0.0 mm 0.00 in0.0 mm 0.06 in1.5 mm
10:25 AM 62.8°F17.1°C 58.2°F14.6°C 85% 3.0 mph SW4.8 kmh SW 4.5 mph7.2 kmh 29.91 in1012.9 mb 0.00 in0.0 mm 0.00 in0.0 mm 0.06 in1.5 mm
10:24 AM 62.6°F17.0°C 58.0°F14.4°C 85% 2.7 mph SW4.3 kmh SW 4.5 mph7.2 kmh 29.91 in1012.9 mb 0.00 in0.0 mm 0.00 in0.0 mm 0.06 in1.5 mm
10:23 AM 62.6°F17.0°C 58.0°F14.4°C 85% 2.8 mph SW4.5 kmh SW 4.5 mph7.2 kmh 29.91 in1012.9 mb 0.00 in0.0 mm 0.00 in0.0 mm 0.06 in1.5 mm
10:22 AM 62.6°F17.0°C 58.0°F14.4°C 85% 2.8 mph SW4.5 kmh SW 4.5 mph7.2 kmh 29.91 in1012.9 mb 0.00 in0.0 mm 0.00 in0.0 mm 0.06 in1.5 mm
10:21 AM 62.6°F17.0°C 58.0°F14.4°C 85% 2.7 mph SW4.3 kmh SW 4.5 mph7.2 kmh 29.91 in1012.9 mb 0.00 in0.0 mm 0.00 in0.0 mm 0.06 in1.5 mm
10:20 AM 62.4°F16.9°C 58.2°F14.6°C 86% 3.0 mph SW4.8 kmh SW 4.5 mph7.2 kmh 29.91 in1012.9 mb 0.00 in0.0 mm 0.00 in0.0 mm 0.06 in1.5 mm
10:19 AM 62.4°F16.9°C 58.2°F14.6°C 86% 2.9 mph SW4.7 kmh SW 4.5 mph7.2 kmh 29.91 in1012.9 mb 0.00 in0.0 mm 0.00 in0.0 mm 0.06 in1.5 mm
10:18 AM 62.6°F17.0°C 58.0°F14.4°C 85% 2.6 mph SW4.2 kmh SW 4.5 mph7.2 kmh 29.91 in1012.9 mb 0.00 in0.0 mm 0.00 in0.0 mm 0.06 in1.5 mm
10:17 AM 62.6°F17.0°C 58.0°F14.4°C 85% 2.5 mph SSW4.0 kmh SSW 4.5 mph7.2 kmh 29.91 in1012.9 mb 0.00 in0.0 mm 0.00 in0.0 mm 0.06 in1.5 mm
10:16 AM 62.6°F17.0°C 58.0°F14.4°C 85% 2.6 mph SSW4.2 kmh SSW 4.5 mph7.2 kmh 29.91 in1012.9 mb 0.00 in0.0 mm 0.00 in0.0 mm 0.06 in1.5 mm
10:15 AM 62.6°F17.0°C 58.4°F14.7°C 86% 2.9 mph SSW4.7 kmh SSW 4.5 mph7.2 kmh 29.91 in1012.9 mb 0.00 in0.0 mm 0.00 in0.0 mm 0.06 in1.5 mm
10:14 AM 62.6°F17.0°C 58.4°F14.7°C 86% 3.1 mph SSW5.0 kmh SSW 4.5 mph7.2 kmh 29.91 in1012.9 mb 0.00 in0.0 mm 0.00 in0.0 mm 0.06 in1.5 mm
10:13 AM 62.8°F17.1°C 58.5°F14.7°C 86% 3.0 mph SSW4.8 kmh SSW 4.5 mph7.2 kmh 29.91 in1012.9 mb 0.00 in0.0 mm 0.00 in0.0 mm 0.06 in1.5 mm
10:12 AM 62.8°F17.1°C 58.5°F14.7°C 86% 2.6 mph SSW4.2 kmh SSW 4.5 mph7.2 kmh 29.91 in1012.9 mb 0.00 in0.0 mm 0.00 in0.0 mm 0.06 in1.5 mm
10:11 AM 63.0°F17.2°C 58.7°F14.8°C 86% 2.6 mph SSW4.2 kmh SSW 3.8 mph6.1 kmh 29.91 in1012.9 mb 0.00 in0.0 mm 0.00 in0.0 mm 0.06 in1.5 mm
10:10 AM 63.0°F17.2°C 58.7°F14.8°C 86% 2.5 mph SSW4.0 kmh SSW 3.8 mph6.1 kmh 29.91 in1012.9 mb 0.00 in0.0 mm 0.00 in0.0 mm 0.06 in1.5 mm
10:09 AM 63.0°F17.2°C 58.7°F14.8°C 86% 2.6 mph SSW4.2 kmh SSW 3.8 mph6.1 kmh 29.91 in1012.9 mb 0.00 in0.0 mm 0.00 in0.0 mm 0.06 in1.5 mm
10:08 AM 63.0°F17.2°C 59.0°F15.0°C 87% 2.8 mph SSW4.5 kmh SSW 3.8 mph6.1 kmh 29.91 in1012.9 mb 0.00 in0.0 mm 0.00 in0.0 mm 0.06 in1.5 mm
10:07 AM 63.1°F17.3°C 59.2°F15.1°C 87% 2.7 mph SSW4.3 kmh SSW 3.8 mph6.1 kmh 29.91 in1012.9 mb 0.00 in0.0 mm 0.00 in0.0 mm 0.06 in1.5 mm
10:06 AM 63.1°F17.3°C 59.2°F15.1°C 87% 2.7 mph SSW4.3 kmh SSW 3.8 mph6.1 kmh 29.91 in1012.9 mb 0.00 in0.0 mm 0.00 in0.0 mm 0.06 in1.5 mm
10:05 AM 63.1°F17.3°C 59.2°F15.1°C 87% 2.7 mph SSW4.3 kmh SSW 3.8 mph6.1 kmh 29.91 in1012.9 mb 0.00 in0.0 mm 0.00 in0.0 mm 0.06 in1.5 mm
10:04 AM 63.1°F17.3°C 59.5°F15.3°C 88% 2.8 mph SSW4.5 kmh SSW 3.8 mph6.1 kmh 29.91 in1012.9 mb 0.00 in0.0 mm 0.00 in0.0 mm 0.06 in1.5 mm
10:03 AM 63.1°F17.3°C 59.5°F15.3°C 88% 2.7 mph SSW4.3 kmh SSW 3.8 mph6.1 kmh 29.91 in1012.9 mb 0.00 in0.0 mm 0.00 in0.0 mm 0.06 in1.5 mm
10:02 AM 63.1°F17.3°C 59.5°F15.3°C 88% 2.9 mph SSW4.7 kmh SSW 3.8 mph6.1 kmh 29.91 in1012.9 mb 0.00 in0.0 mm 0.00 in0.0 mm 0.06 in1.5 mm
10:01 AM 63.1°F17.3°C 59.5°F15.3°C 88% 3.0 mph SW4.8 kmh SW 4.5 mph7.2 kmh 29.91 in1012.9 mb 0.00 in0.0 mm 0.00 in0.0 mm 0.06 in1.5 mm
10:00 AM 63.0°F17.2°C 59.4°F15.2°C 88% 3.0 mph SSW4.8 kmh SSW 4.5 mph7.2 kmh 29.91 in1012.9 mb 0.00 in0.0 mm 0.00 in0.0 mm 0.06 in1.5 mm
09:59 AM 63.0°F17.2°C 59.4°F15.2°C 88% 3.1 mph SSW5.0 kmh SSW 4.5 mph7.2 kmh 29.91 in1012.9 mb 0.00 in0.0 mm 0.00 in0.0 mm 0.06 in1.5 mm
09:58 AM 63.0°F17.2°C 59.4°F15.2°C 88% 3.1 mph SSW5.0 kmh SSW 4.5 mph7.2 kmh 29.91 in1012.9 mb 0.00 in0.0 mm 0.00 in0.0 mm 0.06 in1.5 mm
09:57 AM 63.0°F17.2°C 59.4°F15.2°C 88% 3.3 mph SSW5.3 kmh SSW 4.5 mph7.2 kmh 29.91 in1012.9 mb 0.00 in0.0 mm 0.00 in0.0 mm 0.06 in1.5 mm
09:56 AM 63.0°F17.2°C 59.4°F15.2°C 88% 3.1 mph SSW5.0 kmh SSW 4.5 mph7.2 kmh 29.91 in1012.9 mb 0.00 in0.0 mm 0.00 in0.0 mm 0.06 in1.5 mm
09:55 AM 62.8°F17.1°C 59.2°F15.1°C 88% 2.7 mph SSW4.3 kmh SSW 4.5 mph7.2 kmh 29.91 in1012.9 mb 0.00 in0.0 mm 0.00 in0.0 mm 0.06 in1.5 mm
09:54 AM 62.8°F17.1°C 59.2°F15.1°C 88% 2.3 mph SSW3.7 kmh SSW 4.5 mph7.2 kmh 29.91 in1012.9 mb 0.00 in0.0 mm 0.00 in0.0 mm 0.06 in1.5 mm
09:53 AM 62.8°F17.1°C 59.2°F15.1°C 88% 2.1 mph SSW3.4 kmh SSW 4.5 mph7.2 kmh 29.91 in1012.9 mb 0.00 in0.0 mm 0.00 in0.0 mm 0.06 in1.5 mm
09:52 AM 62.8°F17.1°C 59.2°F15.1°C 88% 1.9 mph SSW3.1 kmh SSW 4.5 mph7.2 kmh 29.91 in1012.9 mb 0.00 in0.0 mm 0.00 in0.0 mm 0.06 in1.5 mm
09:51 AM 62.6°F17.0°C 59.0°F15.0°C 88% 1.5 mph S2.4 kmh S 3.8 mph6.1 kmh 29.91 in1012.9 mb 0.00 in0.0 mm 0.00 in0.0 mm 0.06 in1.5 mm
09:50 AM 62.6°F17.0°C 59.3°F15.2°C 89% 1.1 mph S1.8 kmh S 3.8 mph6.1 kmh 29.91 in1012.9 mb 0.00 in0.0 mm 0.00 in0.0 mm 0.06 in1.5 mm
09:49 AM 62.6°F17.0°C 59.3°F15.2°C 89% 0.8 mph SSW1.3 kmh SSW 3.8 mph6.1 kmh 29.91 in1012.9 mb 0.00 in0.0 mm 0.00 in0.0 mm 0.06 in1.5 mm
09:48 AM 62.6°F17.0°C 59.3°F15.2°C 89% 0.5 mph SW0.8 kmh SW 3.8 mph6.1 kmh 29.91 in1012.9 mb 0.00 in0.0 mm 0.00 in0.0 mm 0.06 in1.5 mm
09:47 AM 62.8°F17.1°C 59.5°F15.3°C 89% 0.1 mph S0.2 kmh S 0.7 mph1.1 kmh 29.91 in1012.9 mb 0.00 in0.0 mm 0.00 in0.0 mm 0.06 in1.5 mm
09:46 AM 63.0°F17.2°C 60.0°F15.6°C 90% Calm Calm -- 29.91 in1012.9 mb 0.00 in0.0 mm 0.00 in0.0 mm 0.06 in1.5 mm
09:45 AM 63.0°F17.2°C 60.0°F15.6°C 90% Calm Calm -- 29.91 in1012.9 mb 0.00 in0.0 mm 0.00 in0.0 mm 0.06 in1.5 mm
09:44 AM 63.1°F17.3°C 60.2°F15.7°C 90% Calm Calm 1.6 mph2.6 kmh 29.91 in1012.9 mb 0.00 in0.0 mm 0.00 in0.0 mm 0.06 in1.5 mm
09:43 AM 63.1°F17.3°C 60.5°F15.8°C 91% 0.3 mph S0.5 kmh S 3.1 mph5.0 kmh 29.91 in1012.9 mb 0.00 in0.0 mm 0.00 in0.0 mm 0.06 in1.5 mm
09:42 AM 63.3°F17.4°C 60.7°F15.9°C 91% 0.4 mph S0.6 kmh S 3.1 mph5.0 kmh 29.91 in1012.9 mb 0.00 in0.0 mm 0.00 in0.0 mm 0.06 in1.5 mm
09:41 AM 63.3°F17.4°C 60.7°F15.9°C 91% 0.4 mph S0.6 kmh S 3.1 mph5.0 kmh 29.91 in1012.9 mb 0.00 in0.0 mm 0.00 in0.0 mm 0.06 in1.5 mm
09:40 AM 63.3°F17.4°C 61.0°F16.1°C 92% 0.5 mph S0.8 kmh S 3.1 mph5.0 kmh 29.91 in1012.9 mb 0.00 in0.0 mm 0.00 in0.0 mm 0.06 in1.5 mm
09:39 AM 63.3°F17.4°C 61.0°F16.1°C 92% 0.8 mph S1.3 kmh S 3.8 mph6.1 kmh 29.91 in1012.9 mb 0.00 in0.0 mm 0.00 in0.0 mm 0.06 in1.5 mm
09:38 AM 63.3°F17.4°C 61.0°F16.1°C 92% 1.1 mph S1.8 kmh S 3.8 mph6.1 kmh 29.91 in1012.9 mb 0.00 in0.0 mm 0.00 in0.0 mm 0.06 in1.5 mm
09:37 AM 63.3°F17.4°C 61.3°F16.3°C 93% 1.2 mph SSW1.9 kmh SSW 3.8 mph6.1 kmh 29.91 in1012.9 mb 0.00 in0.0 mm 0.00 in0.0 mm 0.06 in1.5 mm
09:36 AM 63.5°F17.5°C 61.5°F16.4°C 93% 1.2 mph SSW1.9 kmh SSW 3.8 mph6.1 kmh 29.91 in1012.9 mb 0.00 in0.0 mm 0.00 in0.0 mm 0.06 in1.5 mm
09:35 AM 63.3°F17.4°C 61.3°F16.3°C 93% 1.2 mph SSW1.9 kmh SSW 3.8 mph6.1 kmh 29.91 in1012.9 mb 0.00 in0.0 mm 0.00 in0.0 mm 0.06 in1.5 mm
09:34 AM 63.3°F17.4°C 61.6°F16.4°C 94% 1.2 mph SSW1.9 kmh SSW 3.8 mph6.1 kmh 29.91 in1012.9 mb 0.00 in0.0 mm 0.00 in0.0 mm 0.06 in1.5 mm
09:33 AM 63.1°F17.3°C 61.4°F16.3°C 94% 0.9 mph SSW1.4 kmh SSW 3.8 mph6.1 kmh 29.91 in1012.9 mb 0.00 in0.0 mm 0.00 in0.0 mm 0.06 in1.5 mm
09:32 AM 63.1°F17.3°C 61.4°F16.3°C 94% 0.9 mph SSW1.4 kmh SSW 3.8 mph6.1 kmh 29.91 in1012.9 mb 0.00 in0.0 mm 0.00 in0.0 mm 0.06 in1.5 mm
09:31 AM 63.0°F17.2°C 61.5°F16.4°C 95% 1.1 mph SW1.8 kmh SW 3.8 mph6.1 kmh 29.91 in1012.9 mb 0.00 in0.0 mm 0.00 in0.0 mm 0.06 in1.5 mm
09:30 AM 62.8°F17.1°C 61.3°F16.3°C 95% 1.2 mph SW1.9 kmh SW 3.8 mph6.1 kmh 29.91 in1012.9 mb 0.00 in0.0 mm 0.00 in0.0 mm 0.06 in1.5 mm
09:29 AM 62.8°F17.1°C 61.3°F16.3°C 95% 1.1 mph SW1.8 kmh SW 3.8 mph6.1 kmh 29.91 in1012.9 mb 0.00 in0.0 mm 0.00 in0.0 mm 0.06 in1.5 mm
09:28 AM 62.6°F17.0°C 61.2°F16.2°C 95% 1.0 mph SW1.6 kmh SW 3.1 mph5.0 kmh 29.91 in1012.9 mb 0.00 in0.0 mm 0.00 in0.0 mm 0.06 in1.5 mm
09:27 AM 62.2°F16.8°C 61.4°F16.3°C 97% 1.1 mph SW1.8 kmh SW 3.1 mph5.0 kmh 29.91 in1012.9 mb 0.00 in0.0 mm 0.00 in0.0 mm 0.06 in1.5 mm
09:26 AM 62.2°F16.8°C 61.4°F16.3°C 97% 1.4 mph SW2.3 kmh SW 3.1 mph5.0 kmh 29.91 in1012.9 mb 0.00 in0.0 mm 0.00 in0.0 mm 0.06 in1.5 mm
09:25 AM 62.1°F16.7°C 61.2°F16.2°C 97% 1.5 mph SW2.4 kmh SW 3.1 mph5.0 kmh 29.91 in1012.9 mb 0.00 in0.0 mm 0.00 in0.0 mm 0.06 in1.5 mm
09:24 AM 61.7°F16.5°C 60.9°F16.1°C 97% 1.5 mph SW2.4 kmh SW 3.1 mph5.0 kmh 29.91 in1012.9 mb 0.00 in0.0 mm 0.00 in0.0 mm 0.06 in1.5 mm
09:23 AM 61.5°F16.4°C 60.7°F15.9°C 97% 1.6 mph SW2.6 kmh SW 3.1 mph5.0 kmh 29.91 in1012.9 mb 0.00 in0.0 mm 0.00 in0.0 mm 0.06 in1.5 mm
09:22 AM 61.5°F16.4°C 60.7°F15.9°C 97% 1.4 mph SW2.3 kmh SW 3.1 mph5.0 kmh 29.91 in1012.9 mb 0.00 in0.0 mm 0.00 in0.0 mm 0.06 in1.5 mm
09:21 AM 61.3°F16.3°C 60.5°F15.8°C 97% 1.3 mph SSW2.1 kmh SSW 3.1 mph5.0 kmh 29.91 in1012.9 mb 0.00 in0.0 mm 0.00 in0.0 mm 0.06 in1.5 mm
09:20 AM 61.3°F16.3°C 60.5°F15.8°C 97% 1.1 mph SSW1.8 kmh SSW 3.1 mph5.0 kmh 29.91 in1012.9 mb 0.00 in0.0 mm 0.00 in0.0 mm 0.06 in1.5 mm
09:19 AM 61.2°F16.2°C 60.3°F15.7°C 97% 1.2 mph SSW1.9 kmh SSW 3.1 mph5.0 kmh 29.91 in1012.9 mb 0.00 in0.0 mm 0.00 in0.0 mm 0.06 in1.5 mm
09:18 AM 61.2°F16.2°C 60.3°F15.7°C 97% 1.2 mph SW1.9 kmh SW 3.1 mph5.0 kmh 29.91 in1012.9 mb 0.00 in0.0 mm 0.00 in0.0 mm 0.06 in1.5 mm
09:17 AM 61.2°F16.2°C 60.3°F15.7°C 97% 1.3 mph SSW2.1 kmh SSW 3.1 mph5.0 kmh 29.91 in1012.9 mb 0.00 in0.0 mm 0.00 in0.0 mm 0.06 in1.5 mm
09:16 AM 61.2°F16.2°C 60.3°F15.7°C 97% 1.2 mph S1.9 kmh S 3.1 mph5.0 kmh 29.91 in1012.9 mb 0.00 in0.0 mm 0.00 in0.0 mm 0.06 in1.5 mm
09:15 AM 61.2°F16.2°C 60.6°F15.9°C 98% 1.5 mph SSW2.4 kmh SSW 3.8 mph6.1 kmh 29.91 in1012.9 mb 0.00 in0.0 mm 0.00 in0.0 mm 0.06 in1.5 mm
09:14 AM 61.2°F16.2°C 60.6°F15.9°C 98% 1.9 mph S3.1 kmh S 3.8 mph6.1 kmh 29.91 in1012.9 mb 0.00 in0.0 mm 0.00 in0.0 mm 0.06 in1.5 mm
09:13 AM 61.0°F16.1°C 60.4°F15.8°C 98% 2.1 mph SSW3.4 kmh SSW 3.8 mph6.1 kmh 29.91 in1012.9 mb 0.00 in0.0 mm 0.00 in0.0 mm 0.06 in1.5 mm
09:12 AM 61.0°F16.1°C 60.4°F15.8°C 98% 2.5 mph SSW4.0 kmh SSW 4.5 mph7.2 kmh 29.90 in1012.5 mb 0.00 in0.0 mm 0.00 in0.0 mm 0.06 in1.5 mm
09:11 AM 61.0°F16.1°C 60.4°F15.8°C 98% 2.8 mph SSW4.5 kmh SSW 4.5 mph7.2 kmh 29.91 in1012.9 mb 0.00 in0.0 mm 0.00 in0.0 mm 0.06 in1.5 mm
09:10 AM 61.0°F16.1°C 60.4°F15.8°C 98% 2.7 mph SSW4.3 kmh SSW 4.5 mph7.2 kmh 29.90 in1012.5 mb 0.00 in0.0 mm 0.00 in0.0 mm 0.06 in1.5 mm
09:09 AM 61.0°F16.1°C 60.4°F15.8°C 98% 2.6 mph SSW4.2 kmh SSW 4.5 mph7.2 kmh 29.90 in1012.5 mb 0.00 in0.0 mm 0.00 in0.0 mm 0.06 in1.5 mm
09:08 AM 61.0°F16.1°C 60.4°F15.8°C 98% 2.3 mph SSW3.7 kmh SSW 4.5 mph7.2 kmh 29.90 in1012.5 mb 0.00 in0.0 mm 0.00 in0.0 mm 0.06 in1.5 mm
09:07 AM 61.0°F16.1°C 60.4°F15.8°C 98% 2.0 mph SSW3.2 kmh SSW 4.5 mph7.2 kmh 29.90 in1012.5 mb 0.00 in0.0 mm 0.00 in0.0 mm 0.06 in1.5 mm
09:06 AM 61.0°F16.1°C 60.4°F15.8°C 98% 1.7 mph SSW2.7 kmh SSW 4.5 mph7.2 kmh 29.90 in1012.5 mb 0.00 in0.0 mm 0.00 in0.0 mm 0.06 in1.5 mm
09:05 AM 61.0°F16.1°C 60.4°F15.8°C 98% 1.4 mph SW2.3 kmh SW 4.5 mph7.2 kmh 29.90 in1012.5 mb 0.00 in0.0 mm 0.00 in0.0 mm 0.06 in1.5 mm
09:04 AM 61.0°F16.1°C 60.4°F15.8°C 98% 1.0 mph SW1.6 kmh SW 4.5 mph7.2 kmh 29.90 in1012.5 mb 0.00 in0.0 mm 0.00 in0.0 mm 0.06 in1.5 mm
09:03 AM 61.0°F16.1°C 60.4°F15.8°C 98% 0.7 mph SW1.1 kmh SW 4.5 mph7.2 kmh 29.90 in1012.5 mb 0.00 in0.0 mm 0.00 in0.0 mm 0.06 in1.5 mm
09:02 AM 61.0°F16.1°C 60.4°F15.8°C 98% 0.3 mph SW0.5 kmh SW 4.5 mph7.2 kmh 29.90 in1012.5 mb 0.00 in0.0 mm 0.00 in0.0 mm 0.06 in1.5 mm
09:01 AM 61.0°F16.1°C 60.4°F15.8°C 98% Calm Calm -- 29.90 in1012.5 mb 0.00 in0.0 mm 0.00 in0.0 mm 0.06 in1.5 mm
09:00 AM 61.0°F16.1°C 60.4°F15.8°C 98% Calm Calm -- 29.90 in1012.5 mb 0.00 in0.0 mm 0.00 in0.0 mm 0.06 in1.5 mm
08:59 AM 61.0°F16.1°C 60.4°F15.8°C 98% Calm Calm -- 29.90 in1012.5 mb 0.00 in0.0 mm 0.00 in0.0 mm 0.06 in1.5 mm
08:58 AM 60.8°F16.0°C 60.2°F15.7°C 98% Calm Calm -- 29.90 in1012.5 mb 0.00 in0.0 mm 0.00 in0.0 mm 0.06 in1.5 mm
08:57 AM 60.8°F16.0°C 60.2°F15.7°C 98% Calm Calm -- 29.90 in1012.5 mb 0.00 in0.0 mm 0.00 in0.0 mm 0.06 in1.5 mm
08:56 AM 60.6°F15.9°C 60.4°F15.8°C 99% 0.1 mph SE0.2 kmh SE 2.2 mph3.5 kmh 29.90 in1012.5 mb 0.00 in0.0 mm 0.00 in0.0 mm 0.06 in1.5 mm
08:55 AM 60.6°F15.9°C 60.4°F15.8°C 99% 0.3 mph SE0.5 kmh SE 2.2 mph3.5 kmh 29.90 in1012.5 mb 0.00 in0.0 mm 0.00 in0.0 mm 0.06 in1.5 mm
08:54 AM 60.6°F15.9°C 60.4°F15.8°C 99% 0.5 mph SSE0.8 kmh SSE 3.1 mph5.0 kmh 29.90 in1012.5 mb 0.00 in0.0 mm 0.00 in0.0 mm 0.06 in1.5 mm
08:53 AM 60.6°F15.9°C 60.4°F15.8°C 99% 0.6 mph S1.0 kmh S 3.1 mph5.0 kmh 29.90 in1012.5 mb 0.00 in0.0 mm 0.00 in0.0 mm 0.06 in1.5 mm
08:52 AM 60.6°F15.9°C 60.4°F15.8°C 99% 0.9 mph S1.4 kmh S 3.1 mph5.0 kmh 29.90 in1012.5 mb 0.00 in0.0 mm 0.00 in0.0 mm 0.06 in1.5 mm
08:51 AM 60.6°F15.9°C 60.4°F15.8°C 99% 1.2 mph S1.9 kmh S 3.1 mph5.0 kmh 29.90 in1012.5 mb 0.00 in0.0 mm 0.00 in0.0 mm 0.06 in1.5 mm
08:50 AM 60.6°F15.9°C 60.4°F15.8°C 99% 1.4 mph S2.3 kmh S 3.1 mph5.0 kmh 29.90 in1012.5 mb 0.00 in0.0 mm 0.00 in0.0 mm 0.06 in1.5 mm
08:49 AM 60.6°F15.9°C 60.4°F15.8°C 99% 1.6 mph S2.6 kmh S 3.1 mph5.0 kmh 29.90 in1012.5 mb 0.00 in0.0 mm 0.00 in0.0 mm 0.06 in1.5 mm
08:48 AM 60.6°F15.9°C 60.4°F15.8°C 99% 1.9 mph S3.1 kmh S 3.8 mph6.1 kmh 29.90 in1012.5 mb 0.00 in0.0 mm 0.00 in0.0 mm 0.06 in1.5 mm
08:47 AM 60.4°F15.8°C 60.2°F15.7°C 99% 2.1 mph S3.4 kmh S 3.8 mph6.1 kmh 29.90 in1012.5 mb 0.00 in0.0 mm 0.00 in0.0 mm 0.06 in1.5 mm
08:46 AM 60.4°F15.8°C 60.2°F15.7°C 99% 2.3 mph S3.7 kmh S 3.8 mph6.1 kmh 29.90 in1012.5 mb 0.00 in0.0 mm 0.00 in0.0 mm 0.06 in1.5 mm
08:45 AM 60.4°F15.8°C 60.2°F15.7°C 99% 2.1 mph S3.4 kmh S 3.8 mph6.1 kmh 29.90 in1012.5 mb 0.00 in0.0 mm 0.00 in0.0 mm 0.06 in1.5 mm
08:44 AM 60.4°F15.8°C 60.2°F15.7°C 99% 1.9 mph S3.1 kmh S 3.8 mph6.1 kmh 29.90 in1012.5 mb 0.00 in0.0 mm 0.00 in0.0 mm 0.06 in1.5 mm
08:43 AM 60.4°F15.8°C 60.2°F15.7°C 99% 1.8 mph S2.9 kmh S 3.8 mph6.1 kmh 29.90 in1012.5 mb 0.00 in0.0 mm 0.00 in0.0 mm 0.06 in1.5 mm
08:42 AM 60.4°F15.8°C 60.2°F15.7°C 99% 1.5 mph S2.4 kmh S 3.8 mph6.1 kmh 29.90 in1012.5 mb 0.00 in0.0 mm 0.00 in0.0 mm 0.06 in1.5 mm
08:41 AM 60.3°F15.7°C 60.0°F15.6°C 99% 1.2 mph S1.9 kmh S 3.8 mph6.1 kmh 29.90 in1012.5 mb 0.00 in0.0 mm 0.00 in0.0 mm 0.06 in1.5 mm
08:40 AM 60.3°F15.7°C 60.0°F15.6°C 99% 1.0 mph S1.6 kmh S 3.8 mph6.1 kmh 29.90 in1012.5 mb 0.00 in0.0 mm 0.00 in0.0 mm 0.06 in1.5 mm
08:39 AM 60.3°F15.7°C 60.0°F15.6°C 99% 0.8 mph S1.3 kmh S 3.8 mph6.1 kmh 29.90 in1012.5 mb 0.00 in0.0 mm 0.00 in0.0 mm 0.06 in1.5 mm
08:38 AM 60.3°F15.7°C 60.0°F15.6°C 99% 0.5 mph S0.8 kmh S 2.2 mph3.5 kmh 29.90 in1012.5 mb 0.00 in0.0 mm 0.00 in0.0 mm 0.06 in1.5 mm
08:37 AM 60.3°F15.7°C 60.0°F15.6°C 99% 0.3 mph S0.5 kmh S 2.2 mph3.5 kmh 29.90 in1012.5 mb 0.00 in0.0 mm 0.00 in0.0 mm 0.06 in1.5 mm
08:36 AM 60.3°F15.7°C 60.0°F15.6°C 99% Calm Calm 2.2 mph3.5 kmh 29.90 in1012.5 mb 0.00 in0.0 mm 0.00 in0.0 mm 0.06 in1.5 mm
08:35 AM 60.1°F15.6°C 59.8°F15.4°C 99% Calm Calm -- 29.90 in1012.5 mb 0.00 in0.0 mm 0.00 in0.0 mm 0.06 in1.5 mm
08:34 AM 60.1°F15.6°C 59.8°F15.4°C 99% 0.1 mph SW0.2 kmh SW 1.6 mph2.6 kmh 29.89 in1012.2 mb 0.00 in0.0 mm 0.00 in0.0 mm 0.06 in1.5 mm
08:33 AM 60.1°F15.6°C 59.8°F15.4°C 99% 0.3 mph SSW0.5 kmh SSW 2.2 mph3.5 kmh 29.89 in1012.2 mb 0.00 in0.0 mm 0.00 in0.0 mm 0.06 in1.5 mm
08:32 AM 60.1°F15.6°C 59.8°F15.4°C 99% 0.4 mph S0.6 kmh S 2.2 mph3.5 kmh 29.89 in1012.2 mb 0.00 in0.0 mm 0.00 in0.0 mm 0.06 in1.5 mm
08:31 AM 60.1°F15.6°C 59.8°F15.4°C 99% 0.6 mph S1.0 kmh S 3.8 mph6.1 kmh 29.89 in1012.2 mb 0.00 in0.0 mm 0.00 in0.0 mm 0.06 in1.5 mm
08:30 AM 60.1°F15.6°C 59.8°F15.4°C 99% 0.9 mph S1.4 kmh S 3.8 mph6.1 kmh 29.89 in1012.2 mb 0.00 in0.0 mm 0.00 in0.0 mm 0.06 in1.5 mm
08:29 AM 60.1°F15.6°C 59.8°F15.4°C 99% 1.1 mph S1.8 kmh S 3.8 mph6.1 kmh 29.89 in1012.2 mb 0.00 in0.0 mm 0.00 in0.0 mm 0.06 in1.5 mm
08:28 AM 60.1°F15.6°C 59.8°F15.4°C 99% 1.4 mph S2.3 kmh S 3.8 mph6.1 kmh 29.89 in1012.2 mb 0.00 in0.0 mm 0.00 in0.0 mm 0.06 in1.5 mm
08:27 AM 59.9°F15.5°C 59.6°F15.3°C 99% 1.4 mph S2.3 kmh S 3.8 mph6.1 kmh 29.89 in1012.2 mb 0.00 in0.0 mm 0.00 in0.0 mm 0.06 in1.5 mm
08:26 AM 59.9°F15.5°C 59.6°F15.3°C 99% 1.4 mph S2.3 kmh S 3.8 mph6.1 kmh 29.89 in1012.2 mb 0.00 in0.0 mm 0.00 in0.0 mm 0.06 in1.5 mm
08:25 AM 59.9°F15.5°C 59.6°F15.3°C 99% 1.4 mph S2.3 kmh S 3.8 mph6.1 kmh 29.89 in1012.2 mb 0.00 in0.0 mm 0.00 in0.0 mm 0.06 in1.5 mm
08:24 AM 59.9°F15.5°C 59.6°F15.3°C 99% 1.3 mph S2.1 kmh S 3.8 mph6.1 kmh 29.89 in1012.2 mb 0.00 in0.0 mm 0.00 in0.0 mm 0.06 in1.5 mm
08:23 AM 59.9°F15.5°C 59.6°F15.3°C 99% 1.1 mph S1.8 kmh S 3.8 mph6.1 kmh 29.89 in1012.2 mb 0.00 in0.0 mm 0.00 in0.0 mm 0.06 in1.5 mm
08:22 AM 59.9°F15.5°C 59.6°F15.3°C 99% 1.0 mph S1.6 kmh S 3.8 mph6.1 kmh 29.89 in1012.2 mb 0.00 in0.0 mm 0.00 in0.0 mm 0.06 in1.5 mm
08:21 AM 59.7°F15.4°C 59.5°F15.3°C 99% 0.9 mph S1.4 kmh S 3.8 mph6.1 kmh 29.89 in1012.2 mb 0.00 in0.0 mm 0.00 in0.0 mm 0.06 in1.5 mm
08:20 AM 59.7°F15.4°C 59.5°F15.3°C 99% 0.5 mph S0.8 kmh S 3.8 mph6.1 kmh 29.89 in1012.2 mb 0.00 in0.0 mm 0.00 in0.0 mm 0.06 in1.5 mm
08:19 AM 59.7°F15.4°C 59.5°F15.3°C 99% 0.3 mph S0.5 kmh S 3.8 mph6.1 kmh 29.89 in1012.2 mb 0.00 in0.0 mm 0.00 in0.0 mm 0.06 in1.5 mm
08:18 AM 59.7°F15.4°C 59.5°F15.3°C 99% Calm Calm -- 29.89 in1012.2 mb 0.00 in0.0 mm 0.00 in0.0 mm 0.06 in1.5 mm
08:17 AM 59.7°F15.4°C 59.5°F15.3°C 99% Calm Calm -- 29.89 in1012.2 mb 0.00 in0.0 mm 0.00 in0.0 mm 0.06 in1.5 mm
08:16 AM 59.7°F15.4°C 59.5°F15.3°C 99% Calm Calm 0.7 mph1.1 kmh 29.89 in1012.2 mb 0.00 in0.0 mm 0.00 in0.0 mm 0.06 in1.5 mm
08:15 AM 59.7°F15.4°C 59.5°F15.3°C 99% 0.1 mph SE0.2 kmh SE 0.7 mph1.1 kmh 29.89 in1012.2 mb 0.00 in0.0 mm 0.00 in0.0 mm 0.06 in1.5 mm
08:14 AM 59.5°F15.3°C 59.3°F15.2°C 99% Calm Calm 0.7 mph1.1 kmh 29.89 in1012.2 mb 0.00 in0.0 mm 0.00 in0.0 mm 0.06 in1.5 mm
08:13 AM 59.5°F15.3°C 59.3°F15.2°C 99% 0.1 mph SE0.2 kmh SE 0.7 mph1.1 kmh 29.89 in1012.2 mb 0.00 in0.0 mm 0.00 in0.0 mm 0.06 in1.5 mm
08:12 AM 59.5°F15.3°C 59.3°F15.2°C 99% 0.1 mph SE0.2 kmh SE 0.7 mph1.1 kmh 29.89 in1012.2 mb 0.00 in0.0 mm 0.00 in0.0 mm 0.06 in1.5 mm
08:11 AM 59.5°F15.3°C 59.3°F15.2°C 99% Calm Calm 0.7 mph1.1 kmh 29.89 in1012.2 mb 0.00 in0.0 mm 0.00 in0.0 mm 0.06 in1.5 mm
08:10 AM 59.5°F15.3°C 59.3°F15.2°C 99% Calm Calm 0.7 mph1.1 kmh 29.89 in1012.2 mb 0.00 in0.0 mm 0.00 in0.0 mm 0.06 in1.5 mm
08:09 AM 59.5°F15.3°C 59.3°F15.2°C 99% 0.1 mph SE0.2 kmh SE 0.7 mph1.1 kmh 29.89 in1012.2 mb 0.00 in0.0 mm 0.00 in0.0 mm 0.06 in1.5 mm
08:08 AM 59.5°F15.3°C 59.3°F15.2°C 99% Calm Calm 0.7 mph1.1 kmh 29.89 in1012.2 mb 0.00 in0.0 mm 0.00 in0.0 mm 0.06 in1.5 mm
08:07 AM 59.5°F15.3°C 59.3°F15.2°C 99% Calm Calm 0.7 mph1.1 kmh 29.89 in1012.2 mb 0.00 in0.0 mm 0.00 in0.0 mm 0.06 in1.5 mm
08:06 AM 59.5°F15.3°C 59.3°F15.2°C 99% 0.1 mph S0.2 kmh S 1.6 mph2.6 kmh 29.89 in1012.2 mb 0.00 in0.0 mm 0.00 in0.0 mm 0.06 in1.5 mm
08:05 AM 59.5°F15.3°C 59.3°F15.2°C 99% 0.2 mph S0.3 kmh S 1.6 mph2.6 kmh 29.89 in1012.2 mb 0.00 in0.0 mm 0.00 in0.0 mm 0.06 in1.5 mm
08:04 AM 59.5°F15.3°C 59.3°F15.2°C 99% 0.2 mph S0.3 kmh S 1.6 mph2.6 kmh 29.89 in1012.2 mb 0.00 in0.0 mm 0.00 in0.0 mm 0.06 in1.5 mm
08:03 AM 59.5°F15.3°C 59.3°F15.2°C 99% 0.2 mph S0.3 kmh S 1.6 mph2.6 kmh 29.89 in1012.2 mb 0.00 in0.0 mm 0.00 in0.0 mm 0.06 in1.5 mm
08:02 AM 59.5°F15.3°C 59.3°F15.2°C 99% 0.2 mph S0.3 kmh S 1.6 mph2.6 kmh 29.89 in1012.2 mb 0.00 in0.0 mm 0.00 in0.0 mm 0.06 in1.5 mm
08:01 AM 59.5°F15.3°C 59.3°F15.2°C 99% 0.2 mph S0.3 kmh S 1.6 mph2.6 kmh 29.88 in1011.9 mb 0.00 in0.0 mm 0.00 in0.0 mm 0.06 in1.5 mm
08:00 AM 59.5°F15.3°C 59.3°F15.2°C 99% 0.2 mph S0.3 kmh S 1.6 mph2.6 kmh 29.89 in1012.2 mb 0.00 in0.0 mm 0.00 in0.0 mm 0.06 in1.5 mm
07:59 AM 59.5°F15.3°C 59.3°F15.2°C 99% 0.2 mph S0.3 kmh S 1.6 mph2.6 kmh 29.88 in1011.9 mb 0.00 in0.0 mm 0.00 in0.0 mm 0.06 in1.5 mm
07:58 AM 59.5°F15.3°C 59.3°F15.2°C 99% 0.2 mph S0.3 kmh S 1.6 mph2.6 kmh 29.88 in1011.9 mb 0.00 in0.0 mm 0.00 in0.0 mm 0.06 in1.5 mm
07:57 AM 59.5°F15.3°C 59.3°F15.2°C 99% 0.2 mph S0.3 kmh S 1.6 mph2.6 kmh 29.88 in1011.9 mb 0.00 in0.0 mm 0.00 in0.0 mm 0.06 in1.5 mm
07:56 AM 59.5°F15.3°C 59.3°F15.2°C 99% 0.1 mph S0.2 kmh S 1.6 mph2.6 kmh 29.88 in1011.9 mb 0.00 in0.0 mm 0.00 in0.0 mm 0.06 in1.5 mm
07:55 AM 59.5°F15.3°C 59.3°F15.2°C 99% 0.2 mph SW0.3 kmh SW 1.6 mph2.6 kmh 29.88 in1011.9 mb 0.00 in0.0 mm 0.00 in0.0 mm 0.06 in1.5 mm
07:54 AM 59.5°F15.3°C 59.3°F15.2°C 99% 0.3 mph SW0.5 kmh SW 1.6 mph2.6 kmh 29.88 in1011.9 mb 0.00 in0.0 mm 0.00 in0.0 mm 0.06 in1.5 mm
07:53 AM 59.7°F15.4°C 59.5°F15.3°C 99% 0.3 mph SW0.5 kmh SW 1.6 mph2.6 kmh 29.88 in1011.9 mb 0.00 in0.0 mm 0.00 in0.0 mm 0.06 in1.5 mm
07:52 AM 59.4°F15.2°C 59.1°F15.1°C 99% 0.3 mph SW0.5 kmh SW 1.6 mph2.6 kmh 29.88 in1011.9 mb 0.00 in0.0 mm 0.00 in0.0 mm 0.06 in1.5 mm
07:51 AM 59.4°F15.2°C 59.1°F15.1°C 99% 0.3 mph SW0.5 kmh SW 1.6 mph2.6 kmh 29.88 in1011.9 mb 0.00 in0.0 mm 0.00 in0.0 mm 0.06 in1.5 mm
07:50 AM 59.4°F15.2°C 59.1°F15.1°C 99% 0.3 mph SW0.5 kmh SW 1.6 mph2.6 kmh 29.88 in1011.9 mb 0.00 in0.0 mm 0.00 in0.0 mm 0.06 in1.5 mm
07:49 AM 59.7°F15.4°C 59.5°F15.3°C 99% 0.3 mph SW0.5 kmh SW 1.6 mph2.6 kmh 29.87 in1011.5 mb 0.00 in0.0 mm 0.00 in0.0 mm 0.06 in1.5 mm
07:48 AM 59.4°F15.2°C 59.1°F15.1°C 99% 0.3 mph SW0.5 kmh SW 1.6 mph2.6 kmh 29.87 in1011.5 mb 0.00 in0.0 mm 0.00 in0.0 mm 0.06 in1.5 mm
07:47 AM 59.4°F15.2°C 59.1°F15.1°C 99% 0.3 mph SW0.5 kmh SW 1.6 mph2.6 kmh 29.88 in1011.9 mb 0.00 in0.0 mm 0.00 in0.0 mm 0.06 in1.5 mm
07:46 AM 59.4°F15.2°C 59.1°F15.1°C 99% 0.3 mph SW0.5 kmh SW 1.6 mph2.6 kmh 29.88 in1011.9 mb 0.00 in0.0 mm 0.00 in0.0 mm 0.06 in1.5 mm
07:45 AM 59.5°F15.3°C 59.3°F15.2°C 99% 0.1 mph SSW0.2 kmh SSW 1.6 mph2.6 kmh 29.88 in1011.9 mb 0.00 in0.0 mm 0.00 in0.0 mm 0.06 in1.5 mm
07:44 AM 59.4°F15.2°C 59.1°F15.1°C 99% 0.1 mph SE0.2 kmh SE 0.7 mph1.1 kmh 29.88 in1011.9 mb 0.00 in0.0 mm 0.00 in0.0 mm 0.06 in1.5 mm
07:43 AM 59.4°F15.2°C 59.1°F15.1°C 99% Calm Calm 0.7 mph1.1 kmh 29.87 in1011.5 mb 0.00 in0.0 mm 0.00 in0.0 mm 0.06 in1.5 mm
07:42 AM 59.4°F15.2°C 59.1°F15.1°C 99% 0.1 mph SE0.2 kmh SE 0.7 mph1.1 kmh 29.88 in1011.9 mb 0.00 in0.0 mm 0.00 in0.0 mm 0.06 in1.5 mm
07:41 AM 59.4°F15.2°C 59.1°F15.1°C 99% 0.1 mph SE0.2 kmh SE 0.7 mph1.1 kmh 29.88 in1011.9 mb 0.00 in0.0 mm 0.00 in0.0 mm 0.06 in1.5 mm
07:40 AM 59.4°F15.2°C 59.1°F15.1°C 99% 0.1 mph SE0.2 kmh SE 0.7 mph1.1 kmh 29.88 in1011.9 mb 0.00 in0.0 mm 0.00 in0.0 mm 0.06 in1.5 mm
07:39 AM 59.4°F15.2°C 59.1°F15.1°C 99% Calm Calm 0.7 mph1.1 kmh 29.88 in1011.9 mb 0.00 in0.0 mm 0.00 in0.0 mm 0.06 in1.5 mm
07:38 AM 59.4°F15.2°C 59.1°F15.1°C 99% 0.1 mph SE0.2 kmh SE 0.7 mph1.1 kmh 29.88 in1011.9 mb 0.00 in0.0 mm 0.00 in0.0 mm 0.06 in1.5 mm
07:37 AM 59.4°F15.2°C 59.1°F15.1°C 99% Calm Calm 0.7 mph1.1 kmh 29.88 in1011.9 mb 0.00 in0.0 mm 0.00 in0.0 mm 0.06 in1.5 mm
07:36 AM 59.4°F15.2°C 59.1°F15.1°C 99% Calm Calm -- 29.88 in1011.9 mb 0.00 in0.0 mm 0.00 in0.0 mm 0.06 in1.5 mm
07:35 AM 59.2°F15.1°C 58.9°F14.9°C 99% Calm Calm -- 29.88 in1011.9 mb 0.00 in0.0 mm 0.00 in0.0 mm 0.06 in1.5 mm
07:34 AM 59.2°F15.1°C 58.9°F14.9°C 99% Calm Calm -- 29.88 in1011.9 mb 0.00 in0.0 mm 0.00 in0.0 mm 0.06 in1.5 mm
07:33 AM 59.2°F15.1°C 58.9°F14.9°C 99% Calm Calm -- 29.88 in1011.9 mb 0.00 in0.0 mm 0.00 in0.0 mm 0.06 in1.5 mm
07:32 AM 59.2°F15.1°C 58.9°F14.9°C 99% Calm Calm -- 29.88 in1011.9 mb 0.00 in0.0 mm 0.00 in0.0 mm 0.06 in1.5 mm
07:31 AM 59.2°F15.1°C 58.9°F14.9°C 99% Calm Calm -- 29.88 in1011.9 mb 0.00 in0.0 mm 0.00 in0.0 mm 0.06 in1.5 mm
07:30 AM 59.2°F15.1°C 58.9°F14.9°C 99% Calm Calm -- 29.88 in1011.9 mb 0.00 in0.0 mm 0.00 in0.0 mm 0.06 in1.5 mm
07:29 AM 59.2°F15.1°C 58.9°F14.9°C 99% Calm Calm -- 29.88 in1011.9 mb 0.00 in0.0 mm 0.00 in0.0 mm 0.06 in1.5 mm
07:28 AM 59.2°F15.1°C 58.9°F14.9°C 99% Calm Calm -- 29.88 in1011.9 mb 0.00 in0.0 mm 0.00 in0.0 mm 0.06 in1.5 mm
07:27 AM 59.2°F15.1°C 58.9°F14.9°C 99% Calm Calm -- 29.88 in1011.9 mb 0.00 in0.0 mm 0.00 in0.0 mm 0.06 in1.5 mm
07:26 AM 59.2°F15.1°C 58.9°F14.9°C 99% Calm Calm -- 29.88 in1011.9 mb 0.00 in0.0 mm 0.00 in0.0 mm 0.06 in1.5 mm
07:25 AM 59.2°F15.1°C 58.9°F14.9°C 99% Calm Calm -- 29.88 in1011.9 mb 0.00 in0.0 mm 0.00 in0.0 mm 0.06 in1.5 mm
07:24 AM 59.2°F15.1°C 58.9°F14.9°C 99% Calm Calm -- 29.88 in1011.9 mb 0.00 in0.0 mm 0.00 in0.0 mm 0.06 in1.5 mm
07:23 AM 59.2°F15.1°C 58.9°F14.9°C 99% Calm Calm 0.7 mph1.1 kmh 29.88 in1011.9 mb 0.00 in0.0 mm 0.00 in0.0 mm 0.06 in1.5 mm
07:22 AM 59.2°F15.1°C 58.9°F14.9°C 99% 0.2 mph S0.3 kmh S 2.2 mph3.5 kmh 29.87 in1011.5 mb 0.00 in0.0 mm 0.00 in0.0 mm 0.06 in1.5 mm
07:21 AM 59.2°F15.1°C 58.9°F14.9°C 99% 0.2 mph S0.3 kmh S 2.2 mph3.5 kmh 29.87 in1011.5 mb 0.00 in0.0 mm 0.00 in0.0 mm 0.06 in1.5 mm
07:20 AM 59.2°F15.1°C 58.9°F14.9°C 99% 0.2 mph S0.3 kmh S 2.2 mph3.5 kmh 29.87 in1011.5 mb 0.00 in0.0 mm 0.00 in0.0 mm 0.06 in1.5 mm
07:19 AM 59.2°F15.1°C 58.9°F14.9°C 99% 0.2 mph S0.3 kmh S 2.2 mph3.5 kmh 29.87 in1011.5 mb 0.00 in0.0 mm 0.00 in0.0 mm 0.06 in1.5 mm
07:18 AM 59.2°F15.1°C 58.9°F14.9°C 99% 0.2 mph S0.3 kmh S 2.2 mph3.5 kmh 29.87 in1011.5 mb 0.00 in0.0 mm 0.00 in0.0 mm 0.06 in1.5 mm
07:17 AM 59.2°F15.1°C 58.9°F14.9°C 99% 0.2 mph S0.3 kmh S 2.2 mph3.5 kmh 29.87 in1011.5 mb 0.00 in0.0 mm 0.00 in0.0 mm 0.06 in1.5 mm
07:16 AM 59.2°F15.1°C 58.9°F14.9°C 99% 0.6 mph S1.0 kmh S 3.1 mph5.0 kmh 29.87 in1011.5 mb 0.00 in0.0 mm 0.00 in0.0 mm 0.06 in1.5 mm
07:15 AM 59.2°F15.1°C 58.9°F14.9°C 99% 0.9 mph S1.4 kmh S 3.1 mph5.0 kmh 29.87 in1011.5 mb 0.00 in0.0 mm 0.00 in0.0 mm 0.06 in1.5 mm
07:14 AM 59.2°F15.1°C 58.9°F14.9°C 99% 1.1 mph S1.8 kmh S 3.1 mph5.0 kmh 29.87 in1011.5 mb 0.00 in0.0 mm 0.00 in0.0 mm 0.06 in1.5 mm
07:13 AM 59.2°F15.1°C 58.9°F14.9°C 99% 1.4 mph S2.3 kmh S 3.1 mph5.0 kmh 29.87 in1011.5 mb 0.00 in0.0 mm 0.00 in0.0 mm 0.06 in1.5 mm
07:12 AM 59.2°F15.1°C 58.9°F14.9°C 99% 1.5 mph S2.4 kmh S 3.1 mph5.0 kmh 29.87 in1011.5 mb 0.00 in0.0 mm 0.00 in0.0 mm 0.06 in1.5 mm
07:11 AM 59.2°F15.1°C 58.9°F14.9°C 99% 1.8 mph S2.9 kmh S 3.1 mph5.0 kmh 29.87 in1011.5 mb 0.00 in0.0 mm 0.00 in0.0 mm 0.06 in1.5 mm
07:10 AM 59.0°F15.0°C 58.7°F14.8°C 99% 2.1 mph S3.4 kmh S 3.1 mph5.0 kmh 29.87 in1011.5 mb 0.00 in0.0 mm 0.00 in0.0 mm 0.06 in1.5 mm
07:09 AM 59.2°F15.1°C 58.9°F14.9°C 99% 2.4 mph S3.9 kmh S 3.1 mph5.0 kmh 29.87 in1011.5 mb 0.00 in0.0 mm 0.00 in0.0 mm 0.06 in1.5 mm
07:08 AM 59.0°F15.0°C 58.7°F14.8°C 99% 2.7 mph S4.3 kmh S 3.1 mph5.0 kmh 29.87 in1011.5 mb 0.00 in0.0 mm 0.00 in0.0 mm 0.06 in1.5 mm
07:07 AM 59.0°F15.0°C 58.7°F14.8°C 99% 2.9 mph S4.7 kmh S 3.1 mph5.0 kmh 29.87 in1011.5 mb 0.00 in0.0 mm 0.00 in0.0 mm 0.06 in1.5 mm
07:06 AM 59.0°F15.0°C 58.7°F14.8°C 99% 2.7 mph S4.3 kmh S 3.1 mph5.0 kmh 29.87 in1011.5 mb 0.00 in0.0 mm 0.00 in0.0 mm 0.06 in1.5 mm
07:05 AM 59.0°F15.0°C 58.7°F14.8°C 99% 2.4 mph S3.9 kmh S 3.1 mph5.0 kmh 29.87 in1011.5 mb 0.00 in0.0 mm 0.00 in0.0 mm 0.06 in1.5 mm
07:04 AM 59.0°F15.0°C 58.7°F14.8°C 99% 2.0 mph S3.2 kmh S 3.1 mph5.0 kmh 29.87 in1011.5 mb 0.00 in0.0 mm 0.00 in0.0 mm 0.06 in1.5 mm
07:03 AM 59.0°F15.0°C 58.7°F14.8°C 99% 1.7 mph S2.7 kmh S 3.1 mph5.0 kmh 29.87 in1011.5 mb 0.00 in0.0 mm 0.00 in0.0 mm 0.06 in1.5 mm
07:02 AM 59.0°F15.0°C 58.7°F14.8°C 99% 1.4 mph S2.3 kmh S 3.1 mph5.0 kmh 29.87 in1011.5 mb 0.00 in0.0 mm 0.00 in0.0 mm 0.06 in1.5 mm
07:01 AM 59.0°F15.0°C 58.7°F14.8°C 99% 1.1 mph S1.8 kmh S 3.1 mph5.0 kmh 29.87 in1011.5 mb 0.00 in0.0 mm 0.00 in0.0 mm 0.06 in1.5 mm
07:00 AM 59.0°F15.0°C 58.7°F14.8°C 99% 0.8 mph SSW1.3 kmh SSW 3.1 mph5.0 kmh 29.87 in1011.5 mb 0.00 in0.0 mm 0.00 in0.0 mm 0.06 in1.5 mm
06:59 AM 59.0°F15.0°C 58.7°F14.8°C 99% 0.7 mph SSW1.1 kmh SSW 3.1 mph5.0 kmh 29.87 in1011.5 mb 0.00 in0.0 mm 0.00 in0.0 mm 0.06 in1.5 mm
06:58 AM 59.0°F15.0°C 58.7°F14.8°C 99% 0.6 mph S1.0 kmh S 3.1 mph5.0 kmh 29.87 in1011.5 mb 0.00 in0.0 mm 0.00 in0.0 mm 0.06 in1.5 mm
06:57 AM 59.0°F15.0°C 58.7°F14.8°C 99% 0.7 mph S1.1 kmh S 3.1 mph5.0 kmh 29.87 in1011.5 mb 0.00 in0.0 mm 0.00 in0.0 mm 0.06 in1.5 mm
06:56 AM 59.0°F15.0°C 58.7°F14.8°C 99% 1.0 mph S1.6 kmh S 3.1 mph5.0 kmh 29.87 in1011.5 mb 0.00 in0.0 mm 0.00 in0.0 mm 0.06 in1.5 mm
06:55 AM 59.0°F15.0°C 58.7°F14.8°C 99% 1.2 mph S1.9 kmh S 3.1 mph5.0 kmh 29.87 in1011.5 mb 0.00 in0.0 mm 0.00 in0.0 mm 0.06 in1.5 mm
06:54 AM 59.0°F15.0°C 58.7°F14.8°C 99% 1.4 mph S2.3 kmh S 3.1 mph5.0 kmh 29.87 in1011.5 mb 0.00 in0.0 mm 0.00 in0.0 mm 0.06 in1.5 mm
06:53 AM 59.0°F15.0°C 58.7°F14.8°C 99% 1.4 mph S2.3 kmh S 3.1 mph5.0 kmh 29.87 in1011.5 mb 0.00 in0.0 mm 0.00 in0.0 mm 0.06 in1.5 mm
06:52 AM 59.0°F15.0°C 58.7°F14.8°C 99% 1.4 mph S2.3 kmh S 3.1 mph5.0 kmh 29.87 in1011.5 mb 0.00 in0.0 mm 0.00 in0.0 mm 0.06 in1.5 mm
06:51 AM 59.0°F15.0°C 58.7°F14.8°C 99% 1.6 mph S2.6 kmh S 3.1 mph5.0 kmh 29.87 in1011.5 mb 0.00 in0.0 mm 0.00 in0.0 mm 0.06 in1.5 mm
06:50 AM 59.0°F15.0°C 58.7°F14.8°C 99% 1.8 mph S2.9 kmh S 3.1 mph5.0 kmh 29.87 in1011.5 mb 0.00 in0.0 mm 0.00 in0.0 mm 0.06 in1.5 mm
06:49 AM 59.0°F15.0°C 58.7°F14.8°C 99% 1.9 mph S3.1 kmh S 3.1 mph5.0 kmh 29.87 in1011.5 mb 0.00 in0.0 mm 0.00 in0.0 mm 0.06 in1.5 mm
06:48 AM 59.0°F15.0°C 58.7°F14.8°C 99% 1.8 mph S2.9 kmh S 3.1 mph5.0 kmh 29.87 in1011.5 mb 0.00 in0.0 mm 0.00 in0.0 mm 0.06 in1.5 mm
06:47 AM 59.0°F15.0°C 58.7°F14.8°C 99% 1.8 mph SSW2.9 kmh SSW 3.1 mph5.0 kmh 29.86 in1011.2 mb 0.00 in0.0 mm 0.00 in0.0 mm 0.06 in1.5 mm
06:46 AM 59.0°F15.0°C 58.7°F14.8°C 99% 1.7 mph SSW2.7 kmh SSW 3.1 mph5.0 kmh 29.87 in1011.5 mb 0.00 in0.0 mm 0.00 in0.0 mm 0.06 in1.5 mm
06:45 AM 59.0°F15.0°C 58.7°F14.8°C 99% 1.5 mph SSW2.4 kmh SSW 3.1 mph5.0 kmh 29.87 in1011.5 mb 0.00 in0.0 mm 0.00 in0.0 mm 0.06 in1.5 mm
06:44 AM 59.0°F15.0°C 58.7°F14.8°C 99% 1.3 mph S2.1 kmh S 3.1 mph5.0 kmh 29.87 in1011.5 mb 0.00 in0.0 mm 0.00 in0.0 mm 0.06 in1.5 mm
06:43 AM 59.0°F15.0°C 58.7°F14.8°C 99% 1.3 mph S2.1 kmh S 3.1 mph5.0 kmh 29.86 in1011.2 mb 0.00 in0.0 mm 0.00 in0.0 mm 0.06 in1.5 mm
06:42 AM 59.0°F15.0°C 58.7°F14.8°C 99% 1.3 mph SSW2.1 kmh SSW 3.1 mph5.0 kmh 29.87 in1011.5 mb 0.00 in0.0 mm 0.00 in0.0 mm 0.06 in1.5 mm
06:41 AM 59.0°F15.0°C 58.7°F14.8°C 99% 1.1 mph SSW1.8 kmh SSW 3.1 mph5.0 kmh 29.86 in1011.2 mb 0.00 in0.0 mm 0.00 in0.0 mm 0.06 in1.5 mm
06:40 AM 59.0°F15.0°C 58.7°F14.8°C 99% 0.9 mph SSW1.4 kmh SSW 3.1 mph5.0 kmh 29.87 in1011.5 mb 0.00 in0.0 mm 0.00 in0.0 mm 0.06 in1.5 mm
06:39 AM 59.0°F15.0°C 58.7°F14.8°C 99% 0.7 mph S1.1 kmh S 3.1 mph5.0 kmh 29.86 in1011.2 mb 0.00 in0.0 mm 0.00 in0.0 mm 0.06 in1.5 mm
06:38 AM 59.0°F15.0°C 58.7°F14.8°C 99% 0.5 mph S0.8 kmh S 3.1 mph5.0 kmh 29.86 in1011.2 mb 0.00 in0.0 mm 0.00 in0.0 mm 0.06 in1.5 mm
06:37 AM 59.0°F15.0°C 58.7°F14.8°C 99% 0.2 mph S0.3 kmh S 3.1 mph5.0 kmh 29.86 in1011.2 mb 0.00 in0.0 mm 0.00 in0.0 mm 0.06 in1.5 mm
06:36 AM 59.0°F15.0°C 58.7°F14.8°C 99% Calm Calm 0.7 mph1.1 kmh 29.86 in1011.2 mb 0.00 in0.0 mm 0.00 in0.0 mm 0.06 in1.5 mm
06:35 AM 59.0°F15.0°C 58.7°F14.8°C 99% Calm Calm -- 29.86 in1011.2 mb 0.00 in0.0 mm 0.00 in0.0 mm 0.06 in1.5 mm
06:34 AM 59.0°F15.0°C 58.7°F14.8°C 99% Calm Calm -- 29.86 in1011.2 mb 0.00 in0.0 mm 0.00 in0.0 mm 0.06 in1.5 mm
06:33 AM 59.0°F15.0°C 58.7°F14.8°C 99% Calm Calm -- 29.86 in1011.2 mb 0.00 in0.0 mm 0.00 in0.0 mm 0.06 in1.5 mm
06:32 AM 59.0°F15.0°C 58.7°F14.8°C 99% Calm Calm -- 29.86 in1011.2 mb 0.00 in0.0 mm 0.00 in0.0 mm 0.06 in1.5 mm
06:31 AM 59.0°F15.0°C 58.7°F14.8°C 99% Calm Calm -- 29.86 in1011.2 mb 0.00 in0.0 mm 0.00 in0.0 mm 0.06 in1.5 mm
06:30 AM 59.0°F15.0°C 58.7°F14.8°C 99% Calm Calm -- 29.86 in1011.2 mb 0.00 in0.0 mm 0.00 in0.0 mm 0.06 in1.5 mm
06:29 AM 59.0°F15.0°C 58.7°F14.8°C 99% Calm Calm -- 29.85 in1010.8 mb 0.00 in0.0 mm 0.00 in0.0 mm 0.06 in1.5 mm
06:28 AM 59.0°F15.0°C 58.7°F14.8°C 99% Calm Calm -- 29.86 in1011.2 mb 0.00 in0.0 mm 0.00 in0.0 mm 0.06 in1.5 mm
06:27 AM 59.0°F15.0°C 58.7°F14.8°C 99% Calm Calm -- 29.86 in1011.2 mb 0.00 in0.0 mm 0.00 in0.0 mm 0.06 in1.5 mm
06:26 AM 59.0°F15.0°C 58.7°F14.8°C 99% Calm Calm 0.7 mph1.1 kmh 29.86 in1011.2 mb 0.00 in0.0 mm 0.00 in0.0 mm 0.06 in1.5 mm
06:25 AM 59.0°F15.0°C 58.7°F14.8°C 99% Calm Calm 0.7 mph1.1 kmh 29.86 in1011.2 mb 0.00 in0.0 mm 0.00 in0.0 mm 0.06 in1.5 mm
06:24 AM 59.0°F15.0°C 58.7°F14.8°C 99% Calm Calm 0.7 mph1.1 kmh 29.86 in1011.2 mb 0.00 in0.0 mm 0.00 in0.0 mm 0.06 in1.5 mm
06:23 AM 59.0°F15.0°C 58.7°F14.8°C 99% Calm Calm 0.7 mph1.1 kmh 29.86 in1011.2 mb 0.00 in0.0 mm 0.00 in0.0 mm 0.06 in1.5 mm
06:22 AM 59.0°F15.0°C 58.7°F14.8°C 99% Calm Calm 0.7 mph1.1 kmh 29.86 in1011.2 mb 0.00 in0.0 mm 0.00 in0.0 mm 0.06 in1.5 mm
06:21 AM 59.0°F15.0°C 58.7°F14.8°C 99% Calm Calm 0.7 mph1.1 kmh 29.86 in1011.2 mb 0.00 in0.0 mm 0.00 in0.0 mm 0.06 in1.5 mm
06:20 AM 59.0°F15.0°C 58.7°F14.8°C 99% Calm Calm 0.7 mph1.1 kmh 29.86 in1011.2 mb 0.00 in0.0 mm 0.00 in0.0 mm 0.06 in1.5 mm
06:19 AM 59.0°F15.0°C 58.7°F14.8°C 99% Calm Calm 0.7 mph1.1 kmh 29.85 in1010.8 mb 0.00 in0.0 mm 0.00 in0.0 mm 0.06 in1.5 mm
06:18 AM 59.0°F15.0°C 58.7°F14.8°C 99% Calm Calm 0.7 mph1.1 kmh 29.86 in1011.2 mb 0.00 in0.0 mm 0.00 in0.0 mm 0.06 in1.5 mm
06:17 AM 59.0°F15.0°C 58.7°F14.8°C 99% Calm Calm 0.7 mph1.1 kmh 29.85 in1010.8 mb 0.00 in0.0 mm 0.00 in0.0 mm 0.06 in1.5 mm
06:16 AM 59.0°F15.0°C 58.7°F14.8°C 99% Calm Calm 0.7 mph1.1 kmh 29.86 in1011.2 mb 0.00 in0.0 mm 0.00 in0.0 mm 0.06 in1.5 mm
06:15 AM 59.0°F15.0°C 58.7°F14.8°C 99% Calm Calm -- 29.85 in1010.8 mb 0.00 in0.0 mm 0.00 in0.0 mm 0.06 in1.5 mm
06:14 AM 59.0°F15.0°C 58.7°F14.8°C 99% Calm Calm -- 29.86 in1011.2 mb 0.00 in0.0 mm 0.00 in0.0 mm 0.06 in1.5 mm
06:13 AM 59.0°F15.0°C 58.7°F14.8°C 99% Calm Calm -- 29.86 in1011.2 mb 0.00 in0.0 mm 0.00 in0.0 mm 0.06 in1.5 mm
06:12 AM 59.0°F15.0°C 58.7°F14.8°C 99% Calm Calm -- 29.85 in1010.8 mb 0.02 in0.5 mm 0.00 in0.0 mm 0.06 in1.5 mm
06:11 AM 59.0°F15.0°C 58.7°F14.8°C 99% Calm Calm -- 29.85 in1010.8 mb 0.02 in0.5 mm 0.00 in0.0 mm 0.06 in1.5 mm
06:10 AM 59.0°F15.0°C 58.7°F14.8°C 99% Calm Calm -- 29.85 in1010.8 mb 0.02 in0.5 mm 0.00 in0.0 mm 0.06 in1.5 mm
06:09 AM 59.0°F15.0°C 58.7°F14.8°C 99% Calm Calm -- 29.85 in1010.8 mb 0.02 in0.5 mm 0.00 in0.0 mm 0.06 in1.5 mm
06:08 AM 59.0°F15.0°C 58.7°F14.8°C 99% Calm Calm -- 29.85 in1010.8 mb 0.02 in0.5 mm 0.00 in0.0 mm 0.06 in1.5 mm
06:07 AM 59.0°F15.0°C 58.7°F14.8°C 99% Calm Calm 0.7 mph1.1 kmh 29.85 in1010.8 mb 0.02 in0.5 mm 0.00 in0.0 mm 0.06 in1.5 mm
06:06 AM 59.0°F15.0°C 58.7°F14.8°C 99% 0.1 mph SE0.2 kmh SE 0.7 mph1.1 kmh 29.85 in1010.8 mb 0.02 in0.5 mm 0.00 in0.0 mm 0.06 in1.5 mm
06:05 AM 59.0°F15.0°C 58.7°F14.8°C 99% 0.1 mph SE0.2 kmh SE 0.7 mph1.1 kmh 29.85 in1010.8 mb 0.02 in0.5 mm 0.00 in0.0 mm 0.06 in1.5 mm
06:04 AM 59.0°F15.0°C 58.7°F14.8°C 99% 0.1 mph SE0.2 kmh SE 0.7 mph1.1 kmh 29.85 in1010.8 mb 0.02 in0.5 mm 0.00 in0.0 mm 0.06 in1.5 mm
06:03 AM 59.0°F15.0°C 58.7°F14.8°C 99% 0.1 mph SE0.2 kmh SE 0.7 mph1.1 kmh 29.85 in1010.8 mb 0.02 in0.5 mm 0.00 in0.0 mm 0.06 in1.5 mm
06:02 AM 59.0°F15.0°C 58.7°F14.8°C 99% 0.1 mph SSE0.2 kmh SSE 0.7 mph1.1 kmh 29.85 in1010.8 mb 0.02 in0.5 mm 0.00 in0.0 mm 0.06 in1.5 mm
06:01 AM 59.0°F15.0°C 58.7°F14.8°C 99% 0.1 mph SSE0.2 kmh SSE 0.7 mph1.1 kmh 29.85 in1010.8 mb 0.02 in0.5 mm 0.00 in0.0 mm 0.06 in1.5 mm
06:00 AM 59.0°F15.0°C 58.7°F14.8°C 99% 0.1 mph SSE0.2 kmh SSE 0.7 mph1.1 kmh 29.85 in1010.8 mb 0.02 in0.5 mm 0.00 in0.0 mm 0.06 in1.5 mm
05:59 AM 59.2°F15.1°C 58.9°F14.9°C 99% 0.1 mph SSE0.2 kmh SSE 0.7 mph1.1 kmh 29.85 in1010.8 mb 0.02 in0.5 mm 0.00 in0.0 mm 0.06 in1.5 mm
05:58 AM 59.2°F15.1°C 58.9°F14.9°C 99% 0.1 mph SSE0.2 kmh SSE 0.7 mph1.1 kmh 29.85 in1010.8 mb 0.02 in0.5 mm 0.00 in0.0 mm 0.06 in1.5 mm
05:57 AM 59.2°F15.1°C 58.9°F14.9°C 99% 0.1 mph S0.2 kmh S 0.7 mph1.1 kmh 29.85 in1010.8 mb 0.02 in0.5 mm 0.00 in0.0 mm 0.06 in1.5 mm
05:56 AM 59.2°F15.1°C 58.9°F14.9°C 99% 0.1 mph S0.2 kmh S 0.7 mph1.1 kmh 29.85 in1010.8 mb 0.02 in0.5 mm 0.00 in0.0 mm 0.06 in1.5 mm
05:55 AM 59.0°F15.0°C 58.7°F14.8°C 99% 0.1 mph S0.2 kmh S 0.7 mph1.1 kmh 29.85 in1010.8 mb 0.02 in0.5 mm 0.00 in0.0 mm 0.06 in1.5 mm
05:54 AM 59.0°F15.0°C 58.7°F14.8°C 99% 0.1 mph S0.2 kmh S 0.7 mph1.1 kmh 29.85 in1010.8 mb 0.02 in0.5 mm 0.00 in0.0 mm 0.06 in1.5 mm
05:53 AM 59.0°F15.0°C 58.7°F14.8°C 99% 0.1 mph S0.2 kmh S 0.7 mph1.1 kmh 29.85 in1010.8 mb 0.02 in0.5 mm 0.00 in0.0 mm 0.06 in1.5 mm
05:52 AM 59.0°F15.0°C 58.7°F14.8°C 99% Calm Calm 0.7 mph1.1 kmh 29.85 in1010.8 mb 0.02 in0.5 mm 0.00 in0.0 mm 0.06 in1.5 mm
05:51 AM 59.0°F15.0°C 58.7°F14.8°C 99% Calm Calm -- 29.85 in1010.8 mb 0.02 in0.5 mm 0.00 in0.0 mm 0.06 in1.5 mm
05:50 AM 59.0°F15.0°C 58.7°F14.8°C 99% Calm Calm -- 29.85 in1010.8 mb 0.02 in0.5 mm 0.00 in0.0 mm 0.06 in1.5 mm
05:49 AM 59.0°F15.0°C 58.7°F14.8°C 99% Calm Calm -- 29.85 in1010.8 mb 0.02 in0.5 mm 0.00 in0.0 mm 0.06 in1.5 mm
05:48 AM 59.0°F15.0°C 58.7°F14.8°C 99% Calm Calm -- 29.84 in1010.5 mb 0.02 in0.5 mm 0.00 in0.0 mm 0.06 in1.5 mm
05:47 AM 59.0°F15.0°C 58.7°F14.8°C 99% Calm Calm -- 29.85 in1010.8 mb 0.02 in0.5 mm 0.00 in0.0 mm 0.06 in1.5 mm
05:46 AM 59.0°F15.0°C 58.7°F14.8°C 99% Calm Calm -- 29.85 in1010.8 mb 0.02 in0.5 mm 0.00 in0.0 mm 0.06 in1.5 mm
05:45 AM 59.0°F15.0°C 58.7°F14.8°C 99% Calm Calm -- 29.85 in1010.8 mb 0.02 in0.5 mm 0.00 in0.0 mm 0.06 in1.5 mm
05:44 AM 59.0°F15.0°C 58.7°F14.8°C 99% Calm Calm -- 29.84 in1010.5 mb 0.02 in0.5 mm 0.00 in0.0 mm 0.06 in1.5 mm
05:43 AM 59.0°F15.0°C 58.7°F14.8°C 99% Calm Calm -- 29.85 in1010.8 mb 0.02 in0.5 mm 0.00 in0.0 mm 0.06 in1.5 mm
05:42 AM 59.0°F15.0°C 58.7°F14.8°C 99% Calm Calm -- 29.84 in1010.5 mb 0.02 in0.5 mm 0.00 in0.0 mm 0.06 in1.5 mm
05:41 AM 59.0°F15.0°C 58.7°F14.8°C 99% Calm Calm -- 29.84 in1010.5 mb 0.02 in0.5 mm 0.00 in0.0 mm 0.06 in1.5 mm
05:40 AM 59.0°F15.0°C 58.7°F14.8°C 99% Calm Calm 1.6 mph2.6 kmh 29.84 in1010.5 mb 0.02 in0.5 mm 0.00 in0.0 mm 0.06 in1.5 mm
05:39 AM 59.0°F15.0°C 58.7°F14.8°C 99% 0.2 mph S0.3 kmh S 2.2 mph3.5 kmh 29.84 in1010.5 mb 0.02 in0.5 mm 0.00 in0.0 mm 0.06 in1.5 mm
05:38 AM 59.0°F15.0°C 58.7°F14.8°C 99% 0.5 mph S0.8 kmh S 3.1 mph5.0 kmh 29.84 in1010.5 mb 0.02 in0.5 mm 0.00 in0.0 mm 0.06 in1.5 mm
05:37 AM 59.0°F15.0°C 58.7°F14.8°C 99% 0.9 mph S1.4 kmh S 3.1 mph5.0 kmh 29.84 in1010.5 mb 0.02 in0.5 mm 0.00 in0.0 mm 0.06 in1.5 mm
05:36 AM 59.2°F15.1°C 58.9°F14.9°C 99% 1.1 mph S1.8 kmh S 3.1 mph5.0 kmh 29.84 in1010.5 mb 0.02 in0.5 mm 0.00 in0.0 mm 0.06 in1.5 mm
05:35 AM 59.2°F15.1°C 58.9°F14.9°C 99% 1.2 mph S1.9 kmh S 3.1 mph5.0 kmh 29.84 in1010.5 mb 0.02 in0.5 mm 0.00 in0.0 mm 0.06 in1.5 mm
05:34 AM 59.2°F15.1°C 58.9°F14.9°C 99% 1.3 mph S2.1 kmh S 3.1 mph5.0 kmh 29.84 in1010.5 mb 0.02 in0.5 mm 0.00 in0.0 mm 0.06 in1.5 mm
05:33 AM 59.2°F15.1°C 58.9°F14.9°C 99% 1.4 mph S2.3 kmh S 3.1 mph5.0 kmh 29.84 in1010.5 mb 0.02 in0.5 mm 0.00 in0.0 mm 0.06 in1.5 mm
05:32 AM 59.2°F15.1°C 58.9°F14.9°C 99% 1.6 mph S2.6 kmh S 3.1 mph5.0 kmh 29.84 in1010.5 mb 0.02 in0.5 mm 0.00 in0.0 mm 0.06 in1.5 mm
05:31 AM 59.2°F15.1°C 58.9°F14.9°C 99% 1.7 mph S2.7 kmh S 3.1 mph5.0 kmh 29.85 in1010.8 mb 0.02 in0.5 mm 0.00 in0.0 mm 0.06 in1.5 mm
05:30 AM 59.2°F15.1°C 58.9°F14.9°C 99% 1.7 mph S2.7 kmh S 3.1 mph5.0 kmh 29.85 in1010.8 mb 0.02 in0.5 mm 0.00 in0.0 mm 0.06 in1.5 mm
05:29 AM 59.2°F15.1°C 58.9°F14.9°C 99% 1.7 mph S2.7 kmh S 3.1 mph5.0 kmh 29.84 in1010.5 mb 0.02 in0.5 mm 0.00 in0.0 mm 0.06 in1.5 mm
05:28 AM 59.2°F15.1°C 58.9°F14.9°C 99% 1.7 mph S2.7 kmh S 3.1 mph5.0 kmh 29.85 in1010.8 mb 0.02 in0.5 mm 0.00 in0.0 mm 0.06 in1.5 mm
05:27 AM 59.2°F15.1°C 58.9°F14.9°C 99% 1.7 mph S2.7 kmh S 3.1 mph5.0 kmh 29.84 in1010.5 mb 0.02 in0.5 mm 0.00 in0.0 mm 0.06 in1.5 mm
05:26 AM 59.2°F15.1°C 58.9°F14.9°C 99% 1.7 mph S2.7 kmh S 3.1 mph5.0 kmh 29.85 in1010.8 mb 0.02 in0.5 mm 0.00 in0.0 mm 0.06 in1.5 mm
05:25 AM 59.2°F15.1°C 58.9°F14.9°C 99% 1.8 mph S2.9 kmh S 3.1 mph5.0 kmh 29.85 in1010.8 mb 0.02 in0.5 mm 0.00 in0.0 mm 0.06 in1.5 mm
05:24 AM 59.2°F15.1°C 58.9°F14.9°C 99% 1.9 mph S3.1 kmh S 3.1 mph5.0 kmh 29.84 in1010.5 mb 0.02 in0.5 mm 0.00 in0.0 mm 0.06 in1.5 mm
05:23 AM 59.2°F15.1°C 58.9°F14.9°C 99% 1.8 mph S2.9 kmh S 3.1 mph5.0 kmh 29.84 in1010.5 mb 0.02 in0.5 mm 0.00 in0.0 mm 0.06 in1.5 mm
05:22 AM 59.2°F15.1°C 58.9°F14.9°C 99% 1.6 mph S2.6 kmh S 3.1 mph5.0 kmh 29.84 in1010.5 mb 0.02 in0.5 mm 0.00 in0.0 mm 0.06 in1.5 mm
05:21 AM 59.2°F15.1°C 58.9°F14.9°C 99% 1.5 mph S2.4 kmh S 3.1 mph5.0 kmh 29.85 in1010.8 mb 0.02 in0.5 mm 0.00 in0.0 mm 0.06 in1.5 mm
05:20 AM 59.2°F15.1°C 58.9°F14.9°C 99% 1.6 mph S2.6 kmh S 3.1 mph5.0 kmh 29.84 in1010.5 mb 0.02 in0.5 mm 0.00 in0.0 mm 0.06 in1.5 mm
05:19 AM 59.2°F15.1°C 58.9°F14.9°C 99% 1.7 mph S2.7 kmh S 3.1 mph5.0 kmh 29.84 in1010.5 mb 0.02 in0.5 mm 0.00 in0.0 mm 0.06 in1.5 mm
05:18 AM 59.2°F15.1°C 58.9°F14.9°C 99% 1.5 mph S2.4 kmh S 3.1 mph5.0 kmh 29.84 in1010.5 mb 0.02 in0.5 mm 0.00 in0.0 mm 0.06 in1.5 mm
05:17 AM 59.2°F15.1°C 58.9°F14.9°C 99% 1.3 mph S2.1 kmh S 3.1 mph5.0 kmh 29.84 in1010.5 mb 0.02 in0.5 mm 0.00 in0.0 mm 0.06 in1.5 mm
05:16 AM 59.2°F15.1°C 58.9°F14.9°C 99% 1.1 mph S1.8 kmh S 3.1 mph5.0 kmh 29.84 in1010.5 mb 0.02 in0.5 mm 0.00 in0.0 mm 0.06 in1.5 mm
05:15 AM 59.2°F15.1°C 58.9°F14.9°C 99% 0.9 mph SSE1.4 kmh SSE 3.1 mph5.0 kmh 29.84 in1010.5 mb 0.02 in0.5 mm 0.00 in0.0 mm 0.06 in1.5 mm
05:14 AM 59.2°F15.1°C 58.9°F14.9°C 99% 0.7 mph S1.1 kmh S 3.1 mph5.0 kmh 29.85 in1010.8 mb 0.02 in0.5 mm 1.20 in30.5 mm 0.06 in1.5 mm
05:13 AM 59.2°F15.1°C 58.9°F14.9°C 99% 0.6 mph S1.0 kmh S 3.1 mph5.0 kmh 29.85 in1010.8 mb 0.00 in0.0 mm 0.00 in0.0 mm 0.04 in1.0 mm
05:12 AM 59.2°F15.1°C 58.9°F14.9°C 99% 0.6 mph S1.0 kmh S 3.1 mph5.0 kmh 29.85 in1010.8 mb 0.00 in0.0 mm 0.00 in0.0 mm 0.04 in1.0 mm
05:11 AM 59.2°F15.1°C 58.9°F14.9°C 99% 0.6 mph S1.0 kmh S 3.1 mph5.0 kmh 29.85 in1010.8 mb 0.00 in0.0 mm 0.00 in0.0 mm 0.04 in1.0 mm
05:10 AM 59.2°F15.1°C 58.9°F14.9°C 99% 0.4 mph S0.6 kmh S 3.1 mph5.0 kmh 29.85 in1010.8 mb 0.00 in0.0 mm 0.00 in0.0 mm 0.04 in1.0 mm
05:09 AM 59.2°F15.1°C 58.9°F14.9°C 99% 0.1 mph S0.2 kmh S 3.1 mph5.0 kmh 29.85 in1010.8 mb 0.00 in0.0 mm 0.00 in0.0 mm 0.04 in1.0 mm
05:08 AM 59.4°F15.2°C 59.1°F15.1°C 99% Calm Calm -- 29.85 in1010.8 mb 0.00 in0.0 mm 0.00 in0.0 mm 0.04 in1.0 mm
05:07 AM 59.4°F15.2°C 59.1°F15.1°C 99% Calm Calm -- 29.85 in1010.8 mb 0.00 in0.0 mm 0.00 in0.0 mm 0.04 in1.0 mm
05:06 AM 59.4°F15.2°C 59.1°F15.1°C 99% Calm Calm -- 29.85 in1010.8 mb 0.00 in0.0 mm 0.00 in0.0 mm 0.04 in1.0 mm
05:05 AM 59.4°F15.2°C 59.1°F15.1°C 99% Calm Calm -- 29.85 in1010.8 mb 0.00 in0.0 mm 0.00 in0.0 mm 0.04 in1.0 mm
05:04 AM 59.4°F15.2°C 59.1°F15.1°C 99% Calm Calm -- 29.85 in1010.8 mb 0.00 in0.0 mm 0.00 in0.0 mm 0.04 in1.0 mm
05:03 AM 59.4°F15.2°C 59.1°F15.1°C 99% Calm Calm -- 29.85 in1010.8 mb 0.00 in0.0 mm 0.00 in0.0 mm 0.04 in1.0 mm
05:02 AM 59.4°F15.2°C 59.1°F15.1°C 99% Calm Calm -- 29.85 in1010.8 mb 0.00 in0.0 mm 0.00 in0.0 mm 0.04 in1.0 mm
05:01 AM 59.4°F15.2°C 59.1°F15.1°C 99% Calm Calm -- 29.84 in1010.5 mb 0.00 in0.0 mm 0.00 in0.0 mm 0.04 in1.0 mm
05:00 AM 59.4°F15.2°C 59.1°F15.1°C 99% Calm Calm -- 29.85 in1010.8 mb 0.00 in0.0 mm 0.00 in0.0 mm 0.04 in1.0 mm
04:59 AM 59.4°F15.2°C 59.1°F15.1°C 99% Calm Calm -- 29.85 in1010.8 mb 0.00 in0.0 mm 0.00 in0.0 mm 0.04 in1.0 mm
04:58 AM 59.4°F15.2°C 59.1°F15.1°C 99% Calm Calm -- 29.85 in1010.8 mb 0.00 in0.0 mm 0.00 in0.0 mm 0.04 in1.0 mm
04:57 AM 59.4°F15.2°C 59.1°F15.1°C 99% 0.1 mph S0.2 kmh S 1.6 mph2.6 kmh 29.85 in1010.8 mb 0.00 in0.0 mm 0.00 in0.0 mm 0.04 in1.0 mm
04:56 AM 59.4°F15.2°C 59.1°F15.1°C 99% 0.5 mph SE0.8 kmh SE 3.1 mph5.0 kmh 29.85 in1010.8 mb 0.00 in0.0 mm 0.00 in0.0 mm 0.04 in1.0 mm
04:55 AM 59.4°F15.2°C 59.1°F15.1°C 99% 0.7 mph SE1.1 kmh SE 3.1 mph5.0 kmh 29.84 in1010.5 mb 0.00 in0.0 mm 0.00 in0.0 mm 0.04 in1.0 mm
04:54 AM 59.4°F15.2°C 59.1°F15.1°C 99% 0.9 mph SSE1.4 kmh SSE 3.1 mph5.0 kmh 29.85 in1010.8 mb 0.00 in0.0 mm 0.00 in0.0 mm 0.04 in1.0 mm
04:53 AM 59.4°F15.2°C 59.1°F15.1°C 99% 1.2 mph SE1.9 kmh SE 3.8 mph6.1 kmh 29.85 in1010.8 mb 0.00 in0.0 mm 0.00 in0.0 mm 0.04 in1.0 mm
04:52 AM 59.4°F15.2°C 59.1°F15.1°C 99% 1.2 mph SE1.9 kmh SE 3.8 mph6.1 kmh 29.85 in1010.8 mb 0.00 in0.0 mm 0.00 in0.0 mm 0.04 in1.0 mm
04:51 AM 59.4°F15.2°C 59.1°F15.1°C 99% 1.2 mph SE1.9 kmh SE 3.8 mph6.1 kmh 29.85 in1010.8 mb 0.00 in0.0 mm 0.00 in0.0 mm 0.04 in1.0 mm
04:50 AM 59.5°F15.3°C 59.3°F15.2°C 99% 1.3 mph SSE2.1 kmh SSE 3.8 mph6.1 kmh 29.85 in1010.8 mb 0.00 in0.0 mm 0.00 in0.0 mm 0.04 in1.0 mm
04:49 AM 59.5°F15.3°C 59.3°F15.2°C 99% 1.5 mph SSE2.4 kmh SSE 3.8 mph6.1 kmh 29.85 in1010.8 mb 0.00 in0.0 mm 0.00 in0.0 mm 0.04 in1.0 mm
04:48 AM 59.5°F15.3°C 59.3°F15.2°C 99% 1.7 mph SSE2.7 kmh SSE 3.8 mph6.1 kmh 29.85 in1010.8 mb 0.00 in0.0 mm 0.00 in0.0 mm 0.04 in1.0 mm
04:47 AM 59.5°F15.3°C 59.3°F15.2°C 99% 1.7 mph SSE2.7 kmh SSE 3.8 mph6.1 kmh 29.85 in1010.8 mb 0.00 in0.0 mm 0.00 in0.0 mm 0.04 in1.0 mm
04:46 AM 59.5°F15.3°C 59.3°F15.2°C 99% 1.6 mph SSE2.6 kmh SSE 3.8 mph6.1 kmh 29.85 in1010.8 mb 0.00 in0.0 mm 0.00 in0.0 mm 0.04 in1.0 mm
04:45 AM 59.5°F15.3°C 59.3°F15.2°C 99% 1.3 mph S2.1 kmh S 3.8 mph6.1 kmh 29.85 in1010.8 mb 0.00 in0.0 mm 0.00 in0.0 mm 0.04 in1.0 mm
04:44 AM 59.5°F15.3°C 59.3°F15.2°C 99% 1.1 mph S1.8 kmh S 3.8 mph6.1 kmh 29.85 in1010.8 mb 0.00 in0.0 mm 0.00 in0.0 mm 0.04 in1.0 mm
04:43 AM 59.5°F15.3°C 59.3°F15.2°C 99% 0.8 mph S1.3 kmh S 3.1 mph5.0 kmh 29.85 in1010.8 mb 0.00 in0.0 mm 0.00 in0.0 mm 0.04 in1.0 mm
04:42 AM 59.5°F15.3°C 59.3°F15.2°C 99% 0.7 mph S1.1 kmh S 3.1 mph5.0 kmh 29.85 in1010.8 mb 0.00 in0.0 mm 0.00 in0.0 mm 0.04 in1.0 mm
04:41 AM 59.5°F15.3°C 59.3°F15.2°C 99% 0.7 mph S1.1 kmh S 3.1 mph5.0 kmh 29.85 in1010.8 mb 0.00 in0.0 mm 0.00 in0.0 mm 0.04 in1.0 mm
04:40 AM 59.5°F15.3°C 59.3°F15.2°C 99% 0.7 mph S1.1 kmh S 3.1 mph5.0 kmh 29.85 in1010.8 mb 0.00 in0.0 mm 0.00 in0.0 mm 0.04 in1.0 mm
04:39 AM 59.5°F15.3°C 59.3°F15.2°C 99% 0.4 mph SSE0.6 kmh SSE 1.6 mph2.6 kmh 29.85 in1010.8 mb 0.00 in0.0 mm 0.00 in0.0 mm 0.04 in1.0 mm
04:38 AM 59.5°F15.3°C 59.3°F15.2°C 99% 0.3 mph SSE0.5 kmh SSE 1.6 mph2.6 kmh 29.85 in1010.8 mb 0.00 in0.0 mm 0.00 in0.0 mm 0.04 in1.0 mm
04:37 AM 59.5°F15.3°C 59.3°F15.2°C 99% 0.1 mph S0.2 kmh S 1.6 mph2.6 kmh 29.85 in1010.8 mb 0.00 in0.0 mm 0.00 in0.0 mm 0.04 in1.0 mm
04:36 AM 59.5°F15.3°C 59.3°F15.2°C 99% Calm Calm -- 29.85 in1010.8 mb 0.00 in0.0 mm 0.00 in0.0 mm 0.04 in1.0 mm
04:35 AM 59.5°F15.3°C 59.3°F15.2°C 99% Calm Calm -- 29.85 in1010.8 mb 0.00 in0.0 mm 0.00 in0.0 mm 0.04 in1.0 mm
04:34 AM 59.5°F15.3°C 59.3°F15.2°C 99% Calm Calm -- 29.85 in1010.8 mb 0.00 in0.0 mm 0.00 in0.0 mm 0.04 in1.0 mm
04:33 AM 59.5°F15.3°C 59.3°F15.2°C 99% Calm Calm -- 29.85 in1010.8 mb 0.00 in0.0 mm 0.00 in0.0 mm 0.04 in1.0 mm
04:32 AM 59.4°F15.2°C 59.1°F15.1°C 99% Calm Calm -- 29.85 in1010.8 mb 0.00 in0.0 mm 0.00 in0.0 mm 0.04 in1.0 mm
04:31 AM 59.4°F15.2°C 59.1°F15.1°C 99% Calm Calm -- 29.85 in1010.8 mb 0.00 in0.0 mm 0.00 in0.0 mm 0.04 in1.0 mm
04:30 AM 59.4°F15.2°C 59.1°F15.1°C 99% Calm Calm -- 29.85 in1010.8 mb 0.00 in0.0 mm 0.00 in0.0 mm 0.04 in1.0 mm
04:29 AM 59.5°F15.3°C 59.3°F15.2°C 99% 0.1 mph S0.2 kmh S 1.6 mph2.6 kmh 29.84 in1010.5 mb 0.00 in0.0 mm 0.00 in0.0 mm 0.04 in1.0 mm
04:28 AM 59.4°F15.2°C 59.1°F15.1°C 99% 0.3 mph S0.5 kmh S 2.2 mph3.5 kmh 29.84 in1010.5 mb 0.00 in0.0 mm 0.00 in0.0 mm 0.04 in1.0 mm
04:27 AM 59.5°F15.3°C 59.3°F15.2°C 99% 0.6 mph S1.0 kmh S 2.2 mph3.5 kmh 29.85 in1010.8 mb 0.00 in0.0 mm 0.00 in0.0 mm 0.04 in1.0 mm
04:26 AM 59.5°F15.3°C 59.3°F15.2°C 99% 0.7 mph S1.1 kmh S 2.2 mph3.5 kmh 29.84 in1010.5 mb 0.00 in0.0 mm 0.00 in0.0 mm 0.04 in1.0 mm
04:25 AM 59.5°F15.3°C 59.3°F15.2°C 99% 0.9 mph S1.4 kmh S 2.2 mph3.5 kmh 29.85 in1010.8 mb 0.00 in0.0 mm 0.00 in0.0 mm 0.04 in1.0 mm
04:24 AM 59.5°F15.3°C 59.0°F15.0°C 98% 1.1 mph S1.8 kmh S 2.2 mph3.5 kmh 29.85 in1010.8 mb 0.00 in0.0 mm 0.00 in0.0 mm 0.04 in1.0 mm
04:23 AM 59.5°F15.3°C 59.0°F15.0°C 98% 1.0 mph S1.6 kmh S 2.2 mph3.5 kmh 29.85 in1010.8 mb 0.00 in0.0 mm 0.00 in0.0 mm 0.04 in1.0 mm
04:22 AM 59.5°F15.3°C 59.0°F15.0°C 98% 1.1 mph S1.8 kmh S 2.2 mph3.5 kmh 29.85 in1010.8 mb 0.00 in0.0 mm 0.00 in0.0 mm 0.04 in1.0 mm
04:21 AM 59.5°F15.3°C 59.0°F15.0°C 98% 1.1 mph S1.8 kmh S 2.2 mph3.5 kmh 29.85 in1010.8 mb 0.00 in0.0 mm 0.00 in0.0 mm 0.04 in1.0 mm
04:20 AM 59.5°F15.3°C 59.0°F15.0°C 98% 1.1 mph S1.8 kmh S 2.2 mph3.5 kmh 29.85 in1010.8 mb 0.00 in0.0 mm 0.00 in0.0 mm 0.04 in1.0 mm
04:19 AM 59.5°F15.3°C 59.0°F15.0°C 98% 0.9 mph S1.4 kmh S 2.2 mph3.5 kmh 29.85 in1010.8 mb 0.00 in0.0 mm 0.00 in0.0 mm 0.04 in1.0 mm
04:18 AM 59.5°F15.3°C 59.0°F15.0°C 98% 0.7 mph SSW1.1 kmh SSW 2.2 mph3.5 kmh 29.85 in1010.8 mb 0.00 in0.0 mm 0.00 in0.0 mm 0.04 in1.0 mm
04:17 AM 59.5°F15.3°C 59.0°F15.0°C 98% 0.6 mph SSW1.0 kmh SSW 2.2 mph3.5 kmh 29.85 in1010.8 mb 0.00 in0.0 mm 0.00 in0.0 mm 0.04 in1.0 mm
04:16 AM 59.5°F15.3°C 59.0°F15.0°C 98% 0.3 mph S0.5 kmh S 2.2 mph3.5 kmh 29.85 in1010.8 mb 0.00 in0.0 mm 0.00 in0.0 mm 0.04 in1.0 mm
04:15 AM 59.5°F15.3°C 59.0°F15.0°C 98% 0.2 mph S0.3 kmh S 2.2 mph3.5 kmh 29.84 in1010.5 mb 0.00 in0.0 mm 0.00 in0.0 mm 0.04 in1.0 mm
04:14 AM 59.5°F15.3°C 59.0°F15.0°C 98% Calm Calm -- 29.84 in1010.5 mb 0.00 in0.0 mm 0.00 in0.0 mm 0.04 in1.0 mm
04:13 AM 59.5°F15.3°C 59.0°F15.0°C 98% Calm Calm -- 29.85 in1010.8 mb 0.00 in0.0 mm 0.00 in0.0 mm 0.04 in1.0 mm
04:12 AM 59.5°F15.3°C 59.0°F15.0°C 98% Calm Calm -- 29.85 in1010.8 mb 0.00 in0.0 mm 0.00 in0.0 mm 0.04 in1.0 mm
04:11 AM 59.5°F15.3°C 59.0°F15.0°C 98% Calm Calm -- 29.85 in1010.8 mb 0.00 in0.0 mm 0.00 in0.0 mm 0.04 in1.0 mm
04:10 AM 59.5°F15.3°C 59.0°F15.0°C 98% Calm Calm -- 29.84 in1010.5 mb 0.00 in0.0 mm 0.00 in0.0 mm 0.04 in1.0 mm
04:09 AM 59.5°F15.3°C 59.0°F15.0°C 98% Calm Calm -- 29.85 in1010.8 mb 0.00 in0.0 mm 0.00 in0.0 mm 0.04 in1.0 mm
04:08 AM 59.5°F15.3°C 59.0°F15.0°C 98% Calm Calm -- 29.85 in1010.8 mb 0.00 in0.0 mm 0.00 in0.0 mm 0.04 in1.0 mm
04:07 AM 59.5°F15.3°C 59.0°F15.0°C 98% Calm Calm -- 29.84 in1010.5 mb 0.00 in0.0 mm 0.00 in0.0 mm 0.04 in1.0 mm
04:06 AM 59.5°F15.3°C 59.0°F15.0°C 98% Calm Calm -- 29.84 in1010.5 mb 0.00 in0.0 mm 0.00 in0.0 mm 0.04 in1.0 mm
04:05 AM 59.5°F15.3°C 59.0°F15.0°C 98% Calm Calm -- 29.84 in1010.5 mb 0.00 in0.0 mm 0.00 in0.0 mm 0.04 in1.0 mm
04:04 AM 59.5°F15.3°C 59.0°F15.0°C 98% 0.1 mph SW0.2 kmh SW 0.7 mph1.1 kmh 29.84 in1010.5 mb 0.00 in0.0 mm 0.00 in0.0 mm 0.04 in1.0 mm
04:03 AM 59.7°F15.4°C 59.2°F15.1°C 98% 0.1 mph SW0.2 kmh SW 0.7 mph1.1 kmh 29.84 in1010.5 mb 0.00 in0.0 mm 0.00 in0.0 mm 0.04 in1.0 mm
04:02 AM 59.7°F15.4°C 59.2°F15.1°C 98% 0.1 mph SW0.2 kmh SW 0.7 mph1.1 kmh 29.84 in1010.5 mb 0.00 in0.0 mm 0.00 in0.0 mm 0.04 in1.0 mm
04:01 AM 59.7°F15.4°C 59.2°F15.1°C 98% 0.1 mph SW0.2 kmh SW 0.7 mph1.1 kmh 29.84 in1010.5 mb 0.00 in0.0 mm 0.00 in0.0 mm 0.04 in1.0 mm
04:00 AM 59.7°F15.4°C 59.2°F15.1°C 98% 0.1 mph SW0.2 kmh SW 0.7 mph1.1 kmh 29.84 in1010.5 mb 0.00 in0.0 mm 0.00 in0.0 mm 0.04 in1.0 mm
03:59 AM 59.7°F15.4°C 59.2°F15.1°C 98% 0.1 mph SW0.2 kmh SW 0.7 mph1.1 kmh 29.84 in1010.5 mb 0.00 in0.0 mm 0.00 in0.0 mm 0.04 in1.0 mm
03:58 AM 59.7°F15.4°C 59.2°F15.1°C 98% 0.1 mph SW0.2 kmh SW 0.7 mph1.1 kmh 29.84 in1010.5 mb 0.00 in0.0 mm 0.00 in0.0 mm 0.04 in1.0 mm
03:57 AM 59.7°F15.4°C 59.2°F15.1°C 98% 0.1 mph SW0.2 kmh SW 0.7 mph1.1 kmh 29.84 in1010.5 mb 0.00 in0.0 mm 0.00 in0.0 mm 0.04 in1.0 mm
03:56 AM 59.7°F15.4°C 59.2°F15.1°C 98% 0.1 mph SW0.2 kmh SW 0.7 mph1.1 kmh 29.84 in1010.5 mb 0.00 in0.0 mm 0.00 in0.0 mm 0.04 in1.0 mm
03:55 AM 59.7°F15.4°C 59.2°F15.1°C 98% 0.1 mph SW0.2 kmh SW 0.7 mph1.1 kmh 29.84 in1010.5 mb 0.00 in0.0 mm 0.00 in0.0 mm 0.04 in1.0 mm
03:54 AM 59.7°F15.4°C 59.2°F15.1°C 98% Calm Calm -- 29.84 in1010.5 mb 0.00 in0.0 mm 0.00 in0.0 mm 0.04 in1.0 mm
03:53 AM 59.7°F15.4°C 59.2°F15.1°C 98% Calm Calm -- 29.84 in1010.5 mb 0.00 in0.0 mm 0.00 in0.0 mm 0.04 in1.0 mm
03:52 AM 59.7°F15.4°C 59.2°F15.1°C 98% Calm Calm -- 29.84 in1010.5 mb 0.00 in0.0 mm 0.00 in0.0 mm 0.04 in1.0 mm
03:51 AM 59.7°F15.4°C 59.2°F15.1°C 98% Calm Calm -- 29.84 in1010.5 mb 0.00 in0.0 mm 0.00 in0.0 mm 0.04 in1.0 mm
03:50 AM 59.7°F15.4°C 59.2°F15.1°C 98% Calm Calm -- 29.84 in1010.5 mb 0.00 in0.0 mm 0.00 in0.0 mm 0.04 in1.0 mm
03:49 AM 59.7°F15.4°C 59.2°F15.1°C 98% Calm Calm -- 29.84 in1010.5 mb 0.00 in0.0 mm 0.00 in0.0 mm 0.04 in1.0 mm
03:48 AM 59.7°F15.4°C 59.2°F15.1°C 98% Calm Calm -- 29.84 in1010.5 mb 0.00 in0.0 mm 0.00 in0.0 mm 0.04 in1.0 mm
03:47 AM 59.7°F15.4°C 59.2°F15.1°C 98% Calm Calm -- 29.84 in1010.5 mb 0.00 in0.0 mm 0.00 in0.0 mm 0.04 in1.0 mm
03:46 AM 59.7°F15.4°C 59.2°F15.1°C 98% Calm Calm -- 29.84 in1010.5 mb 0.00 in0.0 mm 0.00 in0.0 mm 0.04 in1.0 mm
03:45 AM 59.9°F15.5°C 59.3°F15.2°C 98% Calm Calm -- 29.84 in1010.5 mb 0.00 in0.0 mm 0.00 in0.0 mm 0.04 in1.0 mm
03:44 AM 59.9°F15.5°C 59.3°F15.2°C 98% Calm Calm -- 29.84 in1010.5 mb 0.00 in0.0 mm 0.00 in0.0 mm 0.04 in1.0 mm
03:43 AM 59.9°F15.5°C 59.3°F15.2°C 98% Calm Calm -- 29.84 in1010.5 mb 0.00 in0.0 mm 0.00 in0.0 mm 0.04 in1.0 mm
03:42 AM 59.9°F15.5°C 59.3°F15.2°C 98% Calm Calm -- 29.84 in1010.5 mb 0.00 in0.0 mm 0.00 in0.0 mm 0.04 in1.0 mm
03:41 AM 59.9°F15.5°C 59.3°F15.2°C 98% Calm Calm -- 29.84 in1010.5 mb 0.00 in0.0 mm 0.00 in0.0 mm 0.04 in1.0 mm
03:40 AM 59.9°F15.5°C 59.3°F15.2°C 98% Calm Calm -- 29.84 in1010.5 mb 0.00 in0.0 mm 0.00 in0.0 mm 0.04 in1.0 mm
03:39 AM 59.9°F15.5°C 59.3°F15.2°C 98% Calm Calm -- 29.84 in1010.5 mb 0.00 in0.0 mm 0.00 in0.0 mm 0.04 in1.0 mm
03:38 AM 60.1°F15.6°C 59.5°F15.3°C 98% Calm Calm -- 29.84 in1010.5 mb 0.00 in0.0 mm 0.00 in0.0 mm 0.04 in1.0 mm
03:37 AM 59.9°F15.5°C 59.3°F15.2°C 98% Calm Calm -- 29.84 in1010.5 mb 0.00 in0.0 mm 0.00 in0.0 mm 0.04 in1.0 mm
03:36 AM 59.9°F15.5°C 59.3°F15.2°C 98% Calm Calm -- 29.84 in1010.5 mb 0.00 in0.0 mm 0.00 in0.0 mm 0.04 in1.0 mm
03:35 AM 60.1°F15.6°C 59.5°F15.3°C 98% Calm Calm 0.7 mph1.1 kmh 29.84 in1010.5 mb 0.00 in0.0 mm 0.00 in0.0 mm 0.04 in1.0 mm
03:34 AM 59.7°F15.4°C 59.2°F15.1°C 98% 0.2 mph S0.3 kmh S 3.1 mph5.0 kmh 29.84 in1010.5 mb 0.00 in0.0 mm 0.00 in0.0 mm 0.04 in1.0 mm
03:33 AM 60.1°F15.6°C 59.5°F15.3°C 98% 0.3 mph S0.5 kmh S 3.1 mph5.0 kmh 29.84 in1010.5 mb 0.00 in0.0 mm 0.00 in0.0 mm 0.04 in1.0 mm
03:32 AM 60.1°F15.6°C 59.5°F15.3°C 98% 0.3 mph S0.5 kmh S 3.1 mph5.0 kmh 29.84 in1010.5 mb 0.00 in0.0 mm 0.00 in0.0 mm 0.04 in1.0 mm
03:31 AM 60.1°F15.6°C 59.5°F15.3°C 98% 0.3 mph S0.5 kmh S 3.1 mph5.0 kmh 29.84 in1010.5 mb 0.00 in0.0 mm 0.00 in0.0 mm 0.04 in1.0 mm
03:30 AM 60.1°F15.6°C 59.5°F15.3°C 98% 0.3 mph S0.5 kmh S 3.1 mph5.0 kmh 29.84 in1010.5 mb 0.00 in0.0 mm 0.00 in0.0 mm 0.04 in1.0 mm
03:29 AM 60.1°F15.6°C 59.5°F15.3°C 98% 0.3 mph S0.5 kmh S 3.1 mph5.0 kmh 29.84 in1010.5 mb 0.00 in0.0 mm 0.00 in0.0 mm 0.04 in1.0 mm
03:28 AM 60.1°F15.6°C 59.5°F15.3°C 98% 0.3 mph S0.5 kmh S 3.1 mph5.0 kmh 29.84 in1010.5 mb 0.00 in0.0 mm 0.00 in0.0 mm 0.04 in1.0 mm
03:27 AM 60.1°F15.6°C 59.5°F15.3°C 98% 0.3 mph S0.5 kmh S 3.1 mph5.0 kmh 29.84 in1010.5 mb 0.00 in0.0 mm 0.00 in0.0 mm 0.04 in1.0 mm
03:26 AM 60.3°F15.7°C 59.7°F15.4°C 98% 0.3 mph S0.5 kmh S 3.1 mph5.0 kmh 29.84 in1010.5 mb 0.00 in0.0 mm 0.00 in0.0 mm 0.04 in1.0 mm
03:25 AM 60.3°F15.7°C 59.7°F15.4°C 98% 0.2 mph S0.3 kmh S 3.1 mph5.0 kmh 29.84 in1010.5 mb 0.00 in0.0 mm 0.00 in0.0 mm 0.04 in1.0 mm
03:24 AM 60.3°F15.7°C 59.7°F15.4°C 98% 0.1 mph S0.2 kmh S 3.1 mph5.0 kmh 29.84 in1010.5 mb 0.00 in0.0 mm 0.00 in0.0 mm 0.04 in1.0 mm
03:23 AM 60.3°F15.7°C 59.7°F15.4°C 98% Calm Calm -- 29.84 in1010.5 mb 0.00 in0.0 mm 0.00 in0.0 mm 0.04 in1.0 mm
03:22 AM 60.3°F15.7°C 59.7°F15.4°C 98% Calm Calm -- 29.84 in1010.5 mb 0.00 in0.0 mm 0.00 in0.0 mm 0.04 in1.0 mm
03:21 AM 60.3°F15.7°C 59.7°F15.4°C 98% Calm Calm -- 29.84 in1010.5 mb 0.00 in0.0 mm 0.00 in0.0 mm 0.04 in1.0 mm
03:20 AM 60.3°F15.7°C 59.7°F15.4°C 98% Calm Calm -- 29.84 in1010.5 mb 0.00 in0.0 mm 0.00 in0.0 mm 0.04 in1.0 mm
03:19 AM 60.3°F15.7°C 59.7°F15.4°C 98% Calm Calm -- 29.84 in1010.5 mb 0.00 in0.0 mm 0.00 in0.0 mm 0.04 in1.0 mm
03:18 AM 60.3°F15.7°C 59.7°F15.4°C 98% Calm Calm -- 29.84 in1010.5 mb 0.00 in0.0 mm 0.00 in0.0 mm 0.04 in1.0 mm
03:17 AM 60.3°F15.7°C 59.7°F15.4°C 98% Calm Calm -- 29.84 in1010.5 mb 0.00 in0.0 mm 0.00 in0.0 mm 0.04 in1.0 mm
03:16 AM 60.3°F15.7°C 59.7°F15.4°C 98% Calm Calm -- 29.84 in1010.5 mb 0.00 in0.0 mm 0.00 in0.0 mm 0.04 in1.0 mm
03:15 AM 60.3°F15.7°C 59.7°F15.4°C 98% Calm Calm -- 29.84 in1010.5 mb 0.00 in0.0 mm 0.00 in0.0 mm 0.04 in1.0 mm
03:14 AM 60.3°F15.7°C 59.7°F15.4°C 98% Calm Calm -- 29.84 in1010.5 mb 0.00 in0.0 mm 0.00 in0.0 mm 0.04 in1.0 mm
03:13 AM 60.3°F15.7°C 59.7°F15.4°C 98% Calm Calm -- 29.84 in1010.5 mb 0.00 in0.0 mm 0.00 in0.0 mm 0.04 in1.0 mm
03:12 AM 60.3°F15.7°C 59.7°F15.4°C 98% Calm Calm -- 29.84 in1010.5 mb 0.00 in0.0 mm 0.00 in0.0 mm 0.04 in1.0 mm
03:11 AM 60.3°F15.7°C 59.7°F15.4°C 98% Calm Calm -- 29.84 in1010.5 mb 0.00 in0.0 mm 0.00 in0.0 mm 0.04 in1.0 mm
03:10 AM 60.3°F15.7°C 59.7°F15.4°C 98% Calm Calm -- 29.84 in1010.5 mb 0.00 in0.0 mm 0.00 in0.0 mm 0.04 in1.0 mm
03:09 AM 60.3°F15.7°C 59.7°F15.4°C 98% Calm Calm -- 29.84 in1010.5 mb 0.00 in0.0 mm 0.00 in0.0 mm 0.04 in1.0 mm
03:08 AM 60.3°F15.7°C 59.7°F15.4°C 98% Calm Calm -- 29.83 in1010.2 mb 0.00 in0.0 mm 0.00 in0.0 mm 0.04 in1.0 mm
03:07 AM 60.3°F15.7°C 59.7°F15.4°C 98% Calm Calm -- 29.83 in1010.2 mb 0.00 in0.0 mm 0.00 in0.0 mm 0.04 in1.0 mm
03:06 AM 60.3°F15.7°C 59.7°F15.4°C 98% Calm Calm -- 29.83 in1010.2 mb 0.00 in0.0 mm 0.00 in0.0 mm 0.04 in1.0 mm
03:05 AM 60.3°F15.7°C 59.7°F15.4°C 98% Calm Calm -- 29.83 in1010.2 mb 0.00 in0.0 mm 0.00 in0.0 mm 0.04 in1.0 mm
03:04 AM 60.3°F15.7°C 59.7°F15.4°C 98% Calm Calm -- 29.83 in1010.2 mb 0.00 in0.0 mm 0.00 in0.0 mm 0.04 in1.0 mm
03:03 AM 60.3°F15.7°C 59.7°F15.4°C 98% Calm Calm -- 29.83 in1010.2 mb 0.00 in0.0 mm 0.00 in0.0 mm 0.04 in1.0 mm
03:02 AM 60.3°F15.7°C 59.7°F15.4°C 98% Calm Calm -- 29.83 in1010.2 mb 0.00 in0.0 mm 0.00 in0.0 mm 0.04 in1.0 mm
03:01 AM 60.3°F15.7°C 59.7°F15.4°C 98% Calm Calm -- 29.83 in1010.2 mb 0.00 in0.0 mm 0.00 in0.0 mm 0.04 in1.0 mm
03:00 AM 60.3°F15.7°C 59.7°F15.4°C 98% Calm Calm -- 29.83 in1010.2 mb 0.00 in0.0 mm 0.00 in0.0 mm 0.04 in1.0 mm
02:59 AM 60.3°F15.7°C 59.7°F15.4°C 98% Calm Calm -- 29.83 in1010.2 mb 0.00 in0.0 mm 0.00 in0.0 mm 0.04 in1.0 mm
02:58 AM 60.3°F15.7°C 59.7°F15.4°C 98% Calm Calm -- 29.83 in1010.2 mb 0.00 in0.0 mm 0.00 in0.0 mm 0.04 in1.0 mm
02:57 AM 60.3°F15.7°C 59.7°F15.4°C 98% Calm Calm -- 29.83 in1010.2 mb 0.00 in0.0 mm 0.00 in0.0 mm 0.04 in1.0 mm
02:56 AM 60.3°F15.7°C 59.7°F15.4°C 98% Calm Calm -- 29.83 in1010.2 mb 0.00 in0.0 mm 0.00 in0.0 mm 0.04 in1.0 mm
02:55 AM 60.3°F15.7°C 59.7°F15.4°C 98% Calm Calm -- 29.83 in1010.2 mb 0.00 in0.0 mm 0.00 in0.0 mm 0.04 in1.0 mm
02:54 AM 60.3°F15.7°C 59.7°F15.4°C 98% Calm Calm -- 29.83 in1010.2 mb 0.00 in0.0 mm 0.00 in0.0 mm 0.04 in1.0 mm
02:53 AM 60.3°F15.7°C 59.7°F15.4°C 98% Calm Calm -- 29.83 in1010.2 mb 0.00 in0.0 mm 0.00 in0.0 mm 0.04 in1.0 mm
02:52 AM 60.3°F15.7°C 60.0°F15.6°C 99% 0.2 mph S0.3 kmh S 2.2 mph3.5 kmh 29.83 in1010.2 mb 0.00 in0.0 mm 0.00 in0.0 mm 0.04 in1.0 mm
02:51 AM 60.3°F15.7°C 60.0°F15.6°C 99% 0.3 mph SSW0.5 kmh SSW 2.2 mph3.5 kmh 29.83 in1010.2 mb 0.00 in0.0 mm 0.00 in0.0 mm 0.04 in1.0 mm
02:50 AM 60.3°F15.7°C 60.0°F15.6°C 99% 0.3 mph SSW0.5 kmh SSW 2.2 mph3.5 kmh 29.83 in1010.2 mb 0.00 in0.0 mm 0.00 in0.0 mm 0.04 in1.0 mm
02:49 AM 60.3°F15.7°C 60.0°F15.6°C 99% 0.3 mph SSW0.5 kmh SSW 2.2 mph3.5 kmh 29.83 in1010.2 mb 0.00 in0.0 mm 0.00 in0.0 mm 0.04 in1.0 mm
02:48 AM 60.3°F15.7°C 60.0°F15.6°C 99% 0.3 mph SSW0.5 kmh SSW 2.2 mph3.5 kmh 29.83 in1010.2 mb 0.00 in0.0 mm 0.00 in0.0 mm 0.04 in1.0 mm
02:47 AM 60.3°F15.7°C 60.0°F15.6°C 99% 0.3 mph SSW0.5 kmh SSW 2.2 mph3.5 kmh 29.83 in1010.2 mb 0.00 in0.0 mm 0.00 in0.0 mm 0.04 in1.0 mm
02:46 AM 60.3°F15.7°C 60.0°F15.6°C 99% 0.3 mph SSW0.5 kmh SSW 2.2 mph3.5 kmh 29.83 in1010.2 mb 0.00 in0.0 mm 0.00 in0.0 mm 0.04 in1.0 mm
02:45 AM 60.3°F15.7°C 59.7°F15.4°C 98% 0.3 mph SSW0.5 kmh SSW 2.2 mph3.5 kmh 29.83 in1010.2 mb 0.00 in0.0 mm 0.00 in0.0 mm 0.04 in1.0 mm
02:44 AM 60.3°F15.7°C 59.7°F15.4°C 98% 0.3 mph SSW0.5 kmh SSW 2.2 mph3.5 kmh 29.83 in1010.2 mb 0.00 in0.0 mm 0.00 in0.0 mm 0.04 in1.0 mm
02:43 AM 60.3°F15.7°C 59.7°F15.4°C 98% 0.3 mph SSW0.5 kmh SSW 2.2 mph3.5 kmh 29.83 in1010.2 mb 0.00 in0.0 mm 0.00 in0.0 mm 0.04 in1.0 mm
02:42 AM 60.4°F15.8°C 60.2°F15.7°C 99% 0.1 mph SW0.2 kmh SW 1.6 mph2.6 kmh 29.83 in1010.2 mb 0.00 in0.0 mm 0.00 in0.0 mm 0.04 in1.0 mm
02:41 AM 60.4°F15.8°C 60.2°F15.7°C 99% 0.1 mph S0.2 kmh S 0.7 mph1.1 kmh 29.83 in1010.2 mb 0.00 in0.0 mm 0.00 in0.0 mm 0.04 in1.0 mm
02:40 AM 60.4°F15.8°C 60.2°F15.7°C 99% 0.1 mph S0.2 kmh S 0.7 mph1.1 kmh 29.82 in1009.8 mb 0.00 in0.0 mm 0.00 in0.0 mm 0.04 in1.0 mm
02:39 AM 60.4°F15.8°C 60.2°F15.7°C 99% 0.1 mph S0.2 kmh S 0.7 mph1.1 kmh 29.82 in1009.8 mb 0.00 in0.0 mm 0.00 in0.0 mm 0.04 in1.0 mm
02:38 AM 60.4°F15.8°C 60.2°F15.7°C 99% 0.1 mph S0.2 kmh S 0.7 mph1.1 kmh 29.82 in1009.8 mb 0.00 in0.0 mm 0.00 in0.0 mm 0.04 in1.0 mm
02:37 AM 60.4°F15.8°C 60.2°F15.7°C 99% 0.1 mph S0.2 kmh S 0.7 mph1.1 kmh 29.82 in1009.8 mb 0.00 in0.0 mm 0.00 in0.0 mm 0.04 in1.0 mm
02:36 AM 60.4°F15.8°C 60.2°F15.7°C 99% 0.1 mph S0.2 kmh S 0.7 mph1.1 kmh 29.82 in1009.8 mb 0.00 in0.0 mm 0.00 in0.0 mm 0.04 in1.0 mm
02:35 AM 60.4°F15.8°C 60.2°F15.7°C 99% 0.2 mph SSW0.3 kmh SSW 0.7 mph1.1 kmh 29.83 in1010.2 mb 0.00 in0.0 mm 0.00 in0.0 mm 0.04 in1.0 mm
02:34 AM 60.4°F15.8°C 60.2°F15.7°C 99% 0.2 mph SSW0.3 kmh SSW 0.7 mph1.1 kmh 29.83 in1010.2 mb 0.00 in0.0 mm 0.00 in0.0 mm 0.04 in1.0 mm
02:33 AM 60.4°F15.8°C 60.2°F15.7°C 99% 0.2 mph SW0.3 kmh SW 0.7 mph1.1 kmh 29.83 in1010.2 mb 0.00 in0.0 mm 0.00 in0.0 mm 0.04 in1.0 mm
02:32 AM 60.4°F15.8°C 60.2°F15.7°C 99% 0.4 mph SW0.6 kmh SW 3.1 mph5.0 kmh 29.83 in1010.2 mb 0.00 in0.0 mm 0.00 in0.0 mm 0.04 in1.0 mm
02:31 AM 60.4°F15.8°C 60.2°F15.7°C 99% 0.7 mph SW1.1 kmh SW 3.1 mph5.0 kmh 29.83 in1010.2 mb 0.00 in0.0 mm 0.00 in0.0 mm 0.04 in1.0 mm
02:30 AM 60.4°F15.8°C 60.2°F15.7°C 99% 0.9 mph SSW1.4 kmh SSW 3.1 mph5.0 kmh 29.82 in1009.8 mb 0.00 in0.0 mm 0.00 in0.0 mm 0.04 in1.0 mm
02:29 AM 60.4°F15.8°C 60.2°F15.7°C 99% 1.1 mph SSW1.8 kmh SSW 3.1 mph5.0 kmh 29.83 in1010.2 mb 0.00 in0.0 mm 0.00 in0.0 mm 0.04 in1.0 mm
02:28 AM 60.4°F15.8°C 60.2°F15.7°C 99% 1.3 mph SSW2.1 kmh SSW 3.1 mph5.0 kmh 29.83 in1010.2 mb 0.00 in0.0 mm 0.00 in0.0 mm 0.04 in1.0 mm
02:27 AM 60.4°F15.8°C 60.2°F15.7°C 99% 1.6 mph SSW2.6 kmh SSW 3.1 mph5.0 kmh 29.82 in1009.8 mb 0.00 in0.0 mm 0.00 in0.0 mm 0.04 in1.0 mm
02:26 AM 60.4°F15.8°C 60.2°F15.7°C 99% 1.8 mph SSW2.9 kmh SSW 3.1 mph5.0 kmh 29.83 in1010.2 mb 0.00 in0.0 mm 0.00 in0.0 mm 0.04 in1.0 mm
02:25 AM 60.4°F15.8°C 60.2°F15.7°C 99% 2.0 mph SSW3.2 kmh SSW 3.1 mph5.0 kmh 29.83 in1010.2 mb 0.00 in0.0 mm 0.00 in0.0 mm 0.04 in1.0 mm
02:24 AM 60.4°F15.8°C 60.2°F15.7°C 99% 2.1 mph SSW3.4 kmh SSW 3.1 mph5.0 kmh 29.82 in1009.8 mb 0.00 in0.0 mm 0.00 in0.0 mm 0.04 in1.0 mm
02:23 AM 60.4°F15.8°C 60.2°F15.7°C 99% 2.0 mph SSW3.2 kmh SSW 3.1 mph5.0 kmh 29.83 in1010.2 mb 0.00 in0.0 mm 0.00 in0.0 mm 0.04 in1.0 mm
02:22 AM 60.4°F15.8°C 60.2°F15.7°C 99% 1.7 mph S2.7 kmh S 3.1 mph5.0 kmh 29.83 in1010.2 mb 0.00 in0.0 mm 0.00 in0.0 mm 0.04 in1.0 mm
02:21 AM 60.4°F15.8°C 60.2°F15.7°C 99% 1.5 mph S2.4 kmh S 3.1 mph5.0 kmh 29.83 in1010.2 mb 0.00 in0.0 mm 0.00 in0.0 mm 0.04 in1.0 mm
02:20 AM 60.4°F15.8°C 60.2°F15.7°C 99% 1.2 mph S1.9 kmh S 3.1 mph5.0 kmh 29.82 in1009.8 mb 0.00 in0.0 mm 0.00 in0.0 mm 0.04 in1.0 mm
02:19 AM 60.4°F15.8°C 60.2°F15.7°C 99% 1.0 mph SSW1.6 kmh SSW 3.1 mph5.0 kmh 29.83 in1010.2 mb 0.00 in0.0 mm 0.00 in0.0 mm 0.04 in1.0 mm
02:18 AM 60.4°F15.8°C 60.2°F15.7°C 99% 0.9 mph SSW1.4 kmh SSW 3.1 mph5.0 kmh 29.83 in1010.2 mb 0.00 in0.0 mm 0.00 in0.0 mm 0.04 in1.0 mm
02:17 AM 60.4°F15.8°C 60.2°F15.7°C 99% 0.6 mph SSW1.0 kmh SSW 3.1 mph5.0 kmh 29.83 in1010.2 mb 0.00 in0.0 mm 0.00 in0.0 mm 0.04 in1.0 mm
02:16 AM 60.4°F15.8°C 60.2°F15.7°C 99% 0.3 mph SSW0.5 kmh SSW 2.2 mph3.5 kmh 29.83 in1010.2 mb 0.00 in0.0 mm 0.00 in0.0 mm 0.04 in1.0 mm
02:15 AM 60.4°F15.8°C 60.2°F15.7°C 99% 0.2 mph SW0.3 kmh SW 0.7 mph1.1 kmh 29.83 in1010.2 mb 0.00 in0.0 mm 0.00 in0.0 mm 0.04 in1.0 mm
02:14 AM 60.6°F15.9°C 60.4°F15.8°C 99% 0.1 mph SW0.2 kmh SW 0.7 mph1.1 kmh 29.83 in1010.2 mb 0.00 in0.0 mm 0.00 in0.0 mm 0.04 in1.0 mm
02:13 AM 60.6°F15.9°C 60.4°F15.8°C 99% 0.1 mph SW0.2 kmh SW 0.7 mph1.1 kmh 29.83 in1010.2 mb 0.00 in0.0 mm 0.00 in0.0 mm 0.04 in1.0 mm
02:12 AM 60.6°F15.9°C 60.4°F15.8°C 99% 0.1 mph SW0.2 kmh SW 1.6 mph2.6 kmh 29.83 in1010.2 mb 0.00 in0.0 mm 0.00 in0.0 mm 0.04 in1.0 mm
02:11 AM 60.6°F15.9°C 60.4°F15.8°C 99% 0.3 mph S0.5 kmh S 3.1 mph5.0 kmh 29.83 in1010.2 mb 0.00 in0.0 mm 0.00 in0.0 mm 0.04 in1.0 mm
02:10 AM 60.6°F15.9°C 60.4°F15.8°C 99% 0.6 mph S1.0 kmh S 3.1 mph5.0 kmh 29.83 in1010.2 mb 0.00 in0.0 mm 0.00 in0.0 mm 0.04 in1.0 mm
02:09 AM 60.6°F15.9°C 60.4°F15.8°C 99% 0.8 mph S1.3 kmh S 3.1 mph5.0 kmh 29.83 in1010.2 mb 0.00 in0.0 mm 0.00 in0.0 mm 0.04 in1.0 mm
02:08 AM 60.6°F15.9°C 60.4°F15.8°C 99% 0.9 mph S1.4 kmh S 3.1 mph5.0 kmh 29.83 in1010.2 mb 0.00 in0.0 mm 0.00 in0.0 mm 0.04 in1.0 mm
02:07 AM 60.6°F15.9°C 60.4°F15.8°C 99% 1.0 mph S1.6 kmh S 3.1 mph5.0 kmh 29.83 in1010.2 mb 0.00 in0.0 mm 0.00 in0.0 mm 0.04 in1.0 mm
02:06 AM 60.6°F15.9°C 60.4°F15.8°C 99% 1.0 mph S1.6 kmh S 3.1 mph5.0 kmh 29.83 in1010.2 mb 0.00 in0.0 mm 0.00 in0.0 mm 0.04 in1.0 mm
02:05 AM 60.6°F15.9°C 60.4°F15.8°C 99% 1.0 mph S1.6 kmh S 3.1 mph5.0 kmh 29.83 in1010.2 mb 0.00 in0.0 mm 0.00 in0.0 mm 0.04 in1.0 mm
02:04 AM 60.6°F15.9°C 60.4°F15.8°C 99% 1.0 mph S1.6 kmh S 3.1 mph5.0 kmh 29.83 in1010.2 mb 0.00 in0.0 mm 0.00 in0.0 mm 0.04 in1.0 mm
02:03 AM 60.6°F15.9°C 60.4°F15.8°C 99% 1.0 mph S1.6 kmh S 3.1 mph5.0 kmh 29.83 in1010.2 mb 0.00 in0.0 mm 0.00 in0.0 mm 0.04 in1.0 mm
02:02 AM 60.6°F15.9°C 60.4°F15.8°C 99% 0.9 mph S1.4 kmh S 3.1 mph5.0 kmh 29.83 in1010.2 mb 0.00 in0.0 mm 0.00 in0.0 mm 0.04 in1.0 mm
02:01 AM 60.6°F15.9°C 60.4°F15.8°C 99% 0.7 mph S1.1 kmh S 3.1 mph5.0 kmh 29.83 in1010.2 mb 0.00 in0.0 mm 0.00 in0.0 mm 0.04 in1.0 mm
02:00 AM 60.6°F15.9°C 60.4°F15.8°C 99% 0.5 mph S0.8 kmh S 2.2 mph3.5 kmh 29.83 in1010.2 mb 0.00 in0.0 mm 0.00 in0.0 mm 0.04 in1.0 mm
01:59 AM 60.6°F15.9°C 60.4°F15.8°C 99% 0.3 mph SSW0.5 kmh SSW 1.6 mph2.6 kmh 29.83 in1010.2 mb 0.00 in0.0 mm 0.00 in0.0 mm 0.04 in1.0 mm
01:58 AM 60.6°F15.9°C 60.4°F15.8°C 99% 0.1 mph SSW0.2 kmh SSW 1.6 mph2.6 kmh 29.83 in1010.2 mb 0.00 in0.0 mm 0.00 in0.0 mm 0.04 in1.0 mm
01:57 AM 60.6°F15.9°C 60.4°F15.8°C 99% 0.1 mph S0.2 kmh S 0.7 mph1.1 kmh 29.83 in1010.2 mb 0.00 in0.0 mm 0.00 in0.0 mm 0.04 in1.0 mm
01:56 AM 60.6°F15.9°C 60.4°F15.8°C 99% 0.1 mph S0.2 kmh S 0.7 mph1.1 kmh 29.83 in1010.2 mb 0.00 in0.0 mm 0.00 in0.0 mm 0.04 in1.0 mm
01:55 AM 60.6°F15.9°C 60.4°F15.8°C 99% 0.4 mph S0.6 kmh S 3.1 mph5.0 kmh 29.83 in1010.2 mb 0.00 in0.0 mm 0.00 in0.0 mm 0.04 in1.0 mm
01:54 AM 60.6°F15.9°C 60.4°F15.8°C 99% 0.5 mph S0.8 kmh S 3.1 mph5.0 kmh 29.83 in1010.2 mb 0.00 in0.0 mm 0.00 in0.0 mm 0.04 in1.0 mm
01:53 AM 60.6°F15.9°C 60.4°F15.8°C 99% 0.5 mph S0.8 kmh S 3.1 mph5.0 kmh 29.83 in1010.2 mb 0.00 in0.0 mm 0.00 in0.0 mm 0.04 in1.0 mm
01:52 AM 60.6°F15.9°C 60.4°F15.8°C 99% 0.5 mph S0.8 kmh S 3.1 mph5.0 kmh 29.83 in1010.2 mb 0.00 in0.0 mm 0.00 in0.0 mm 0.04 in1.0 mm
01:51 AM 60.6°F15.9°C 60.4°F15.8°C 99% 0.5 mph S0.8 kmh S 3.1 mph5.0 kmh 29.83 in1010.2 mb 0.00 in0.0 mm 0.00 in0.0 mm 0.04 in1.0 mm
01:50 AM 60.6°F15.9°C 60.4°F15.8°C 99% 0.6 mph S1.0 kmh S 3.1 mph5.0 kmh 29.83 in1010.2 mb 0.00 in0.0 mm 0.00 in0.0 mm 0.04 in1.0 mm
01:49 AM 60.8°F16.0°C 60.2°F15.7°C 98% 0.7 mph S1.1 kmh S 3.1 mph5.0 kmh 29.83 in1010.2 mb 0.00 in0.0 mm 0.00 in0.0 mm 0.04 in1.0 mm
01:48 AM 60.6°F15.9°C 60.4°F15.8°C 99% 0.9 mph S1.4 kmh S 3.1 mph5.0 kmh 29.83 in1010.2 mb 0.00 in0.0 mm 0.00 in0.0 mm 0.04 in1.0 mm
01:47 AM 60.8°F16.0°C 60.0°F15.6°C 97% 1.2 mph S1.9 kmh S 3.1 mph5.0 kmh 29.83 in1010.2 mb 0.00 in0.0 mm 0.00 in0.0 mm 0.04 in1.0 mm
01:46 AM 60.6°F15.9°C 60.1°F15.6°C 98% 1.5 mph S2.4 kmh S 3.8 mph6.1 kmh 29.83 in1010.2 mb 0.00 in0.0 mm 0.00 in0.0 mm 0.04 in1.0 mm
01:45 AM 60.8°F16.0°C 60.0°F15.6°C 97% 1.4 mph SSW2.3 kmh SSW 3.8 mph6.1 kmh 29.83 in1010.2 mb 0.00 in0.0 mm 0.00 in0.0 mm 0.04 in1.0 mm